Darstellungsparameter: Aktuell verwendete Einstellungen:
Skalierung der Graphiken ... ?
xyx+y,   Skalierungsfaktor:      Skalierung: Modus: x, Faktor: 1
Darstellungszeitraum ... ?
Vom - - bis: - -   Zeitraum: 22.05.2017 - 21.05.2022
Min/Max/Avg-Anzeige ... ?
Zeige MMA aktuell
Zeige MMA Monat
Zeige MMA alles
Zeige --A aktuell
Zeige --A Monat
Zeige --A alles
Keine MMA-Anzeige
MMA:
Keine MMA-Graphiken
MMA-Basis: 22.05.2017 - 21.05.2022
Quicknavigation für Darstellung... ?
Tage:      1T, 2T, 3T, 5T -1T -2T -3T -5T +1T +2T +3T +5T
Wochen: 1W, 2W, 3W -1W -2W -3W +1W +2W +3W
Monate: 1M, 3M, 6M -1M -3M -6M +1M +3M +6M
Jahre:    1J, 3J, 5J, 10J -1J -3J -5J -10J +1J +3J +5J +10J
Nutze für die Darstellung ... ?
Originaldaten oder ...
Mittelwerte Minima Maxima auf...
Stundenbasis Tagesbasis Wochenbasis
Monatsbasis Jahresbasis      Datenbasis: Mittelwerte auf Tagesbasis
Darstellen als:
Statistik (Auto) Statistik J:M      Darstellung:
Zur Graphik,    zurück zur Übersicht aller Sensoren.
 
Tabellarische Datenbersicht: ?
 
Sensor: Nr:Datum:Temp:Abs-Feuchte:Windchill:Wind:
Aussen-T/F 1 22-05-2017 00:00:00 16.05417 C 10.09 g/m*3 16.05 C 2.60903 km/h
2 23-05-2017 00:00:00 18.46736 C 10.97 g/m*3 18.47 C 6.62188 km/h
3 24-05-2017 00:00:00 16.81771 C 10.56 g/m*3 16.82 C 3.53924 km/h
4 25-05-2017 00:00:00 18.59167 C 11.18 g/m*3 18.59 C 5.55972 km/h
5 26-05-2017 00:00:00 18.71042 C 11.35 g/m*3 18.71 C 5.42118 km/h
6 27-05-2017 00:00:00 21.17049 C 12.33 g/m*3 21.17 C 3.3066 km/h
7 28-05-2017 00:00:00 21.21493 C 14.54 g/m*3 21.21 C 1.70139 km/h
8 29-05-2017 00:00:00 23.54271 C 16.02 g/m*3 23.54 C 2.28472 km/h
9 30-05-2017 00:00:00 21.97847 C 14.53 g/m*3 21.98 C 3.78472 km/h
10 31-05-2017 00:00:00 18.61667 C 10.92 g/m*3 18.62 C 4.02222 km/h
11 01-06-2017 00:00:00 18.99792 C 11.66 g/m*3 19 C 1.80278 km/h
12 02-06-2017 00:00:00 19.04583 C 13.67 g/m*3 19.05 C 1.15868 km/h
13 03-06-2017 00:00:00 18.89236 C 15.13 g/m*3 18.89 C 0.87535 km/h
14 04-06-2017 00:00:00 16.44306 C 11.83 g/m*3 16.44 C 4.99271 km/h
15 05-06-2017 00:00:00 16.50278 C 10.81 g/m*3 16.5 C 3.43924 km/h
16 06-06-2017 00:00:00 15.18958 C 10.1 g/m*3 15.19 C 8.51181 km/h
17 07-06-2017 00:00:00 13.87778 C 9.04 g/m*3 13.88 C 11.74306 km/h
18 08-06-2017 00:00:00 18.08924 C 10.58 g/m*3 18.09 C 4.46076 km/h
19 09-06-2017 00:00:00 16.93299 C 11.76 g/m*3 16.93 C 4.00139 km/h
20 10-06-2017 00:00:00 17.78368 C 10.69 g/m*3 17.78 C 3.97083 km/h
21 11-06-2017 00:00:00 20.38229 C 12.71 g/m*3 20.38 C 1.90972 km/h
22 12-06-2017 00:00:00 20.21667 C 10.4 g/m*3 20.22 C 8.14965 km/h
23 13-06-2017 00:00:00 17.4059 C 10 g/m*3 17.41 C 4.20868 km/h
24 14-06-2017 00:00:00 18.66597 C 11.12 g/m*3 18.67 C 4.15208 km/h
25 15-06-2017 00:00:00 21.18299 C 13.02 g/m*3 21.18 C 2.95868 km/h
Sensor: Nr:Datum:Temp:Abs-Feuchte:Windchill:Wind:
Aussen-T/F 26 16-06-2017 00:00:00 18.97743 C 10.23 g/m*3 18.98 C 8.06076 km/h
27 17-06-2017 00:00:00 17.05035 C 11.09 g/m*3 17.05 C 3.42014 km/h
28 18-06-2017 00:00:00 21.54514 C 13.2 g/m*3 21.55 C 4.86389 km/h
29 19-06-2017 00:00:00 22.06667 C 12.53 g/m*3 22.07 C 3.4684 km/h
30 20-06-2017 00:00:00 23.55069 C 13.27 g/m*3 23.55 C 3.48715 km/h
31 21-06-2017 00:00:00 25.2191 C 14.48 g/m*3 25.22 C 3.80035 km/h
32 22-06-2017 00:00:00 23.325 C 16.3 g/m*3 23.33 C 3.01181 km/h
33 23-06-2017 00:00:00 22.47014 C 13.64 g/m*3 22.47 C 5.95729 km/h
34 24-06-2017 00:00:00 20.09028 C 11.27 g/m*3 20.09 C 7.27708 km/h
35 25-06-2017 00:00:00 20.12639 C 12.2 g/m*3 20.13 C 6.64236 km/h
36 26-06-2017 00:00:00 21.1184 C 12.39 g/m*3 21.12 C 5.93507 km/h
37 27-06-2017 00:00:00 18.80104 C 13.74 g/m*3 18.8 C 2.39063 km/h
38 28-06-2017 00:00:00 19.80208 C 15.52 g/m*3 19.8 C 2.68854 km/h
39 29-06-2017 00:00:00 17.97535 C 13.23 g/m*3 17.98 C 4.00035 km/h
40 30-06-2017 00:00:00 17.41624 C 11.48 g/m*3 17.42 C 7.40111 km/h
41 01-07-2017 00:00:00 16.45451 C 12.55 g/m*3 16.45 C 5.17604 km/h
42 02-07-2017 00:00:00 16.87188 C 12.67 g/m*3 16.87 C 4.40313 km/h
43 03-07-2017 00:00:00 17.94201 C 11.16 g/m*3 17.94 C 5.63924 km/h
44 04-07-2017 00:00:00 19.98993 C 11.91 g/m*3 19.99 C 3.58125 km/h
45 05-07-2017 00:00:00 21.5875 C 13.09 g/m*3 21.59 C 3.70139 km/h
46 06-07-2017 00:00:00 21.41701 C 14.36 g/m*3 21.42 C 3.34063 km/h
47 07-07-2017 00:00:00 23.46076 C 15.57 g/m*3 23.46 C 5.92986 km/h
48 08-07-2017 00:00:00 22.5559 C 14.13 g/m*3 22.56 C 3.05868 km/h
49 09-07-2017 00:00:00 22.69271 C 14.97 g/m*3 22.69 C 3.67882 km/h
50 10-07-2017 00:00:00 19.75243 C 16.01 g/m*3 19.75 C 0.84063 km/h
Sensor: Nr:Datum:Temp:Abs-Feuchte:Windchill:Wind:
Aussen-T/F 51 11-07-2017 00:00:00 19.33264 C 13.61 g/m*3 19.33 C 5.26319 km/h
52 12-07-2017 00:00:00 17.22951 C 13.12 g/m*3 17.23 C 7.25833 km/h
53 13-07-2017 00:00:00 15.53958 C 10.03 g/m*3 15.54 C 3.51319 km/h
54 14-07-2017 00:00:00 16.34653 C 10.78 g/m*3 16.35 C 3.36563 km/h
55 15-07-2017 00:00:00 16.46389 C 10.44 g/m*3 16.46 C 3.6184 km/h
56 16-07-2017 00:00:00 19.03924 C 13.25 g/m*3 19.04 C 3.24653 km/h
57 17-07-2017 00:00:00 20.61007 C 14.55 g/m*3 20.61 C 2.96979 km/h
58 18-07-2017 00:00:00 21.7625 C 14.45 g/m*3 21.76 C 3.56875 km/h
59 19-07-2017 00:00:00 23.46806 C 15.48 g/m*3 23.47 C 3.69097 km/h
60 20-07-2017 00:00:00 21.83889 C 15.3 g/m*3 21.84 C 5.35903 km/h
61 21-07-2017 00:00:00 20.14583 C 12.5 g/m*3 20.15 C 3.22951 km/h
62 22-07-2017 00:00:00 21.77813 C 15.77 g/m*3 21.78 C 2.44236 km/h
63 23-07-2017 00:00:00 18.27639 C 12.29 g/m*3 18.28 C 5.68299 km/h
64 24-07-2017 00:00:00 14.9816 C 11.7 g/m*3 14.98 C 1.8816 km/h
65 25-07-2017 00:00:00 14.46979 C 11.94 g/m*3 14.47 C 3.57743 km/h
66 26-07-2017 00:00:00 17.50729 C 12.83 g/m*3 17.51 C 6.14132 km/h
67 27-07-2017 00:00:00 18.9184 C 14.54 g/m*3 18.92 C 3.37674 km/h
68 28-07-2017 00:00:00 17.14236 C 12.2 g/m*3 17.14 C 4.89167 km/h
69 29-07-2017 00:00:00 20.44271 C 14.37 g/m*3 20.44 C 3.35764 km/h
70 30-07-2017 00:00:00 22.74236 C 14.92 g/m*3 22.74 C 7.14931 km/h
71 31-07-2017 00:00:00 20.73542 C 14.05 g/m*3 20.74 C 3.22917 km/h
72 01-08-2017 00:00:00 19.90799 C 16.27 g/m*3 19.91 C 1.10174 km/h
73 02-08-2017 00:00:00 21.09306 C 15.93 g/m*3 21.09 C 2.4434 km/h
74 03-08-2017 00:00:00 21.32153 C 15.57 g/m*3 21.32 C 4.87639 km/h
75 04-08-2017 00:00:00 20.4309 C 13.51 g/m*3 20.43 C 5.63403 km/h
Sensor: Nr:Datum:Temp:Abs-Feuchte:Windchill:Wind:
Aussen-T/F 76 05-08-2017 00:00:00 18.99826 C 12.99 g/m*3 19 C 5.44931 km/h
77 06-08-2017 00:00:00 17.06181 C 10.81 g/m*3 17.06 C 2.57917 km/h
78 07-08-2017 00:00:00 17.21319 C 10.92 g/m*3 17.21 C 1.88125 km/h
79 08-08-2017 00:00:00 17.34063 C 12.81 g/m*3 17.34 C 1.82118 km/h
80 09-08-2017 00:00:00 17.64167 C 11.72 g/m*3 17.64 C 2.90521 km/h
81 10-08-2017 00:00:00 15.45139 C 12.48 g/m*3 15.45 C 0.27292 km/h
82 11-08-2017 00:00:00 14.99271 C 12.23 g/m*3 14.99 C 2.51771 km/h
83 12-08-2017 00:00:00 15.39965 C 12.41 g/m*3 15.4 C 7.06667 km/h
84 13-08-2017 00:00:00 18.25694 C 13.14 g/m*3 18.26 C 3.16806 km/h
85 14-08-2017 00:00:00 18.07396 C 13.46 g/m*3 18.07 C 1.50764 km/h
86 15-08-2017 00:00:00 18.78299 C 15.05 g/m*3 18.78 C 0.67396 km/h
87 16-08-2017 00:00:00 19.80486 C 14.91 g/m*3 19.8 C 0.68403 km/h
88 17-08-2017 00:00:00 19.18438 C 14.38 g/m*3 19.18 C 2.50069 km/h
89 18-08-2017 00:00:00 18.28819 C 14.71 g/m*3 18.29 C 1.55625 km/h
90 19-08-2017 00:00:00 14.62049 C 11.35 g/m*3 14.62 C 4.0434 km/h
91 20-08-2017 00:00:00 14.85243 C 10.98 g/m*3 14.85 C 3.08681 km/h
92 21-08-2017 00:00:00 15.85833 C 11.1 g/m*3 15.86 C 1.35313 km/h
93 22-08-2017 00:00:00 15.7316 C 11.38 g/m*3 15.73 C 0 km/h
94 23-08-2017 00:00:00 17.82812 C 12.81 g/m*3 17.83 C 0.16215 km/h
95 24-08-2017 00:00:00 19.30625 C 13.63 g/m*3 19.31 C 1.4684 km/h
96 25-08-2017 00:00:00 18.12049 C 13.83 g/m*3 18.12 C 0.43646 km/h
97 26-08-2017 00:00:00 20.59861 C 16.63 g/m*3 20.6 C 0.80938 km/h
98 27-08-2017 00:00:00 19.43507 C 14.96 g/m*3 19.44 C 0.06667 km/h
99 28-08-2017 00:00:00 19.49063 C 14.39 g/m*3 19.49 C 0.04444 km/h
100 29-08-2017 00:00:00 19.97986 C 14.91 g/m*3 19.98 C 0 km/h
Sensor: Nr:Datum:Temp:Abs-Feuchte:Windchill:Wind:
Aussen-T/F 101 30-08-2017 00:00:00 20.58819 C 15.93 g/m*3 20.59 C 0.45868 km/h
102 31-08-2017 00:00:00 17.03194 C 12.63 g/m*3 17.03 C 2.87639 km/h
103 01-09-2017 00:00:00 13.72639 C 10.48 g/m*3 13.73 C 0.7375 km/h
104 02-09-2017 00:00:00 14.2625 C 10.96 g/m*3 14.26 C 1.05694 km/h
105 03-09-2017 00:00:00 13.22257 C 10.09 g/m*3 13.22 C 0.08368 km/h
106 04-09-2017 00:00:00 13.75208 C 10.7 g/m*3 13.75 C 0 km/h
107 05-09-2017 00:00:00 17.85347 C 13.75 g/m*3 17.85 C 0.95694 km/h
108 06-09-2017 00:00:00 17.36389 C 11.62 g/m*3 17.36 C 6.73403 km/h
109 07-09-2017 00:00:00 15.38472 C 10.58 g/m*3 15.38 C 4.74201 km/h
110 08-09-2017 00:00:00 15.88958 C 10.93 g/m*3 15.89 C 6.42396 km/h
111 09-09-2017 00:00:00 14.59236 C 11.45 g/m*3 14.59 C 4.23333 km/h
112 10-09-2017 00:00:00 13.23924 C 10.22 g/m*3 13.24 C 3.54236 km/h
113 11-09-2017 00:00:00 14.41667 C 10.52 g/m*3 14.42 C 5.17014 km/h
114 12-09-2017 00:00:00 14.27674 C 10.36 g/m*3 14.28 C 7.5184 km/h
115 13-09-2017 00:00:00 14.43993 C 10.85 g/m*3 14.44 C 8.21215 km/h
116 14-09-2017 00:00:00 11.98194 C 9.8 g/m*3 11.98 C 8.05938 km/h
117 15-09-2017 00:00:00 12.37917 C 9.61 g/m*3 12.38 C 4.32257 km/h
118 16-09-2017 00:00:00 10.41007 C 8.52 g/m*3 10.41 C 2.40174 km/h
119 17-09-2017 00:00:00 9.97118 C 8.91 g/m*3 9.97 C 0.17222 km/h
120 18-09-2017 00:00:00 10.50764 C 8.82 g/m*3 10.51 C 3.9375 km/h
121 19-09-2017 00:00:00 11.95903 C 9.85 g/m*3 11.96 C 1.32465 km/h
122 20-09-2017 00:00:00 11.3184 C 9.46 g/m*3 11.32 C 2.12014 km/h
123 21-09-2017 00:00:00 10.7559 C 9.09 g/m*3 10.76 C 0 km/h
124 22-09-2017 00:00:00 11.39757 C 9.52 g/m*3 11.4 C 0.00556 km/h
125 23-09-2017 00:00:00 13.63785 C 10.56 g/m*3 13.64 C 0.44618 km/h
Sensor: Nr:Datum:Temp:Abs-Feuchte:Windchill:Wind:
Aussen-T/F 126 24-09-2017 00:00:00 12.54826 C 10.32 g/m*3 12.55 C 0.02222 km/h
127 25-09-2017 00:00:00 12.85729 C 10.45 g/m*3 12.86 C 0.28889 km/h
128 26-09-2017 00:00:00 13.54097 C 10.8 g/m*3 13.54 C 0.12222 km/h
129 27-09-2017 00:00:00 13.15069 C 10.78 g/m*3 13.15 C 0 km/h
130 28-09-2017 00:00:00 14.79861 C 11.89 g/m*3 14.8 C 0.01111 km/h
131 29-09-2017 00:00:00 17.64722 C 13.79 g/m*3 17.65 C 0.12778 km/h
132 30-09-2017 00:00:00 14.56597 C 11.89 g/m*3 14.57 C 1.07049 km/h
133 01-10-2017 00:00:00 11.45937 C 9.79 g/m*3 11.46 C 0.10556 km/h
134 02-10-2017 00:00:00 14.42951 C 11.51 g/m*3 14.43 C 1.49063 km/h
135 03-10-2017 00:00:00 12.49618 C 9.77 g/m*3 12.5 C 3.20521 km/h
136 04-10-2017 00:00:00 11.37812 C 9.03 g/m*3 11.38 C 5.95556 km/h
137 05-10-2017 00:00:00 12.35868 C 9.35 g/m*3 12.36 C 12.15313 km/h
138 06-10-2017 00:00:00 9.83438 C 8.52 g/m*3 9.83 C 2.725 km/h
139 07-10-2017 00:00:00 10.24653 C 8.57 g/m*3 9.14 C 8.77708 km/h
140 08-10-2017 00:00:00 11.93993 C 9.94 g/m*3 11.94 C 4.34583 km/h
141 09-10-2017 00:00:00 11.42222 C 9.62 g/m*3 11.42 C 0 km/h
142 10-10-2017 00:00:00 13.19062 C 10.69 g/m*3 13.19 C 1.63715 km/h
143 11-10-2017 00:00:00 13.59722 C 10.66 g/m*3 13.6 C 1.70174 km/h
144 12-10-2017 00:00:00 13.7684 C 10.1 g/m*3 13.77 C 3.95035 km/h
145 13-10-2017 00:00:00 14.15556 C 11.19 g/m*3 14.16 C 2.80556 km/h
146 14-10-2017 00:00:00 13.13611 C 10.91 g/m*3 13.14 C 0 km/h
147 15-10-2017 00:00:00 12.53021 C 10.57 g/m*3 12.53 C 0 km/h
148 16-10-2017 00:00:00 13.45347 C 11.15 g/m*3 13.45 C 0 km/h
149 17-10-2017 00:00:00 13.09201 C 10.93 g/m*3 13.09 C 0 km/h
150 18-10-2017 00:00:00 12.20313 C 10.34 g/m*3 12.2 C 0 km/h
Sensor: Nr:Datum:Temp:Abs-Feuchte:Windchill:Wind:
Aussen-T/F 151 19-10-2017 00:00:00 11.5059 C 9.9 g/m*3 11.51 C 0.01111 km/h
152 20-10-2017 00:00:00 10.5122 C 8.6 g/m*3 10.51 C 0.45 km/h
153 21-10-2017 00:00:00 11.76076 C 9.6 g/m*3 11.76 C 3.55208 km/h
154 22-10-2017 00:00:00 10.78507 C 8.44 g/m*3 9.58 C 9.92986 km/h
155 23-10-2017 00:00:00 10.79653 C 8.65 g/m*3 10.17 C 6.91319 km/h
156 24-10-2017 00:00:00 13.69826 C 10.8 g/m*3 13.7 C 4.73993 km/h
157 25-10-2017 00:00:00 15.51111 C 11.56 g/m*3 15.51 C 3.0375 km/h
158 26-10-2017 00:00:00 13.26736 C 10.51 g/m*3 13.27 C 4.36632 km/h
159 27-10-2017 00:00:00 11.49132 C 9.25 g/m*3 11.49 C 5.30313 km/h
160 28-10-2017 00:00:00 10.36076 C 8 g/m*3 9.28 C 8.76771 km/h
161 29-10-2017 00:00:00 10.65694 C 8.08 g/m*3 8.95 C 13.1941 km/h
162 30-10-2017 00:00:00 7.17326 C 6.7 g/m*3 7.17 C 3.06424 km/h
163 31-10-2017 00:00:00 7.26806 C 6.76 g/m*3 7.27 C 2.70417 km/h
164 01-11-2017 00:00:00 8.73021 C 7.41 g/m*3 8.73 C 3.67465 km/h
165 02-11-2017 00:00:00 8.66389 C 7.58 g/m*3 8.66 C 2.75313 km/h
166 03-11-2017 00:00:00 7.17014 C 7.34 g/m*3 7.17 C 0.63889 km/h
167 04-11-2017 00:00:00 8.34132 C 8.01 g/m*3 8.34 C 1.05347 km/h
168 05-11-2017 00:00:00 8.89965 C 8.08 g/m*3 8.9 C 2.91146 km/h
169 06-11-2017 00:00:00 5.51424 C 6.53 g/m*3 5.51 C 1.5066 km/h
170 07-11-2017 00:00:00 4.45868 C 6.23 g/m*3 4.46 C 0.68889 km/h
171 08-11-2017 00:00:00 6.63854 C 7.3 g/m*3 6.64 C 0.23333 km/h
172 09-11-2017 00:00:00 7.54028 C 7.68 g/m*3 7.54 C 2.1184 km/h
173 10-11-2017 00:00:00 7.46563 C 7.25 g/m*3 5.45 C 10.80903 km/h
174 11-11-2017 00:00:00 6.4559 C 7.02 g/m*3 5.69 C 5.11701 km/h
175 12-11-2017 00:00:00 4.6809 C 6.4 g/m*3 4.68 C 1.95069 km/h
Sensor: Nr:Datum:Temp:Abs-Feuchte:Windchill:Wind:
Aussen-T/F 176 13-11-2017 00:00:00 5.61111 C 6.57 g/m*3 4.67 C 5.29444 km/h
177 14-11-2017 00:00:00 4.67951 C 6.28 g/m*3 4.68 C 4.62222 km/h
178 15-11-2017 00:00:00 6.91389 C 6.94 g/m*3 6.91 C 2.09375 km/h
179 16-11-2017 00:00:00 4.84201 C 6.26 g/m*3 4.84 C 0.89549 km/h
180 17-11-2017 00:00:00 6.01007 C 6.95 g/m*3 6.01 C 1.26736 km/h
181 18-11-2017 00:00:00 3.55278 C 5.64 g/m*3 1.44 C 7.98229 km/h
182 19-11-2017 00:00:00 5.66389 C 6.36 g/m*3 4.01 C 7.62743 km/h
183 20-11-2017 00:00:00 5.24618 C 6.33 g/m*3 2.83 C 10.57674 km/h
184 21-11-2017 00:00:00 9.24063 C 8.12 g/m*3 7.29 C 12.69167 km/h
185 22-11-2017 00:00:00 8.26528 C 7.41 g/m*3 7.55 C 5.73819 km/h
186 23-11-2017 00:00:00 9.3059 C 7.92 g/m*3 8.66 C 6.05382 km/h
187 24-11-2017 00:00:00 10.45451 C 8.94 g/m*3 10.45 C 4.67118 km/h
188 25-11-2017 00:00:00 5.3059 C 6.63 g/m*3 5.31 C 3.64826 km/h
189 26-11-2017 00:00:00 3.77986 C 5.56 g/m*3 1.25 C 9.79132 km/h
190 27-11-2017 00:00:00 5.66632 C 6.19 g/m*3 2.28 C 17.03646 km/h
191 28-11-2017 00:00:00 4.26181 C 6.12 g/m*3 4.26 C 3.98542 km/h
192 29-11-2017 00:00:00 3.03576 C 5.69 g/m*3 3.04 C 1.06007 km/h
193 30-11-2017 00:00:00 2.44201 C 5.46 g/m*3 2.44 C 2.34965 km/h
194 01-12-2017 00:00:00 1.13021 C 5.01 g/m*3 1.13 C 0.67326 km/h
195 02-12-2017 00:00:00 0.97604 C 4.88 g/m*3 0.98 C 0.80556 km/h
196 03-12-2017 00:00:00 0.67674 C 4.74 g/m*3 -1.45 C 6.54375 km/h
197 04-12-2017 00:00:00 3.2816 C 5.79 g/m*3 1.28 C 7.44618 km/h
198 05-12-2017 00:00:00 4.74826 C 6.25 g/m*3 3.16 C 6.84826 km/h
199 06-12-2017 00:00:00 5.89792 C 6.5 g/m*3 5.9 C 3.86806 km/h
200 07-12-2017 00:00:00 4.77986 C 5.78 g/m*3 2.61 C 9.06354 km/h
Sensor: Nr:Datum:Temp:Abs-Feuchte:Windchill:Wind:
Aussen-T/F 201 08-12-2017 00:00:00 3.52014 C 5.46 g/m*3 1.3 C 8.35521 km/h
202 09-12-2017 00:00:00 1.27569 C 4.41 g/m*3 -2.13 C 11.44167 km/h
203 10-12-2017 00:00:00 2.40903 C 5.07 g/m*3 -0.53 C 10.39167 km/h
204 11-12-2017 00:00:00 6.02118 C 6.82 g/m*3 6.02 C 4.75764 km/h
205 12-12-2017 00:00:00 3.72292 C 5.3 g/m*3 0.85 C 11.29201 km/h
206 13-12-2017 00:00:00 3.81597 C 5.63 g/m*3 2.48 C 5.68299 km/h
207 14-12-2017 00:00:00 4.58611 C 5.95 g/m*3 2.05 C 10.54931 km/h
208 15-12-2017 00:00:00 2.98611 C 5.68 g/m*3 2.99 C 2.06563 km/h
209 16-12-2017 00:00:00 3.04167 C 5.72 g/m*3 3.04 C 1.3566 km/h
210 17-12-2017 00:00:00 3.05208 C 5.5 g/m*3 3.05 C 3.93611 km/h
211 18-12-2017 00:00:00 1.66944 C 5.19 g/m*3 1.67 C 1.02847 km/h
212 19-12-2017 00:00:00 3.35556 C 5.91 g/m*3 3.36 C 0.77222 km/h
213 20-12-2017 00:00:00 5.65625 C 6.93 g/m*3 5.66 C 1.13333 km/h
214 21-12-2017 00:00:00 7.51667 C 7.82 g/m*3 7.52 C 3.27188 km/h
215 22-12-2017 00:00:00 8.8125 C 8.53 g/m*3 8.81 C 1.27326 km/h
216 23-12-2017 00:00:00 8.76389 C 8.14 g/m*3 8.76 C 3.53056 km/h
217 24-12-2017 00:00:00 8.92292 C 7.78 g/m*3 7.33 C 10.05451 km/h
218 25-12-2017 00:00:00 6.77708 C 6.55 g/m*3 5.49 C 6.95694 km/h
219 26-12-2017 00:00:00 4.68299 C 6.04 g/m*3 3.68 C 5.10208 km/h
220 27-12-2017 00:00:00 5.13993 C 6.37 g/m*3 5.14 C 2.25625 km/h
221 28-12-2017 00:00:00 3.24826 C 5.33 g/m*3 1.08 C 7.99792 km/h
222 29-12-2017 00:00:00 2.41944 C 5.04 g/m*3 0.74 C 6.05243 km/h
223 30-12-2017 00:00:00 7.77187 C 7.4 g/m*3 6.15 C 9.0941 km/h
224 31-12-2017 00:00:00 12.74549 C 9.22 g/m*3 12.75 C 14.66389 km/h
225 01-01-2018 00:00:00 7.71458 C 6.84 g/m*3 5.35 C 13.26632 km/h
Sensor: Nr:Datum:Temp:Abs-Feuchte:Windchill:Wind:
Aussen-T/F 226 02-01-2018 00:00:00 6.21076 C 6.49 g/m*3 4.66 C 7.58021 km/h
227 03-01-2018 00:00:00 8.40313 C 7.17 g/m*3 5.86 C 15.68403 km/h
228 04-01-2018 00:00:00 8.24792 C 7.54 g/m*3 6.81 C 8.63264 km/h
229 05-01-2018 00:00:00 8.32257 C 7.57 g/m*3 7.53 C 6.02951 km/h
230 06-01-2018 00:00:00 6.22188 C 7.13 g/m*3 6.22 C 0.15 km/h
231 07-01-2018 00:00:00 5.11458 C 6.3 g/m*3 3.93 C 5.77014 km/h
232 08-01-2018 00:00:00 4.61597 C 5.9 g/m*3 2.81 C 7.55104 km/h
233 09-01-2018 00:00:00 5.0191 C 6.33 g/m*3 5.02 C 1.46389 km/h
234 10-01-2018 00:00:00 6.95243 C 7.13 g/m*3 6.95 C 1.45799 km/h
235 11-01-2018 00:00:00 6.99653 C 7.36 g/m*3 7 C 0.58403 km/h
236 12-01-2018 00:00:00 6.57708 C 7.22 g/m*3 6.58 C 0.61736 km/h
237 13-01-2018 00:00:00 5.39062 C 6.26 g/m*3 5.39 C 1.79861 km/h
238 14-01-2018 00:00:00 2.95174 C 5.07 g/m*3 2.95 C 2.72118 km/h
239 15-01-2018 00:00:00 3.65833 C 5.66 g/m*3 3.66 C 4.98194 km/h
240 16-01-2018 00:00:00 6.14618 C 6.28 g/m*3 3.64 C 12.03646 km/h
241 17-01-2018 00:00:00 3.45868 C 5.32 g/m*3 0.76 C 10.24063 km/h
242 18-01-2018 00:00:00 5.94167 C 5.93 g/m*3 3.05 C 14.11215 km/h
243 19-01-2018 00:00:00 3.96146 C 5.5 g/m*3 2.14 C 7.22083 km/h
244 20-01-2018 00:00:00 3.05937 C 5.44 g/m*3 3.06 C 3.72847 km/h
245 21-01-2018 00:00:00 2.72951 C 5.46 g/m*3 2.73 C 4.32535 km/h
246 22-01-2018 00:00:00 5.11563 C 6.42 g/m*3 5.12 C 3.5941 km/h
247 23-01-2018 00:00:00 7.37049 C 7.03 g/m*3 6.39 C 6.20451 km/h
248 24-01-2018 00:00:00 11.38021 C 8.86 g/m*3 11.38 C 8.62951 km/h
249 25-01-2018 00:00:00 9.87465 C 8.58 g/m*3 9.87 C 3.23924 km/h
250 26-01-2018 00:00:00 6.62222 C 7.24 g/m*3 6.62 C 0.9 km/h
Sensor: Nr:Datum:Temp:Abs-Feuchte:Windchill:Wind:
Aussen-T/F 251 27-01-2018 00:00:00 4.73299 C 6.35 g/m*3 4.73 C 3.17639 km/h
252 28-01-2018 00:00:00 7.29028 C 7.08 g/m*3 4.78 C 13.57986 km/h
253 29-01-2018 00:00:00 9.82882 C 7.97 g/m*3 7.9 C 13.46389 km/h
254 30-01-2018 00:00:00 5.41111 C 6.32 g/m*3 5.41 C 2.66736 km/h
255 31-01-2018 00:00:00 7.52153 C 7.3 g/m*3 5.31 C 12.00174 km/h
256 01-02-2018 00:00:00 3.10243 C 5.4 g/m*3 1.32 C 6.65 km/h
257 02-02-2018 00:00:00 3.41285 C 5.56 g/m*3 1.3 C 7.89028 km/h
258 03-02-2018 00:00:00 3.47118 C 5.38 g/m*3 3.47 C 2.27569 km/h
259 04-02-2018 00:00:00 1.1434 C 4.56 g/m*3 -1.19 C 7.35729 km/h
260 05-02-2018 00:00:00 0.32431 C 4.11 g/m*3 0.32 C 3.76007 km/h
261 06-02-2018 00:00:00 -0.78056 C 4.09 g/m*3 -0.78 C 2.96389 km/h
262 07-02-2018 00:00:00 -0.06111 C 4.42 g/m*3 -0.06 C 2.50139 km/h
263 08-02-2018 00:00:00 -2.18819 C 3.69 g/m*3 -2.19 C 1.21736 km/h
264 09-02-2018 00:00:00 -1.96007 C 3.91 g/m*3 -1.96 C 1.11354 km/h
265 10-02-2018 00:00:00 2.22257 C 4.97 g/m*3 0.53 C 5.99722 km/h
266 11-02-2018 00:00:00 3.32535 C 5.25 g/m*3 1.15 C 8.05417 km/h
267 12-02-2018 00:00:00 2.1059 C 4.81 g/m*3 0.18 C 6.61215 km/h
268 13-02-2018 00:00:00 -0.32674 C 4.04 g/m*3 -0.33 C 2.02847 km/h
269 14-02-2018 00:00:00 -1.52222 C 3.64 g/m*3 -1.52 C 2.22014 km/h
270 15-02-2018 00:00:00 1.83299 C 4.9 g/m*3 1.83 C 2.48333 km/h
271 16-02-2018 00:00:00 2.01597 C 5.35 g/m*3 2.02 C 1.68333 km/h
272 17-02-2018 00:00:00 0.40521 C 4.67 g/m*3 0.41 C 1.04444 km/h
273 18-02-2018 00:00:00 -1.01701 C 4.18 g/m*3 -1.02 C 1.60069 km/h
274 19-02-2018 00:00:00 1.11667 C 4.64 g/m*3 1.12 C 1.06146 km/h
275 20-02-2018 00:00:00 0.74271 C 4.44 g/m*3 0.74 C 1.1566 km/h
Sensor: Nr:Datum:Temp:Abs-Feuchte:Windchill:Wind:
Aussen-T/F 276 21-02-2018 00:00:00 1.21181 C 4.06 g/m*3 1.21 C 3.75799 km/h
277 22-02-2018 00:00:00 -0.03507 C 3.58 g/m*3 -2.34 C 6.70729 km/h
278 23-02-2018 00:00:00 -0.725 C 2.87 g/m*3 -3.37 C 7.34201 km/h
279 24-02-2018 00:00:00 -1.57049 C 2.74 g/m*3 -4.74 C 8.49132 km/h
280 25-02-2018 00:00:00 -2.70729 C 2.11 g/m*3 -6.52 C 9.91007 km/h
281 26-02-2018 00:00:00 -4.18854 C 2.42 g/m*3 -8.04 C 9.09861 km/h
282 27-02-2018 00:00:00 -6.00417 C 2.24 g/m*3 -9.08 C 6.31389 km/h
283 28-02-2018 00:00:00 -6.7066 C 1.98 g/m*3 -10.3 C 7.22743 km/h
284 01-03-2018 00:00:00 -2.91424 C 2.15 g/m*3 -6.95 C 10.55313 km/h
285 02-03-2018 00:00:00 -2.40208 C 2.58 g/m*3 -5.56 C 7.99167 km/h
286 03-03-2018 00:00:00 -0.40937 C 4.22 g/m*3 -0.41 C 2.65278 km/h
287 04-03-2018 00:00:00 4.02986 C 5.8 g/m*3 4.03 C 2.88438 km/h
288 05-03-2018 00:00:00 5.96979 C 6.23 g/m*3 5.97 C 3.11806 km/h
289 06-03-2018 00:00:00 4.90694 C 5.87 g/m*3 4.91 C 1.15243 km/h
290 07-03-2018 00:00:00 5.39792 C 6.28 g/m*3 4.2 C 5.93958 km/h
291 08-03-2018 00:00:00 6.19653 C 6.16 g/m*3 4.42 C 8.50521 km/h
292 09-03-2018 00:00:00 5.56528 C 6.63 g/m*3 5.57 C 0.73542 km/h
293 10-03-2018 00:00:00 10.03125 C 8.71 g/m*3 10.03 C 1.29306 km/h
294 11-03-2018 00:00:00 10.51493 C 8.87 g/m*3 10.51 C 2.37292 km/h
295 12-03-2018 00:00:00 9.7 C 8.32 g/m*3 9.7 C 4.65313 km/h
296 13-03-2018 00:00:00 7.76667 C 7.18 g/m*3 5.67 C 11.61493 km/h
297 14-03-2018 00:00:00 6.86458 C 6.42 g/m*3 6.86 C 3.45278 km/h
298 15-03-2018 00:00:00 6.40382 C 6.23 g/m*3 6.4 C 4.83681 km/h
299 16-03-2018 00:00:00 7.64097 C 7.66 g/m*3 7.64 C 2.3625 km/h
300 17-03-2018 00:00:00 -0.44516 C 3.9 g/m*3 -4.47 C 12.59211 km/h
Sensor: Nr:Datum:Temp:Abs-Feuchte:Windchill:Wind:
Aussen-T/F 301 18-03-2018 00:00:00 -1.64028 C 3.26 g/m*3 -6.02 C 12.99583 km/h
302 19-03-2018 00:00:00 -0.54479 C 3.07 g/m*3 -3.19 C 7.43993 km/h
303 20-03-2018 00:00:00 0.29653 C 3.63 g/m*3 -1.86 C 6.45729 km/h
304 21-03-2018 00:00:00 1.2059 C 4.02 g/m*3 1.21 C 3.86007 km/h
305 22-03-2018 00:00:00 3.06319 C 5.35 g/m*3 0.89 C 7.90903 km/h
306 23-03-2018 00:00:00 6.14028 C 6.53 g/m*3 6.14 C 4.91215 km/h
307 24-03-2018 00:00:00 5.20069 C 5.5 g/m*3 5.2 C 4.27847 km/h
308 25-03-2018 00:00:00 5.42862 C 5.35 g/m*3 5.43 C 1.58116 km/h
309 26-03-2018 00:00:00 7.61146 C 5.89 g/m*3 7.61 C 4.51944 km/h
310 27-03-2018 00:00:00 5.82222 C 6 g/m*3 5.82 C 2.61076 km/h
311 28-03-2018 00:00:00 8.50799 C 7.86 g/m*3 7.24 C 8.07014 km/h
312 29-03-2018 00:00:00 7.11424 C 5.91 g/m*3 5.45 C 8.70694 km/h
313 30-03-2018 00:00:00 6.82813 C 6.26 g/m*3 6.83 C 3.19583 km/h
314 31-03-2018 00:00:00 8.09792 C 6.55 g/m*3 8.1 C 3.37431 km/h
315 01-04-2018 00:00:00 7.66979 C 6.6 g/m*3 6.45 C 7.26771 km/h
316 02-04-2018 00:00:00 8.78611 C 6.51 g/m*3 8.79 C 2.61667 km/h
317 03-04-2018 00:00:00 13.35 C 7.85 g/m*3 13.35 C 5.34063 km/h
318 04-04-2018 00:00:00 11.17187 C 8.61 g/m*3 11.17 C 3.56354 km/h
319 05-04-2018 00:00:00 8.16042 C 7.03 g/m*3 6.83 C 8.06528 km/h
320 06-04-2018 00:00:00 6.97187 C 5.64 g/m*3 6.27 C 5.13125 km/h
321 07-04-2018 00:00:00 12.50035 C 7.31 g/m*3 12.5 C 4.33785 km/h
322 08-04-2018 00:00:00 14.90417 C 8.58 g/m*3 14.9 C 1.37778 km/h
323 09-04-2018 00:00:00 13.73333 C 8.63 g/m*3 13.73 C 2.37743 km/h
324 10-04-2018 00:00:00 13.3816 C 9.08 g/m*3 13.38 C 3.81424 km/h
325 11-04-2018 00:00:00 11.50035 C 9.04 g/m*3 11.5 C 3.41215 km/h
Sensor: Nr:Datum:Temp:Abs-Feuchte:Windchill:Wind:
Aussen-T/F 326 12-04-2018 00:00:00 13.06493 C 9.17 g/m*3 13.06 C 2.3941 km/h
327 13-04-2018 00:00:00 10.32188 C 8.45 g/m*3 10.32 C 3.15069 km/h
328 14-04-2018 00:00:00 13.08403 C 8.7 g/m*3 13.08 C 4.25278 km/h
329 15-04-2018 00:00:00 14.37465 C 10.1 g/m*3 14.37 C 1.85 km/h
330 16-04-2018 00:00:00 13.42882 C 9.15 g/m*3 13.43 C 3.92951 km/h
331 17-04-2018 00:00:00 13.72569 C 8.87 g/m*3 13.73 C 1.92604 km/h
332 18-04-2018 00:00:00 15.73264 C 9.36 g/m*3 15.73 C 3.05938 km/h
333 19-04-2018 00:00:00 17.21806 C 9.72 g/m*3 17.22 C 3.07951 km/h
334 20-04-2018 00:00:00 17.08681 C 9.86 g/m*3 17.09 C 0.76736 km/h
335 21-04-2018 00:00:00 18.09931 C 11.01 g/m*3 18.1 C 1.74896 km/h
336 22-04-2018 00:00:00 18.53681 C 11.59 g/m*3 18.54 C 2.82118 km/h
337 23-04-2018 00:00:00 18.01181 C 10.85 g/m*3 18.01 C 5.78785 km/h
338 24-04-2018 00:00:00 14.03854 C 8.78 g/m*3 14.04 C 5.82257 km/h
339 25-04-2018 00:00:00 13.47917 C 8.83 g/m*3 13.48 C 7.36354 km/h
340 26-04-2018 00:00:00 11.09167 C 6.55 g/m*3 11.09 C 9.10486 km/h
341 27-04-2018 00:00:00 11.96181 C 7.21 g/m*3 11.96 C 3.81458 km/h
342 28-04-2018 00:00:00 12.62917 C 8.08 g/m*3 12.63 C 4.77917 km/h
343 29-04-2018 00:00:00 14.24792 C 10.51 g/m*3 14.25 C 1.89306 km/h
344 30-04-2018 00:00:00 13.44931 C 9.07 g/m*3 13.45 C 11.19028 km/h
345 01-05-2018 00:00:00 9.59063 C 6.38 g/m*3 7.95 C 11.16215 km/h
346 02-05-2018 00:00:00 9.44549 C 6.87 g/m*3 9.45 C 1.49861 km/h
347 03-05-2018 00:00:00 12.35347 C 7.47 g/m*3 12.35 C 5.33854 km/h
348 04-05-2018 00:00:00 13.14618 C 7.49 g/m*3 13.15 C 4.03958 km/h
349 05-05-2018 00:00:00 15.50764 C 8.1 g/m*3 15.51 C 5.19028 km/h
350 06-05-2018 00:00:00 17.0059 C 8.35 g/m*3 17.01 C 5.45382 km/h
Sensor: Nr:Datum:Temp:Abs-Feuchte:Windchill:Wind:
Aussen-T/F 351 07-05-2018 00:00:00 17.60312 C 9.27 g/m*3 17.6 C 4.27014 km/h
352 08-05-2018 00:00:00 18.08264 C 9.66 g/m*3 18.08 C 3.9066 km/h
353 09-05-2018 00:00:00 17.125 C 10.4 g/m*3 17.13 C 1.76007 km/h
354 10-05-2018 00:00:00 14.09271 C 10.56 g/m*3 14.09 C 2.65521 km/h
355 11-05-2018 00:00:00 14.47951 C 9.6 g/m*3 14.48 C 3.24028 km/h
356 12-05-2018 00:00:00 16.39236 C 10.49 g/m*3 16.39 C 2.48299 km/h
357 13-05-2018 00:00:00 14.62278 C 11.67 g/m*3 14.62 C 4.05943 km/h
358 14-05-2018 00:00:00 16.77361 C 12.71 g/m*3 16.77 C 4.97049 km/h
359 15-05-2018 00:00:00 15.91597 C 10.19 g/m*3 15.92 C 3.5066 km/h
360 16-05-2018 00:00:00 15.4941 C 11 g/m*3 15.49 C 5.56806 km/h
361 17-05-2018 00:00:00 13.78333 C 8.76 g/m*3 13.78 C 10.21319 km/h
362 18-05-2018 00:00:00 12.14792 C 8.01 g/m*3 12.15 C 5.71875 km/h
363 19-05-2018 00:00:00 13.63299 C 8.69 g/m*3 13.63 C 3.95486 km/h
364 20-05-2018 00:00:00 14.00278 C 10.17 g/m*3 14 C 2.39514 km/h
365 21-05-2018 00:00:00 17.43819 C 11.61 g/m*3 17.44 C 2.63264 km/h
366 22-05-2018 00:00:00 16.97917 C 11.95 g/m*3 16.98 C 2.05625 km/h
367 23-05-2018 00:00:00 17.30243 C 13.04 g/m*3 17.3 C 0.78993 km/h
368 24-05-2018 00:00:00 17.125 C 12.81 g/m*3 17.13 C 2.15556 km/h
369 25-05-2018 00:00:00 19.81944 C 13.72 g/m*3 19.82 C 2.28681 km/h
370 26-05-2018 00:00:00 20.84826 C 13.87 g/m*3 20.85 C 2.68403 km/h
371 27-05-2018 00:00:00 20.3191 C 14.34 g/m*3 20.32 C 1.83542 km/h
372 28-05-2018 00:00:00 21.47083 C 15.37 g/m*3 21.47 C 1.89931 km/h
373 29-05-2018 00:00:00 20.77292 C 15.54 g/m*3 20.77 C 1.35556 km/h
374 30-05-2018 00:00:00 21.53403 C 14.66 g/m*3 21.53 C 1.98368 km/h
375 31-05-2018 00:00:00 22.62083 C 14.99 g/m*3 22.62 C 3.45486 km/h
Sensor: Nr:Datum:Temp:Abs-Feuchte:Windchill:Wind:
Aussen-T/F 376 01-06-2018 00:00:00 19.10729 C 14.54 g/m*3 19.11 C 4.35868 km/h
377 02-06-2018 00:00:00 19.22917 C 13.47 g/m*3 19.23 C 5.28611 km/h
378 03-06-2018 00:00:00 19.42708 C 12.97 g/m*3 19.43 C 2.82708 km/h
379 04-06-2018 00:00:00 20.95938 C 13.57 g/m*3 20.96 C 3.43438 km/h
380 05-06-2018 00:00:00 20.70035 C 13.91 g/m*3 20.7 C 5.52604 km/h
381 06-06-2018 00:00:00 21.09375 C 13.67 g/m*3 21.09 C 2.13264 km/h
382 07-06-2018 00:00:00 21.15174 C 14.89 g/m*3 21.15 C 2.54375 km/h
383 08-06-2018 00:00:00 20.94375 C 15.38 g/m*3 20.94 C 4.05243 km/h
384 09-06-2018 00:00:00 21.9125 C 16.22 g/m*3 21.91 C 3.81424 km/h
385 10-06-2018 00:00:00 21.38239 C 16.14 g/m*3 21.38 C 2.36972 km/h
386 11-06-2018 00:00:00 19.19444 C 15.41 g/m*3 19.19 C 1.45208 km/h
387 12-06-2018 00:00:00 16.41979 C 12.62 g/m*3 16.42 C 3.10035 km/h
388 13-06-2018 00:00:00 14.8941 C 10.14 g/m*3 14.89 C 5.97188 km/h
389 14-06-2018 00:00:00 14.94132 C 10.31 g/m*3 14.94 C 3.65938 km/h
390 15-06-2018 00:00:00 17.84236 C 13.39 g/m*3 17.84 C 1.08993 km/h
391 16-06-2018 00:00:00 19.99306 C 13.59 g/m*3 19.99 C 2.24653 km/h
392 17-06-2018 00:00:00 17.94167 C 11.51 g/m*3 17.94 C 5.17674 km/h
393 18-06-2018 00:00:00 17.81667 C 11.85 g/m*3 17.82 C 4.87361 km/h
394 19-06-2018 00:00:00 18.89201 C 13.7 g/m*3 18.89 C 2.72743 km/h
395 20-06-2018 00:00:00 23.07639 C 14.86 g/m*3 23.08 C 2.81944 km/h
396 21-06-2018 00:00:00 17.92639 C 10.62 g/m*3 17.93 C 10.65278 km/h
397 22-06-2018 00:00:00 13.74097 C 8.13 g/m*3 13.74 C 9.82257 km/h
398 23-06-2018 00:00:00 13.76424 C 9.09 g/m*3 13.76 C 6.13715 km/h
399 24-06-2018 00:00:00 15.88264 C 9.85 g/m*3 15.88 C 6.78854 km/h
400 25-06-2018 00:00:00 17.09201 C 11.37 g/m*3 17.09 C 6.07222 km/h
Sensor: Nr:Datum:Temp:Abs-Feuchte:Windchill:Wind:
Aussen-T/F 401 26-06-2018 00:00:00 17.67396 C 11.25 g/m*3 17.67 C 5.95694 km/h
402 27-06-2018 00:00:00 19.15694 C 11.13 g/m*3 19.16 C 4.64965 km/h
403 28-06-2018 00:00:00 20.71076 C 11.02 g/m*3 20.71 C 5.60243 km/h
404 29-06-2018 00:00:00 24.11424 C 12.27 g/m*3 24.11 C 4.67813 km/h
405 30-06-2018 00:00:00 22.06215 C 11.09 g/m*3 22.06 C 6.23715 km/h
406 01-07-2018 00:00:00 20.86597 C 7.77 g/m*3 20.87 C 8.82986 km/h
407 02-07-2018 00:00:00 20.44792 C 8.16 g/m*3 20.45 C 6.0309 km/h
408 03-07-2018 00:00:00 20.73299 C 9.04 g/m*3 20.73 C 3.5059 km/h
409 04-07-2018 00:00:00 18.84167 C 13.04 g/m*3 18.84 C 1.27917 km/h
410 05-07-2018 00:00:00 19.41111 C 14.79 g/m*3 19.41 C 3.39375 km/h
411 06-07-2018 00:00:00 20.03056 C 13.11 g/m*3 20.03 C 6.24271 km/h
412 07-07-2018 00:00:00 20.66701 C 12.08 g/m*3 20.67 C 5.14271 km/h
413 08-07-2018 00:00:00 19.71181 C 9.91 g/m*3 19.71 C 6.18611 km/h
414 09-07-2018 00:00:00 19.32361 C 11.18 g/m*3 19.32 C 6.80556 km/h
415 10-07-2018 00:00:00 17.13715 C 10.66 g/m*3 17.14 C 7.72882 km/h
416 11-07-2018 00:00:00 16.10729 C 11.28 g/m*3 16.11 C 3.98125 km/h
417 12-07-2018 00:00:00 19.59688 C 13.57 g/m*3 19.6 C 3.14028 km/h
418 13-07-2018 00:00:00 19.72042 C 13.16 g/m*3 19.72 C 2.14155 km/h
419 14-07-2018 00:00:00 21.51493 C 12.82 g/m*3 21.51 C 3.57118 km/h
420 15-07-2018 00:00:00 21.63021 C 12.17 g/m*3 21.63 C 3.4066 km/h
421 16-07-2018 00:00:00 22.30868 C 12.16 g/m*3 22.31 C 3.51597 km/h
422 17-07-2018 00:00:00 21.01771 C 12.08 g/m*3 21.02 C 4.44653 km/h
423 18-07-2018 00:00:00 20.29479 C 11.58 g/m*3 20.29 C 4.925 km/h
424 19-07-2018 00:00:00 20.92431 C 11.04 g/m*3 20.92 C 3.30521 km/h
425 20-07-2018 00:00:00 21.5559 C 11.66 g/m*3 21.56 C 2.28993 km/h
Sensor: Nr:Datum:Temp:Abs-Feuchte:Windchill:Wind:
Aussen-T/F 426 21-07-2018 00:00:00 20.6125 C 13.86 g/m*3 20.61 C 3.49583 km/h
427 22-07-2018 00:00:00 21.61458 C 13.3 g/m*3 21.61 C 4.60347 km/h
428 23-07-2018 00:00:00 22.37917 C 13.31 g/m*3 22.38 C 3.60694 km/h
429 24-07-2018 00:00:00 23.70278 C 13.64 g/m*3 23.7 C 2.55278 km/h
430 25-07-2018 00:00:00 25.50069 C 13.57 g/m*3 25.5 C 3.23056 km/h
431 26-07-2018 00:00:00 27.18785 C 14.1 g/m*3 27.19 C 3.77708 km/h
432 27-07-2018 00:00:00 26.11146 C 12.37 g/m*3 26.11 C 3.51493 km/h
433 28-07-2018 00:00:00 21.97743 C 14.81 g/m*3 21.98 C 3.04097 km/h
434 29-07-2018 00:00:00 23.50521 C 13.97 g/m*3 23.51 C 3.90382 km/h
435 30-07-2018 00:00:00 24.29931 C 14.26 g/m*3 24.3 C 1.89028 km/h
436 31-07-2018 00:00:00 25.46875 C 14.65 g/m*3 25.47 C 4.19306 km/h
437 01-08-2018 00:00:00 20.74271 C 15.79 g/m*3 20.74 C 0.31111 km/h
438 02-08-2018 00:00:00 23.73056 C 15.9 g/m*3 23.73 C 1.25243 km/h
439 03-08-2018 00:00:00 26.4684 C 15.25 g/m*3 26.47 C 1.16632 km/h
440 04-08-2018 00:00:00 26.38714 C 14.42 g/m*3 26.39 C 3.28821 km/h
441 05-08-2018 00:00:00 24.70486 C 13.5 g/m*3 24.7 C 6.56667 km/h
442 06-08-2018 00:00:00 24.16944 C 12.66 g/m*3 24.17 C 2.99236 km/h
443 07-08-2018 00:00:00 26.73646 C 14.08 g/m*3 26.74 C 3.08958 km/h
444 08-08-2018 00:00:00 25.29618 C 14.35 g/m*3 25.3 C 7.74653 km/h
445 09-08-2018 00:00:00 20.57778 C 14.79 g/m*3 20.58 C 3.725 km/h
446 10-08-2018 00:00:00 18.35486 C 10.26 g/m*3 18.35 C 9.11354 km/h
447 11-08-2018 00:00:00 18.37083 C 9.4 g/m*3 18.37 C 5.41806 km/h
448 12-08-2018 00:00:00 18.15451 C 9.78 g/m*3 18.15 C 2.11215 km/h
449 13-08-2018 00:00:00 17.68854 C 12.35 g/m*3 17.69 C 4.30764 km/h
450 14-08-2018 00:00:00 18.53958 C 13.43 g/m*3 18.54 C 5.0875 km/h
Sensor: Nr:Datum:Temp:Abs-Feuchte:Windchill:Wind:
Aussen-T/F 451 15-08-2018 00:00:00 19.375 C 13.2 g/m*3 19.38 C 1.80694 km/h
452 16-08-2018 00:00:00 20.74444 C 12.86 g/m*3 20.74 C 1.88924 km/h
453 17-08-2018 00:00:00 19.75903 C 13.06 g/m*3 19.76 C 6.20903 km/h
454 18-08-2018 00:00:00 18.88785 C 11.13 g/m*3 18.89 C 2.50139 km/h
455 19-08-2018 00:00:00 20.30521 C 11.86 g/m*3 20.31 C 3.60174 km/h
456 20-08-2018 00:00:00 20.84444 C 13.36 g/m*3 20.84 C 3.3066 km/h
457 21-08-2018 00:00:00 21.96979 C 13.69 g/m*3 21.97 C 1.92014 km/h
458 22-08-2018 00:00:00 23.24757 C 13.71 g/m*3 23.25 C 3.28229 km/h
459 23-08-2018 00:00:00 22.88681 C 14.1 g/m*3 22.89 C 4.65382 km/h
460 24-08-2018 00:00:00 19.03368 C 10.7 g/m*3 19.03 C 6.54271 km/h
461 25-08-2018 00:00:00 14.525 C 8.7 g/m*3 14.53 C 5.44653 km/h
462 26-08-2018 00:00:00 13.80556 C 8.08 g/m*3 13.81 C 3.69514 km/h
463 27-08-2018 00:00:00 18.12604 C 10.86 g/m*3 18.13 C 7.71493 km/h
464 28-08-2018 00:00:00 18.12917 C 10.47 g/m*3 18.13 C 2.88611 km/h
465 29-08-2018 00:00:00 17.15556 C 11.71 g/m*3 17.16 C 1.31146 km/h
466 30-08-2018 00:00:00 17.22778 C 11.01 g/m*3 17.23 C 7.1434 km/h
467 31-08-2018 00:00:00 15.05521 C 9.3 g/m*3 15.06 C 2.95764 km/h
468 01-09-2018 00:00:00 14.30833 C 8.49 g/m*3 14.31 C 3.17847 km/h
469 02-09-2018 00:00:00 14.27188 C 9.39 g/m*3 14.27 C 1.04236 km/h
470 03-09-2018 00:00:00 18.05417 C 12.41 g/m*3 18.05 C 1.52118 km/h
471 04-09-2018 00:00:00 20.01736 C 13.73 g/m*3 20.02 C 1.27465 km/h
472 05-09-2018 00:00:00 20.91701 C 13.37 g/m*3 20.92 C 0.92604 km/h
473 06-09-2018 00:00:00 18.07014 C 13.53 g/m*3 18.07 C 2.5934 km/h
474 07-09-2018 00:00:00 15.72639 C 11.65 g/m*3 15.73 C 4.62847 km/h
475 08-09-2018 00:00:00 13.53889 C 8.97 g/m*3 13.54 C 3.57882 km/h
Sensor: Nr:Datum:Temp:Abs-Feuchte:Windchill:Wind:
Aussen-T/F 476 09-09-2018 00:00:00 16.94236 C 10.19 g/m*3 16.94 C 1.94688 km/h
477 10-09-2018 00:00:00 17.5 C 10.7 g/m*3 17.5 C 3.28403 km/h
478 11-09-2018 00:00:00 18.85868 C 11.38 g/m*3 18.86 C 5.47639 km/h
479 12-09-2018 00:00:00 19.08646 C 11.68 g/m*3 19.09 C 4.25174 km/h
480 13-09-2018 00:00:00 16.3625 C 11.93 g/m*3 16.36 C 3.12465 km/h
481 14-09-2018 00:00:00 16.95174 C 10.29 g/m*3 16.95 C 2.13403 km/h
482 15-09-2018 00:00:00 15.14028 C 9.1 g/m*3 15.14 C 1.64236 km/h
483 16-09-2018 00:00:00 14.7184 C 9 g/m*3 14.72 C 2.22708 km/h
484 17-09-2018 00:00:00 16.79306 C 9.83 g/m*3 16.79 C 0.61667 km/h
485 18-09-2018 00:00:00 19.05208 C 11.48 g/m*3 19.05 C 3.21701 km/h
486 19-09-2018 00:00:00 20.67951 C 12.9 g/m*3 20.68 C 5.20417 km/h
487 20-09-2018 00:00:00 19.17153 C 11.91 g/m*3 19.17 C 4.2684 km/h
488 21-09-2018 00:00:00 15.93472 C 10.69 g/m*3 15.93 C 6.0309 km/h
489 22-09-2018 00:00:00 12.7566 C 8.63 g/m*3 12.76 C 6.55625 km/h
490 23-09-2018 00:00:00 12.33056 C 10.27 g/m*3 12.33 C 5.07639 km/h
491 24-09-2018 00:00:00 9.92396 C 8.02 g/m*3 9.92 C 4.49514 km/h
492 25-09-2018 00:00:00 8.38785 C 7.27 g/m*3 8.39 C 1.4934 km/h
493 26-09-2018 00:00:00 8.82917 C 7.21 g/m*3 8.83 C 0.35556 km/h
494 27-09-2018 00:00:00 11.32708 C 8.57 g/m*3 11.33 C 0.08333 km/h
495 28-09-2018 00:00:00 10.18526 C 8.66 g/m*3 10.19 C 2.01614 km/h
496 29-09-2018 00:00:00 8.2941 C 6.89 g/m*3 8.29 C 1.77118 km/h
497 30-09-2018 00:00:00 7.9427 C 6.81 g/m*3 7.94 C 0.31317 km/h
498 01-10-2018 00:00:00 9.71701 C 7.5 g/m*3 9.35 C 5.29028 km/h
499 02-10-2018 00:00:00 9.17604 C 7.81 g/m*3 7.65 C 10.00174 km/h
500 03-10-2018 00:00:00 12.2809 C 8.9 g/m*3 12.28 C 4.68264 km/h
Sensor: Nr:Datum:Temp:Abs-Feuchte:Windchill:Wind:
Aussen-T/F 501 04-10-2018 00:00:00 9.78056 C 8.08 g/m*3 9.78 C 0.8191 km/h
502 05-10-2018 00:00:00 10.63021 C 8.63 g/m*3 10.63 C 0.50694 km/h
503 06-10-2018 00:00:00 12.7691 C 9.95 g/m*3 12.77 C 0.41389 km/h
504 07-10-2018 00:00:00 13.00243 C 10.1 g/m*3 13 C 2.18333 km/h
505 08-10-2018 00:00:00 10.50347 C 8.59 g/m*3 10.5 C 0 km/h
506 09-10-2018 00:00:00 11.75035 C 9.59 g/m*3 11.75 C 0 km/h
507 10-10-2018 00:00:00 13.21285 C 10.38 g/m*3 13.21 C 0.62569 km/h
508 11-10-2018 00:00:00 14.21701 C 10.79 g/m*3 14.22 C 0.79722 km/h
509 12-10-2018 00:00:00 15.87882 C 11.67 g/m*3 15.88 C 0.89271 km/h
510 13-10-2018 00:00:00 15.57986 C 11.19 g/m*3 15.58 C 0.48924 km/h
511 14-10-2018 00:00:00 14.79965 C 10.52 g/m*3 14.8 C 0.86979 km/h
512 15-10-2018 00:00:00 13.825 C 10.09 g/m*3 13.83 C 0 km/h
513 16-10-2018 00:00:00 12.87292 C 9.73 g/m*3 12.87 C 0 km/h
514 17-10-2018 00:00:00 12.82847 C 9.91 g/m*3 12.83 C 0.00556 km/h
515 18-10-2018 00:00:00 14.04618 C 10.7 g/m*3 14.05 C 1.79028 km/h
516 19-10-2018 00:00:00 12.08785 C 9.42 g/m*3 12.09 C 0.61667 km/h
517 20-10-2018 00:00:00 11.03542 C 8.65 g/m*3 11.04 C 1.86285 km/h
518 21-10-2018 00:00:00 7.3066 C 7.23 g/m*3 7.31 C 0.30556 km/h
519 22-10-2018 00:00:00 7.67014 C 7.33 g/m*3 7.67 C 0.60174 km/h
520 23-10-2018 00:00:00 9.04306 C 7.49 g/m*3 8.06 C 7.2 km/h
521 24-10-2018 00:00:00 14.07604 C 10.46 g/m*3 14.08 C 10.49757 km/h
522 25-10-2018 00:00:00 12.94722 C 9.42 g/m*3 12.95 C 3.93576 km/h
523 26-10-2018 00:00:00 10.21354 C 7.7 g/m*3 10.21 C 4.89549 km/h
524 27-10-2018 00:00:00 6.27118 C 6.72 g/m*3 6.27 C 1.42118 km/h
525 28-10-2018 00:00:00 5.67778 C 5.91 g/m*3 4.13 C 7.2566 km/h
Sensor: Nr:Datum:Temp:Abs-Feuchte:Windchill:Wind:
Aussen-T/F 526 29-10-2018 00:00:00 6.43264 C 6.33 g/m*3 4.79 C 8.1059 km/h
527 30-10-2018 00:00:00 6.2809 C 6.77 g/m*3 4.51 C 8.54444 km/h
528 31-10-2018 00:00:00 7.45382 C 6.93 g/m*3 7.45 C 1.11215 km/h
529 01-11-2018 00:00:00 6.13194 C 6.96 g/m*3 6.13 C 0.48924 km/h
530 02-11-2018 00:00:00 8.86597 C 8.22 g/m*3 8.87 C 0.78368 km/h
531 03-11-2018 00:00:00 3.50521 C 5.93 g/m*3 3.51 C 0.67222 km/h
532 04-11-2018 00:00:00 6.86007 C 7.31 g/m*3 6.86 C 0.38333 km/h
533 05-11-2018 00:00:00 10.39097 C 8.87 g/m*3 10.39 C 0.67361 km/h
534 06-11-2018 00:00:00 8.41806 C 8.13 g/m*3 8.42 C 0.3066 km/h
535 07-11-2018 00:00:00 9.32118 C 8.32 g/m*3 9.32 C 0.58542 km/h
536 08-11-2018 00:00:00 10.425 C 8.6 g/m*3 10.43 C 0.92951 km/h
537 09-11-2018 00:00:00 9.62604 C 8.53 g/m*3 9.63 C 0.3 km/h
538 10-11-2018 00:00:00 11.90347 C 9.55 g/m*3 11.9 C 3.35139 km/h
539 11-11-2018 00:00:00 12.04618 C 9.68 g/m*3 12.05 C 2.21146 km/h
540 12-11-2018 00:00:00 13.70069 C 10.66 g/m*3 13.7 C 1.59861 km/h
541 13-11-2018 00:00:00 10.46076 C 8.95 g/m*3 10.46 C 4.08542 km/h
542 14-11-2018 00:00:00 6.18264 C 7.1 g/m*3 6.18 C 0.64444 km/h
543 15-11-2018 00:00:00 6.9816 C 7.09 g/m*3 6.98 C 2.73681 km/h
544 16-11-2018 00:00:00 5.92778 C 6.49 g/m*3 5.93 C 1.62882 km/h
545 17-11-2018 00:00:00 2.75417 C 5.19 g/m*3 2.75 C 3.52917 km/h
546 18-11-2018 00:00:00 1.8566 C 4.39 g/m*3 1.86 C 2.95833 km/h
547 19-11-2018 00:00:00 3.57014 C 5.02 g/m*3 1.97 C 6.32674 km/h
548 20-11-2018 00:00:00 3.50972 C 4.93 g/m*3 1.56 C 7.37153 km/h
549 21-11-2018 00:00:00 2.50312 C 5.1 g/m*3 2.5 C 2.6941 km/h
550 22-11-2018 00:00:00 2.91458 C 5.21 g/m*3 2.91 C 1.31632 km/h
Sensor: Nr:Datum:Temp:Abs-Feuchte:Windchill:Wind:
Aussen-T/F 551 23-11-2018 00:00:00 0.10868 C 4.66 g/m*3 0.11 C 0.55 km/h
552 24-11-2018 00:00:00 4.74792 C 6.43 g/m*3 4.75 C 0.55556 km/h
553 25-11-2018 00:00:00 5.98785 C 6.95 g/m*3 5.99 C 0.51111 km/h
554 26-11-2018 00:00:00 6.65625 C 6.66 g/m*3 6.66 C 1.89167 km/h
555 27-11-2018 00:00:00 4.12465 C 5.37 g/m*3 4.12 C 1.54063 km/h
556 28-11-2018 00:00:00 3.7 C 5.71 g/m*3 3.7 C 1.97951 km/h
557 29-11-2018 00:00:00 5.67875 C 6.59 g/m*3 5.68 C 3.46551 km/h
558 30-11-2018 00:00:00 7.44514 C 7.55 g/m*3 7.45 C 0.94549 km/h
559 01-12-2018 00:00:00 7.48993 C 7.33 g/m*3 7.49 C 2.10972 km/h
560 02-12-2018 00:00:00 11.28056 C 9.48 g/m*3 11.28 C 5.58958 km/h
561 03-12-2018 00:00:00 11.76701 C 10.06 g/m*3 11.77 C 5.55764 km/h
562 04-12-2018 00:00:00 6.48715 C 6.82 g/m*3 6.49 C 3.99167 km/h
563 05-12-2018 00:00:00 3.60729 C 5.96 g/m*3 3.61 C 0.56771 km/h
564 06-12-2018 00:00:00 9.76042 C 8.69 g/m*3 9.45 C 5.09965 km/h
565 07-12-2018 00:00:00 11.22882 C 8.8 g/m*3 11.23 C 13.66111 km/h
566 08-12-2018 00:00:00 7.97361 C 7.3 g/m*3 5.22 C 16.51667 km/h
567 09-12-2018 00:00:00 8.02544 C 7.29 g/m*3 5.82 C 12.63659 km/h
568 10-12-2018 00:00:00 4.96771 C 6.19 g/m*3 3.14 C 7.82257 km/h
569 11-12-2018 00:00:00 3.84375 C 5.9 g/m*3 3.84 C 3.11181 km/h
570 12-12-2018 00:00:00 2.70801 C 5.57 g/m*3 2.71 C 0.53519 km/h
571 13-12-2018 00:00:00 1.36181 C 4.65 g/m*3 1.36 C 2.34931 km/h
572 14-12-2018 00:00:00 1.15521 C 4.06 g/m*3 1.16 C 2.10382 km/h
573 15-12-2018 00:00:00 0.62683 C 3.98 g/m*3 0.63 C 2.64599 km/h
574 16-12-2018 00:00:00 0.77743 C 4.63 g/m*3 0.78 C 1.95799 km/h
575 17-12-2018 00:00:00 4.19722 C 6.11 g/m*3 4.2 C 3.82917 km/h
Sensor: Nr:Datum:Temp:Abs-Feuchte:Windchill:Wind:
Aussen-T/F 576 18-12-2018 00:00:00 5.08229 C 6.17 g/m*3 5.08 C 4.64028 km/h
577 19-12-2018 00:00:00 6.54495 C 6.68 g/m*3 6.54 C 2.72125 km/h
578 20-12-2018 00:00:00 7.58741 C 7.22 g/m*3 6.6 C 6.32797 km/h
579 21-12-2018 00:00:00 10.78507 C 8.54 g/m*3 9.26 C 12.03333 km/h
580 22-12-2018 00:00:00 9.94266 C 8.04 g/m*3 8.86 C 8.38147 km/h
581 23-12-2018 00:00:00 8.60868 C 8.05 g/m*3 7.96 C 5.68715 km/h
582 24-12-2018 00:00:00 4.88924 C 6.13 g/m*3 3.68 C 5.76146 km/h
583 25-12-2018 00:00:00 1.85208 C 5.13 g/m*3 1.85 C 1.84618 km/h
584 26-12-2018 00:00:00 -0.91736 C 4.34 g/m*3 -0.92 C 1.68507 km/h
585 27-12-2018 00:00:00 0.08125 C 4.67 g/m*3 0.08 C 0.02778 km/h
586 28-12-2018 00:00:00 0.225 C 4.67 g/m*3 0.23 C 2.8559 km/h
587 29-12-2018 00:00:00 2.70972 C 5.44 g/m*3 0.67 C 7.23681 km/h
588 30-12-2018 00:00:00 7.50313 C 7 g/m*3 6.22 C 7.39896 km/h
589 31-12-2018 00:00:00 7.59271 C 7.76 g/m*3 7.59 C 2.89201 km/h
590 01-01-2019 00:00:00 7.09271 C 7.18 g/m*3 5.53 C 8.26563 km/h
591 02-01-2019 00:00:00 3.70104 C 5.16 g/m*3 1.4 C 8.7934 km/h
592 03-01-2019 00:00:00 2.03715 C 5.18 g/m*3 2.04 C 1.94688 km/h
593 04-01-2019 00:00:00 3.13785 C 5.52 g/m*3 3.14 C 4.59583 km/h
594 05-01-2019 00:00:00 5.92632 C 6.75 g/m*3 3.71 C 10.2814 km/h
595 06-01-2019 00:00:00 5.76944 C 6.56 g/m*3 4.38 C 6.73993 km/h
596 07-01-2019 00:00:00 5.50417 C 6.31 g/m*3 4.25 C 6.15417 km/h
597 08-01-2019 00:00:00 6.62222 C 6.5 g/m*3 3.51 C 16.75417 km/h
598 09-01-2019 00:00:00 3.90486 C 5.3 g/m*3 0.56 C 14.00139 km/h
599 10-01-2019 00:00:00 2.05694 C 4.67 g/m*3 0.72 C 5.05833 km/h
600 11-01-2019 00:00:00 2.82847 C 5.57 g/m*3 2.83 C 4.89375 km/h
Sensor: Nr:Datum:Temp:Abs-Feuchte:Windchill:Wind:
Aussen-T/F 601 12-01-2019 00:00:00 5.96702 C 6.73 g/m*3 3.93 C 9.4367 km/h
602 13-01-2019 00:00:00 7.73715 C 7.65 g/m*3 5.94 C 9.92257 km/h
603 14-01-2019 00:00:00 5.07083 C 6.11 g/m*3 2.82 C 9.66493 km/h
604 15-01-2019 00:00:00 4.78854 C 5.97 g/m*3 2.87 C 8.06424 km/h
605 16-01-2019 00:00:00 5.27187 C 5.91 g/m*3 3.48 C 7.91701 km/h
606 17-01-2019 00:00:00 5.0066 C 5.94 g/m*3 2.23 C 12.16181 km/h
607 18-01-2019 00:00:00 0.77569 C 4.7 g/m*3 0.78 C 1.61667 km/h
608 19-01-2019 00:00:00 -2.72396 C 3.74 g/m*3 -2.72 C 1.07778 km/h
609 20-01-2019 00:00:00 -4.97187 C 3.17 g/m*3 -4.97 C 0.05556 km/h
610 21-01-2019 00:00:00 -6.20972 C 2.93 g/m*3 -6.21 C 0.21111 km/h
611 22-01-2019 00:00:00 -4.96667 C 3.14 g/m*3 -4.97 C 0.78403 km/h
612 23-01-2019 00:00:00 -1.57743 C 3.88 g/m*3 -1.58 C 1.41597 km/h
613 24-01-2019 00:00:00 -1.91736 C 3.56 g/m*3 -1.92 C 2.39757 km/h
614 25-01-2019 00:00:00 0.28403 C 4.35 g/m*3 -2.25 C 7.52917 km/h
615 26-01-2019 00:00:00 4.48229 C 6.06 g/m*3 1.72 C 11.54896 km/h
616 27-01-2019 00:00:00 5.94583 C 6.52 g/m*3 4.45 C 7.2125 km/h
617 28-01-2019 00:00:00 3.17118 C 5.47 g/m*3 0.05 C 11.95764 km/h
618 29-01-2019 00:00:00 1.73021 C 4.89 g/m*3 1.73 C 3.30972 km/h
619 30-01-2019 00:00:00 0.45972 C 4.67 g/m*3 0.46 C 2.56042 km/h
620 31-01-2019 00:00:00 -0.09826 C 4.56 g/m*3 -0.1 C 0.61181 km/h
621 01-02-2019 00:00:00 1.74826 C 5.22 g/m*3 1.75 C 2.25729 km/h
622 02-02-2019 00:00:00 2.46701 C 5.56 g/m*3 2.47 C 1.11424 km/h
623 03-02-2019 00:00:00 2.7 C 5.17 g/m*3 0.95 C 6.35208 km/h
624 04-02-2019 00:00:00 1.83229 C 4.78 g/m*3 1.83 C 2.03576 km/h
625 05-02-2019 00:00:00 4.34375 C 5.28 g/m*3 4.34 C 3.16076 km/h
Sensor: Nr:Datum:Temp:Abs-Feuchte:Windchill:Wind:
Aussen-T/F 626 06-02-2019 00:00:00 1.17639 C 4.73 g/m*3 1.18 C 1.14826 km/h
627 07-02-2019 00:00:00 5.09549 C 6.02 g/m*3 4 C 5.51563 km/h
628 08-02-2019 00:00:00 7.42604 C 6.65 g/m*3 6.37 C 6.49063 km/h
629 09-02-2019 00:00:00 8.6309 C 6.87 g/m*3 6.27 C 14.69618 km/h
630 10-02-2019 00:00:00 7.96076 C 7.3 g/m*3 5.59 C 13.64931 km/h
631 11-02-2019 00:00:00 4.86736 C 5.83 g/m*3 2.86 C 8.45313 km/h
632 12-02-2019 00:00:00 3.71597 C 5.41 g/m*3 2.47 C 5.38715 km/h
633 13-02-2019 00:00:00 1.77951 C 5.01 g/m*3 1.78 C 1.55556 km/h
634 14-02-2019 00:00:00 0.77431 C 4.74 g/m*3 0.77 C 0.18889 km/h
635 15-02-2019 00:00:00 2.33854 C 5.08 g/m*3 2.34 C 1.52292 km/h
636 16-02-2019 00:00:00 3.375 C 5.4 g/m*3 3.38 C 1.05 km/h
637 17-02-2019 00:00:00 3.45451 C 5.51 g/m*3 3.45 C 0.85556 km/h
638 18-02-2019 00:00:00 3.69653 C 5.41 g/m*3 3.7 C 0.08889 km/h
639 19-02-2019 00:00:00 5.85868 C 6.31 g/m*3 5.86 C 4.05208 km/h
640 20-02-2019 00:00:00 4.70694 C 5.94 g/m*3 4.71 C 3.82396 km/h
641 21-02-2019 00:00:00 6.3625 C 6.69 g/m*3 6.36 C 1.91701 km/h
642 22-02-2019 00:00:00 9.91111 C 8.23 g/m*3 9.91 C 1.74063 km/h
643 23-02-2019 00:00:00 5.41076 C 5.5 g/m*3 5.41 C 2.82049 km/h
644 24-02-2019 00:00:00 3.39271 C 4.46 g/m*3 3.39 C 1.06285 km/h
645 25-02-2019 00:00:00 5.05139 C 5.05 g/m*3 5.05 C 0.85556 km/h
646 26-02-2019 00:00:00 6.18646 C 5.89 g/m*3 6.19 C 0.7 km/h
647 27-02-2019 00:00:00 6.63576 C 6.02 g/m*3 6.64 C 0.66771 km/h
648 28-02-2019 00:00:00 8.81701 C 6.88 g/m*3 7.56 C 8.26389 km/h
649 01-03-2019 00:00:00 8.12708 C 7.67 g/m*3 7.6 C 5.08299 km/h
650 02-03-2019 00:00:00 8.64236 C 7.33 g/m*3 7.51 C 7.58333 km/h
Sensor: Nr:Datum:Temp:Abs-Feuchte:Windchill:Wind:
Aussen-T/F 651 03-03-2019 00:00:00 11.11319 C 8.07 g/m*3 11.11 C 14.64375 km/h
652 04-03-2019 00:00:00 9.71875 C 7.23 g/m*3 7.28 C 17.49583 km/h
653 05-03-2019 00:00:00 6.87396 C 6.27 g/m*3 4.69 C 11.10174 km/h
654 06-03-2019 00:00:00 10.01944 C 7.43 g/m*3 10.02 C 3.02014 km/h
655 07-03-2019 00:00:00 10.20729 C 7.54 g/m*3 8.16 C 15.05764 km/h
656 08-03-2019 00:00:00 8.18854 C 6.62 g/m*3 6.16 C 11.77465 km/h
657 09-03-2019 00:00:00 10.36875 C 7.38 g/m*3 8.07 C 17.70694 km/h
658 10-03-2019 00:00:00 9.55694 C 7.02 g/m*3 7.36 C 15.05556 km/h
659 11-03-2019 00:00:00 4.7934 C 5.35 g/m*3 2 C 12.03646 km/h
660 12-03-2019 00:00:00 6.61563 C 5.3 g/m*3 5.21 C 7.28958 km/h
661 13-03-2019 00:00:00 6.20382 C 6.09 g/m*3 3.06 C 16.23264 km/h
662 14-03-2019 00:00:00 7.03611 C 6.78 g/m*3 4.51 C 13.30313 km/h
663 15-03-2019 00:00:00 10.13993 C 8.27 g/m*3 8.37 C 12.83368 km/h
664 16-03-2019 00:00:00 10.23472 C 8.16 g/m*3 8.5 C 12.67083 km/h
665 17-03-2019 00:00:00 8.66319 C 6.71 g/m*3 6.38 C 14.17535 km/h
666 18-03-2019 00:00:00 4.96458 C 5.77 g/m*3 3.21 C 7.55799 km/h
667 19-03-2019 00:00:00 3.83715 C 5.06 g/m*3 3.84 C 1.64375 km/h
668 20-03-2019 00:00:00 5.47951 C 5.42 g/m*3 5.48 C 1.55972 km/h
669 21-03-2019 00:00:00 7.53194 C 5.9 g/m*3 7.53 C 2.00347 km/h
670 22-03-2019 00:00:00 9.15799 C 6.43 g/m*3 9.16 C 2.43438 km/h
671 23-03-2019 00:00:00 6.18576 C 6.43 g/m*3 6.19 C 3.01458 km/h
672 24-03-2019 00:00:00 6.4583 C 6.26 g/m*3 6.46 C 4.16421 km/h
673 25-03-2019 00:00:00 5.13299 C 5.9 g/m*3 3.06 C 8.93264 km/h
674 26-03-2019 00:00:00 6.64792 C 6.18 g/m*3 6.65 C 4.81042 km/h
675 27-03-2019 00:00:00 6.81528 C 6.18 g/m*3 6.82 C 2.65556 km/h
Sensor: Nr:Datum:Temp:Abs-Feuchte:Windchill:Wind:
Aussen-T/F 676 28-03-2019 00:00:00 7.32535 C 6.47 g/m*3 7.33 C 2.7125 km/h
677 29-03-2019 00:00:00 8.96493 C 6.97 g/m*3 8.96 C 3.02431 km/h
678 30-03-2019 00:00:00 10.50104 C 7.06 g/m*3 10.5 C 3.54861 km/h
679 31-03-2019 00:00:00 10.31594 C 7.68 g/m*3 10.32 C 2.38623 km/h
680 01-04-2019 00:00:00 9.41771 C 6.81 g/m*3 9.42 C 4.33194 km/h
681 02-04-2019 00:00:00 10.74375 C 7.5 g/m*3 10.74 C 3.93194 km/h
682 03-04-2019 00:00:00 8.37083 C 7.36 g/m*3 8.37 C 1.94549 km/h
683 04-04-2019 00:00:00 6.05799 C 6.79 g/m*3 6.06 C 1.46458 km/h
684 05-04-2019 00:00:00 6.32535 C 6.83 g/m*3 6.33 C 1.74236 km/h
685 06-04-2019 00:00:00 10.20313 C 7.94 g/m*3 10.2 C 2.74479 km/h
686 07-04-2019 00:00:00 12.02083 C 8.01 g/m*3 12.02 C 3.89306 km/h
687 08-04-2019 00:00:00 12.69757 C 9.48 g/m*3 12.7 C 1.27882 km/h
688 09-04-2019 00:00:00 12.23472 C 9.56 g/m*3 12.23 C 1.83854 km/h
689 10-04-2019 00:00:00 10.80035 C 6.51 g/m*3 10.19 C 6.83542 km/h
690 11-04-2019 00:00:00 6.94306 C 4.71 g/m*3 5.69 C 6.93681 km/h
691 12-04-2019 00:00:00 5.01528 C 4.01 g/m*3 3.21 C 7.79861 km/h
692 13-04-2019 00:00:00 3.85556 C 4.76 g/m*3 3.86 C 4.46007 km/h
693 14-04-2019 00:00:00 5.53576 C 5.39 g/m*3 5.54 C 4.95521 km/h
694 15-04-2019 00:00:00 10.42187 C 6.72 g/m*3 9.97 C 5.95938 km/h
695 16-04-2019 00:00:00 11.20417 C 6.8 g/m*3 11.2 C 4.46493 km/h
696 17-04-2019 00:00:00 12.74861 C 9.36 g/m*3 12.75 C 3.09826 km/h
697 18-04-2019 00:00:00 14.16528 C 7.93 g/m*3 14.17 C 5.55069 km/h
698 19-04-2019 00:00:00 15.41285 C 7.41 g/m*3 15.41 C 5.63056 km/h
699 20-04-2019 00:00:00 14.87153 C 7.8 g/m*3 14.87 C 3.90382 km/h
700 21-04-2019 00:00:00 15.62813 C 7.79 g/m*3 15.63 C 3.06354 km/h
Sensor: Nr:Datum:Temp:Abs-Feuchte:Windchill:Wind:
Aussen-T/F 701 22-04-2019 00:00:00 14.99375 C 7.63 g/m*3 14.99 C 5.28368 km/h
702 23-04-2019 00:00:00 15.15903 C 7.91 g/m*3 15.16 C 4.94722 km/h
703 24-04-2019 00:00:00 15.11424 C 9.44 g/m*3 15.11 C 4.87222 km/h
704 25-04-2019 00:00:00 13.28785 C 9.06 g/m*3 13.29 C 4.63819 km/h
705 26-04-2019 00:00:00 11.86806 C 8.86 g/m*3 11.87 C 3.58854 km/h
706 27-04-2019 00:00:00 9.34688 C 8.09 g/m*3 9.35 C 3.60451 km/h
707 28-04-2019 00:00:00 8.50208 C 7.09 g/m*3 7.78 C 5.90139 km/h
708 29-04-2019 00:00:00 8.56736 C 7.24 g/m*3 8.57 C 3.78993 km/h
709 30-04-2019 00:00:00 14.05278 C 8.31 g/m*3 14.05 C 7.74514 km/h
710 01-05-2019 00:00:00 12.7816 C 8.54 g/m*3 12.78 C 3.63056 km/h
711 02-05-2019 00:00:00 11.4566 C 8.27 g/m*3 11.46 C 4.02083 km/h
712 03-05-2019 00:00:00 11.00208 C 7.34 g/m*3 11 C 7.49826 km/h
713 04-05-2019 00:00:00 6.36493 C 6.26 g/m*3 5.1 C 6.63958 km/h
714 05-05-2019 00:00:00 6.67882 C 6.18 g/m*3 5.85 C 5.38264 km/h
715 06-05-2019 00:00:00 7.62465 C 6.22 g/m*3 7.62 C 3.69722 km/h
716 07-05-2019 00:00:00 9.6066 C 6.76 g/m*3 9.61 C 2.54444 km/h
717 08-05-2019 00:00:00 9.41667 C 8.02 g/m*3 9.42 C 1.87639 km/h
718 09-05-2019 00:00:00 11.20938 C 9.02 g/m*3 11.21 C 3.33472 km/h
719 10-05-2019 00:00:00 12.49306 C 8.53 g/m*3 12.49 C 5.40625 km/h
720 11-05-2019 00:00:00 10.05833 C 8.78 g/m*3 10.06 C 3.22396 km/h
721 12-05-2019 00:00:00 9.40625 C 6.58 g/m*3 8.58 C 6.83229 km/h
722 13-05-2019 00:00:00 9.96736 C 5.78 g/m*3 9.46 C 5.88368 km/h
723 14-05-2019 00:00:00 9.58299 C 5.9 g/m*3 9.1 C 5.62465 km/h
724 15-05-2019 00:00:00 9.79896 C 5.66 g/m*3 9.32 C 5.69444 km/h
725 16-05-2019 00:00:00 10.83854 C 6.98 g/m*3 10.84 C 4.89201 km/h
Sensor: Nr:Datum:Temp:Abs-Feuchte:Windchill:Wind:
Aussen-T/F 726 17-05-2019 00:00:00 11.60069 C 9.3 g/m*3 11.6 C 2.49271 km/h
727 18-05-2019 00:00:00 14.44306 C 10.6 g/m*3 14.44 C 1.72396 km/h
728 19-05-2019 00:00:00 15.85694 C 11.29 g/m*3 15.86 C 3.36146 km/h
729 20-05-2019 00:00:00 13.90347 C 10.77 g/m*3 13.9 C 5.82431 km/h
730 21-05-2019 00:00:00 12.49722 C 10.23 g/m*3 12.5 C 8.26007 km/h
731 22-05-2019 00:00:00 13.38785 C 9.39 g/m*3 13.39 C 5.53958 km/h
732 23-05-2019 00:00:00 15.11875 C 9.58 g/m*3 15.12 C 2.43056 km/h
733 24-05-2019 00:00:00 16.93437 C 10.22 g/m*3 16.93 C 2.5066 km/h
734 25-05-2019 00:00:00 15.60035 C 8.97 g/m*3 15.6 C 4.91111 km/h
735 26-05-2019 00:00:00 15.92014 C 10.1 g/m*3 15.92 C 5.11042 km/h
736 27-05-2019 00:00:00 14.98924 C 11.65 g/m*3 14.99 C 1.43229 km/h
737 28-05-2019 00:00:00 13.95729 C 10.24 g/m*3 13.96 C 5.32535 km/h
738 29-05-2019 00:00:00 14.97951 C 8.74 g/m*3 14.98 C 4.30938 km/h
739 30-05-2019 00:00:00 15.62396 C 10.46 g/m*3 15.62 C 4.33958 km/h
740 31-05-2019 00:00:00 19.22674 C 12.25 g/m*3 19.23 C 4.08021 km/h
741 01-06-2019 00:00:00 19.98924 C 12.83 g/m*3 19.99 C 2.98229 km/h
742 02-06-2019 00:00:00 22.09028 C 13.76 g/m*3 22.09 C 2.70833 km/h
743 03-06-2019 00:00:00 20.85625 C 13.34 g/m*3 20.86 C 3.51354 km/h
744 04-06-2019 00:00:00 21.5059 C 13.89 g/m*3 21.51 C 3.54063 km/h
745 05-06-2019 00:00:00 23.45243 C 14.31 g/m*3 23.45 C 2.78264 km/h
746 06-06-2019 00:00:00 15.94271 C 10.67 g/m*3 15.94 C 8.29931 km/h
747 07-06-2019 00:00:00 15.6809 C 10.21 g/m*3 15.68 C 6.49722 km/h
748 08-06-2019 00:00:00 16.15243 C 8.63 g/m*3 16.15 C 11.89271 km/h
749 09-06-2019 00:00:00 16.23438 C 10.07 g/m*3 16.23 C 3.25729 km/h
750 10-06-2019 00:00:00 19.2684 C 12.22 g/m*3 19.27 C 4.23958 km/h
Sensor: Nr:Datum:Temp:Abs-Feuchte:Windchill:Wind:
Aussen-T/F 751 11-06-2019 00:00:00 17.19063 C 12.22 g/m*3 17.19 C 1.59271 km/h
752 12-06-2019 00:00:00 16.48854 C 11.55 g/m*3 16.49 C 4.25868 km/h
753 13-06-2019 00:00:00 15.92743 C 10.25 g/m*3 15.93 C 5.36042 km/h
754 14-06-2019 00:00:00 17.88507 C 12.61 g/m*3 17.89 C 1.74688 km/h
755 15-06-2019 00:00:00 19.62083 C 13.41 g/m*3 19.62 C 4.74444 km/h
756 16-06-2019 00:00:00 19.34479 C 11.88 g/m*3 19.34 C 4.13576 km/h
757 17-06-2019 00:00:00 18.93646 C 11.87 g/m*3 18.94 C 2.29132 km/h
758 18-06-2019 00:00:00 21.4625 C 13.68 g/m*3 21.46 C 1.57014 km/h
759 19-06-2019 00:00:00 22.17049 C 14.37 g/m*3 22.17 C 2.86354 km/h
760 20-06-2019 00:00:00 19.48229 C 13.47 g/m*3 19.48 C 5.3566 km/h
761 21-06-2019 00:00:00 18.55694 C 10.86 g/m*3 18.56 C 4.43056 km/h
762 22-06-2019 00:00:00 19.16771 C 11.45 g/m*3 19.17 C 4.30556 km/h
763 23-06-2019 00:00:00 21.78854 C 13.72 g/m*3 21.79 C 4.22083 km/h
764 24-06-2019 00:00:00 24.3809 C 15.34 g/m*3 24.38 C 4.76389 km/h
765 25-06-2019 00:00:00 26.30625 C 16.26 g/m*3 26.31 C 3.02049 km/h
766 26-06-2019 00:00:00 27.27336 C 17.1 g/m*3 27.27 C 5.13686 km/h
767 27-06-2019 00:00:00 24.42326 C 13.08 g/m*3 24.42 C 7.55694 km/h
768 28-06-2019 00:00:00 21.63368 C 11.43 g/m*3 21.63 C 3.73438 km/h
769 29-06-2019 00:00:00 24.00937 C 11.62 g/m*3 24.01 C 4.35069 km/h
770 30-06-2019 00:00:00 25.32014 C 14.64 g/m*3 25.32 C 5.88368 km/h
771 01-07-2019 00:00:00 22.68715 C 12.25 g/m*3 22.69 C 6.96285 km/h
772 02-07-2019 00:00:00 19.04306 C 9.98 g/m*3 19.04 C 5.46042 km/h
773 03-07-2019 00:00:00 17.43472 C 9.08 g/m*3 17.43 C 5.33542 km/h
774 04-07-2019 00:00:00 18.23021 C 8.79 g/m*3 18.23 C 3.81493 km/h
775 05-07-2019 00:00:00 20.73889 C 10.2 g/m*3 20.74 C 4.43368 km/h
Sensor: Nr:Datum:Temp:Abs-Feuchte:Windchill:Wind:
Aussen-T/F 776 06-07-2019 00:00:00 21.18681 C 11.39 g/m*3 21.19 C 5.94097 km/h
777 07-07-2019 00:00:00 17.78763 C 10.32 g/m*3 17.79 C 7.32191 km/h
778 08-07-2019 00:00:00 14.44931 C 8.79 g/m*3 14.45 C 4.8625 km/h
779 09-07-2019 00:00:00 15.40868 C 8.69 g/m*3 15.41 C 4.71875 km/h
780 10-07-2019 00:00:00 16.98854 C 8.38 g/m*3 16.99 C 3.84063 km/h
781 11-07-2019 00:00:00 17.76076 C 12.08 g/m*3 17.76 C 1.31076 km/h
782 12-07-2019 00:00:00 17.3375 C 13.59 g/m*3 17.34 C 2.32014 km/h
783 13-07-2019 00:00:00 17.99896 C 12.82 g/m*3 18 C 5.50243 km/h
784 14-07-2019 00:00:00 16.92569 C 10.89 g/m*3 16.93 C 6.91632 km/h
785 15-07-2019 00:00:00 16.34757 C 10.29 g/m*3 16.35 C 5.29444 km/h
786 16-07-2019 00:00:00 16.0375 C 10.29 g/m*3 16.04 C 4.47083 km/h
787 17-07-2019 00:00:00 17.21979 C 11.18 g/m*3 17.22 C 4.45729 km/h
788 18-07-2019 00:00:00 19.06944 C 12.13 g/m*3 19.07 C 1.90972 km/h
789 19-07-2019 00:00:00 20.2441 C 13.63 g/m*3 20.24 C 3.12847 km/h
790 20-07-2019 00:00:00 21.61736 C 14.28 g/m*3 21.62 C 4.16285 km/h
791 21-07-2019 00:00:00 21.96076 C 13.31 g/m*3 21.96 C 4.91736 km/h
792 22-07-2019 00:00:00 22.29861 C 13.03 g/m*3 22.3 C 3.24618 km/h
793 23-07-2019 00:00:00 25.05139 C 14.22 g/m*3 25.05 C 3.35556 km/h
794 24-07-2019 00:00:00 27.05069 C 14.88 g/m*3 27.05 C 2.26354 km/h
795 25-07-2019 00:00:00 28.69028 C 15.13 g/m*3 28.69 C 3.17882 km/h
796 26-07-2019 00:00:00 27.21528 C 14.6 g/m*3 27.22 C 3.0809 km/h
797 27-07-2019 00:00:00 23.20069 C 16.62 g/m*3 23.2 C 3.61389 km/h
798 28-07-2019 00:00:00 19.86597 C 15.53 g/m*3 19.87 C 3.90104 km/h
799 29-07-2019 00:00:00 21.16354 C 13.61 g/m*3 21.16 C 3.65556 km/h
800 30-07-2019 00:00:00 21.86528 C 12.82 g/m*3 21.87 C 5.2809 km/h
Sensor: Nr:Datum:Temp:Abs-Feuchte:Windchill:Wind:
Aussen-T/F 801 31-07-2019 00:00:00 21.06111 C 11.17 g/m*3 21.06 C 6.26354 km/h
802 01-08-2019 00:00:00 19.46424 C 10.98 g/m*3 19.46 C 3.89688 km/h
803 02-08-2019 00:00:00 20.52743 C 12.45 g/m*3 20.53 C 3.30556 km/h
804 03-08-2019 00:00:00 20.39271 C 12.83 g/m*3 20.39 C 8.72292 km/h
805 04-08-2019 00:00:00 20.53854 C 12.19 g/m*3 20.54 C 2.86389 km/h
806 05-08-2019 00:00:00 22.56562 C 13.5 g/m*3 22.57 C 4.09653 km/h
807 06-08-2019 00:00:00 19.97604 C 13.81 g/m*3 19.98 C 3.64132 km/h
808 07-08-2019 00:00:00 19.07535 C 14.31 g/m*3 19.08 C 3.07153 km/h
809 08-08-2019 00:00:00 20.39132 C 13.35 g/m*3 20.39 C 5.46944 km/h
810 09-08-2019 00:00:00 19.85833 C 14.88 g/m*3 19.86 C 0.79236 km/h
811 10-08-2019 00:00:00 20.67986 C 13.9 g/m*3 20.68 C 7.7059 km/h
812 11-08-2019 00:00:00 16.99444 C 11.7 g/m*3 16.99 C 2.95174 km/h
813 12-08-2019 00:00:00 16.4441 C 11.84 g/m*3 16.44 C 3.65278 km/h
814 13-08-2019 00:00:00 15.94306 C 10.67 g/m*3 15.94 C 5.33403 km/h
815 14-08-2019 00:00:00 16.52882 C 10.69 g/m*3 16.53 C 3.79861 km/h
816 15-08-2019 00:00:00 17.34306 C 13.07 g/m*3 17.34 C 5.15139 km/h
817 16-08-2019 00:00:00 17.72257 C 12.19 g/m*3 17.72 C 5.73264 km/h
818 17-08-2019 00:00:00 18.07049 C 13.36 g/m*3 18.07 C 2.66632 km/h
819 18-08-2019 00:00:00 19.8941 C 15.51 g/m*3 19.89 C 4.75694 km/h
820 19-08-2019 00:00:00 18.3684 C 12.23 g/m*3 18.37 C 4.84549 km/h
821 20-08-2019 00:00:00 15.78611 C 10.76 g/m*3 15.79 C 1.24618 km/h
822 21-08-2019 00:00:00 16.52222 C 10.61 g/m*3 16.52 C 1.51736 km/h
823 22-08-2019 00:00:00 17.27465 C 10.64 g/m*3 17.27 C 1.60208 km/h
824 23-08-2019 00:00:00 18.44792 C 11.19 g/m*3 18.45 C 2.36632 km/h
825 24-08-2019 00:00:00 19.52326 C 11.88 g/m*3 19.52 C 2.67396 km/h
Sensor: Nr:Datum:Temp:Abs-Feuchte:Windchill:Wind:
Aussen-T/F 826 25-08-2019 00:00:00 21.57431 C 14.28 g/m*3 21.57 C 1.39479 km/h
827 26-08-2019 00:00:00 22.3684 C 15.94 g/m*3 22.37 C 0.85174 km/h
828 27-08-2019 00:00:00 22.81979 C 16.16 g/m*3 22.82 C 0.89201 km/h
829 28-08-2019 00:00:00 23.38924 C 15.36 g/m*3 23.39 C 3.07813 km/h
830 29-08-2019 00:00:00 22.04201 C 14.97 g/m*3 22.04 C 3.15764 km/h
831 30-08-2019 00:00:00 21.0059 C 13.28 g/m*3 21.01 C 1.87778 km/h
832 31-08-2019 00:00:00 22.0566 C 14.04 g/m*3 22.06 C 2.34618 km/h
833 01-09-2019 00:00:00 18.73056 C 12.21 g/m*3 18.73 C 4.84896 km/h
834 02-09-2019 00:00:00 15.43958 C 8.93 g/m*3 15.44 C 2.90972 km/h
835 03-09-2019 00:00:00 15.68611 C 9.42 g/m*3 15.69 C 3.81736 km/h
836 04-09-2019 00:00:00 16.83646 C 11.04 g/m*3 16.84 C 5.32361 km/h
837 05-09-2019 00:00:00 15.41285 C 9.85 g/m*3 15.41 C 6.91979 km/h
838 06-09-2019 00:00:00 13.54271 C 8.36 g/m*3 13.54 C 2.30035 km/h
839 07-09-2019 00:00:00 12.95382 C 9.82 g/m*3 12.95 C 1.11875 km/h
840 08-09-2019 00:00:00 12.67778 C 10.48 g/m*3 12.68 C 1.02292 km/h
841 09-09-2019 00:00:00 12.50868 C 9.95 g/m*3 12.51 C 0.62222 km/h
842 10-09-2019 00:00:00 11.86563 C 9.01 g/m*3 11.87 C 1.27153 km/h
843 11-09-2019 00:00:00 13.34931 C 9.38 g/m*3 13.35 C 3.32083 km/h
844 12-09-2019 00:00:00 19.07292 C 12.83 g/m*3 19.07 C 5.07257 km/h
845 13-09-2019 00:00:00 17.76319 C 13.35 g/m*3 17.76 C 2.56076 km/h
846 14-09-2019 00:00:00 15.58229 C 10.78 g/m*3 15.58 C 1.03194 km/h
847 15-09-2019 00:00:00 15.40243 C 10.32 g/m*3 15.4 C 0.29444 km/h
848 16-09-2019 00:00:00 16.09444 C 10.79 g/m*3 16.09 C 2.79514 km/h
849 17-09-2019 00:00:00 15.6191 C 9.81 g/m*3 15.62 C 7.71493 km/h
850 18-09-2019 00:00:00 11.41215 C 7.6 g/m*3 11.41 C 3.00799 km/h
Sensor: Nr:Datum:Temp:Abs-Feuchte:Windchill:Wind:
Aussen-T/F 851 19-09-2019 00:00:00 10.47361 C 7.22 g/m*3 10.47 C 2.36771 km/h
852 20-09-2019 00:00:00 10.72153 C 7.12 g/m*3 10.72 C 2.07396 km/h
853 21-09-2019 00:00:00 12.32465 C 7.54 g/m*3 12.32 C 1.46806 km/h
854 22-09-2019 00:00:00 14.8625 C 9.65 g/m*3 14.86 C 0.47778 km/h
855 23-09-2019 00:00:00 16.54479 C 11.93 g/m*3 16.54 C 4.12674 km/h
856 24-09-2019 00:00:00 14.13194 C 10.98 g/m*3 14.13 C 0.63611 km/h
857 25-09-2019 00:00:00 15.26806 C 11.83 g/m*3 15.27 C 3.64549 km/h
858 26-09-2019 00:00:00 16.26111 C 12.83 g/m*3 16.26 C 2.32917 km/h
859 27-09-2019 00:00:00 16.20451 C 11.99 g/m*3 16.2 C 6.36285 km/h
860 28-09-2019 00:00:00 15.30903 C 11.1 g/m*3 15.31 C 9.7816 km/h
861 29-09-2019 00:00:00 16.12778 C 11.4 g/m*3 16.13 C 9.27535 km/h
862 30-09-2019 00:00:00 15.31424 C 10.49 g/m*3 15.31 C 11.19965 km/h
863 01-10-2019 00:00:00 15.98125 C 12.01 g/m*3 15.98 C 6.38333 km/h
864 02-10-2019 00:00:00 12.49479 C 9.13 g/m*3 12.49 C 7.54097 km/h
865 03-10-2019 00:00:00 9.77535 C 8.39 g/m*3 9.78 C 2.6566 km/h
866 04-10-2019 00:00:00 10.31563 C 9.12 g/m*3 10.32 C 2.49479 km/h
867 05-10-2019 00:00:00 10.64965 C 8.61 g/m*3 10.65 C 3.49583 km/h
868 06-10-2019 00:00:00 8.34063 C 8.11 g/m*3 8.34 C 0.84097 km/h
869 07-10-2019 00:00:00 10.09167 C 8.92 g/m*3 10.09 C 1.20799 km/h
870 08-10-2019 00:00:00 12.83333 C 10.63 g/m*3 12.83 C 5.34132 km/h
871 09-10-2019 00:00:00 11.68715 C 9.67 g/m*3 11.69 C 6.15069 km/h
872 10-10-2019 00:00:00 11.67509 C 9.02 g/m*3 11.68 C 7.65474 km/h
873 11-10-2019 00:00:00 12.72361 C 9.95 g/m*3 12.72 C 4.43958 km/h
874 12-10-2019 00:00:00 13.63368 C 10.51 g/m*3 13.63 C 3.71458 km/h
875 13-10-2019 00:00:00 16.44722 C 12.77 g/m*3 16.45 C 0.84688 km/h
Sensor: Nr:Datum:Temp:Abs-Feuchte:Windchill:Wind:
Aussen-T/F 876 14-10-2019 00:00:00 16.00938 C 12.22 g/m*3 16.01 C 0.57951 km/h
877 15-10-2019 00:00:00 14.32674 C 11.35 g/m*3 14.33 C 1.88889 km/h
878 16-10-2019 00:00:00 12.65347 C 10.45 g/m*3 12.65 C 2.06354 km/h
879 17-10-2019 00:00:00 14.64826 C 11.42 g/m*3 14.65 C 2.20521 km/h
880 18-10-2019 00:00:00 12.52604 C 10.1 g/m*3 12.53 C 3.73403 km/h
881 19-10-2019 00:00:00 12.88561 C 10.24 g/m*3 12.89 C 1.25396 km/h
882 20-10-2019 00:00:00 13.60139 C 11.48 g/m*3 13.6 C 0.10592 km/h
883 21-10-2019 00:00:00 13.67735 C 11.06 g/m*3 13.68 C 1.77735 km/h
884 22-10-2019 00:00:00 11.49819 C 9.49 g/m*3 11.5 C 0.65884 km/h
885 23-10-2019 00:00:00 11.05972 C 9.52 g/m*3 11.06 C 1.19514 km/h
886 24-10-2019 00:00:00 14.06458 C 11.16 g/m*3 14.06 C 0.74618 km/h
887 25-10-2019 00:00:00 13.32951 C 10.11 g/m*3 13.33 C 3.23785 km/h
888 26-10-2019 00:00:00 13.17604 C 10.48 g/m*3 13.18 C 0.73993 km/h
889 27-10-2019 00:00:00 10.25174 C 8.89 g/m*3 10.25 C 2.11736 km/h
890 28-10-2019 00:00:00 6.33854 C 7.18 g/m*3 6.34 C 0.77847 km/h
891 29-10-2019 00:00:00 6.56632 C 6.94 g/m*3 6.57 C 1.2191 km/h
892 30-10-2019 00:00:00 3.52778 C 5.79 g/m*3 3.53 C 0.38368 km/h
893 31-10-2019 00:00:00 2.23438 C 5.28 g/m*3 2.23 C 0.67396 km/h
894 01-11-2019 00:00:00 6.02465 C 6.99 g/m*3 6.02 C 0.48958 km/h
895 02-11-2019 00:00:00 13.19792 C 10.36 g/m*3 13.2 C 6.07292 km/h
896 03-11-2019 00:00:00 11.85035 C 9.69 g/m*3 11.85 C 1.69514 km/h
897 04-11-2019 00:00:00 10.33333 C 8.92 g/m*3 10.33 C 3.08403 km/h
898 05-11-2019 00:00:00 9.70972 C 8.25 g/m*3 9.71 C 2.63854 km/h
899 06-11-2019 00:00:00 8.97569 C 8.38 g/m*3 8.98 C 1.65278 km/h
900 07-11-2019 00:00:00 7.93611 C 7.85 g/m*3 7.94 C 1.98715 km/h
Sensor: Nr:Datum:Temp:Abs-Feuchte:Windchill:Wind:
Aussen-T/F 901 08-11-2019 00:00:00 4.99444 C 6.56 g/m*3 4.99 C 0.32778 km/h
902 09-11-2019 00:00:00 4.99167 C 6.39 g/m*3 4.99 C 3.73299 km/h
903 10-11-2019 00:00:00 3.02188 C 5.69 g/m*3 3.02 C 1.31146 km/h
904 11-11-2019 00:00:00 4.67986 C 6.09 g/m*3 4.68 C 3.38854 km/h
905 12-11-2019 00:00:00 5.9125 C 6.37 g/m*3 5.91 C 4.80729 km/h
906 13-11-2019 00:00:00 5.47431 C 6.19 g/m*3 5.47 C 3.37118 km/h
907 14-11-2019 00:00:00 5.50729 C 6.04 g/m*3 5.51 C 1.95556 km/h
908 15-11-2019 00:00:00 4.68958 C 5.87 g/m*3 4.69 C 1.32639 km/h
909 16-11-2019 00:00:00 2.11389 C 5.35 g/m*3 2.11 C 0.59444 km/h
910 17-11-2019 00:00:00 3.09271 C 5.81 g/m*3 3.09 C 1.22049 km/h
911 18-11-2019 00:00:00 4.31181 C 6.25 g/m*3 4.31 C 4.39097 km/h
912 19-11-2019 00:00:00 3.99132 C 6.02 g/m*3 3.99 C 3.26597 km/h
913 20-11-2019 00:00:00 1.59583 C 5.12 g/m*3 1.6 C 1.20972 km/h
914 21-11-2019 00:00:00 1.90833 C 5.3 g/m*3 1.91 C 0.25556 km/h
915 22-11-2019 00:00:00 4.39097 C 6.22 g/m*3 4.39 C 2.3066 km/h
916 23-11-2019 00:00:00 5.38785 C 6.48 g/m*3 5.39 C 1.74201 km/h
917 24-11-2019 00:00:00 2.90104 C 5.74 g/m*3 2.9 C 0.06111 km/h
918 25-11-2019 00:00:00 4.80833 C 6.51 g/m*3 4.81 C 0.02778 km/h
919 26-11-2019 00:00:00 8.38542 C 8.03 g/m*3 8.39 C 0.9066 km/h
920 27-11-2019 00:00:00 10.34479 C 8.62 g/m*3 9.87 C 5.98819 km/h
921 28-11-2019 00:00:00 10.92778 C 8.33 g/m*3 8.91 C 16.34514 km/h
922 29-11-2019 00:00:00 6.44618 C 6.66 g/m*3 6.45 C 3.50382 km/h
923 30-11-2019 00:00:00 1.19549 C 5.06 g/m*3 1.2 C 0.78889 km/h
924 01-12-2019 00:00:00 1.79271 C 5.07 g/m*3 1.79 C 0.76285 km/h
925 02-12-2019 00:00:00 1.98646 C 5.18 g/m*3 1.99 C 2.41076 km/h
Sensor: Nr:Datum:Temp:Abs-Feuchte:Windchill:Wind:
Aussen-T/F 926 03-12-2019 00:00:00 4.75729 C 6.42 g/m*3 4.76 C 2.90799 km/h
927 04-12-2019 00:00:00 1.34375 C 5.12 g/m*3 1.34 C 0.38889 km/h
928 05-12-2019 00:00:00 -1.15625 C 4.33 g/m*3 -1.16 C 1.07292 km/h
929 06-12-2019 00:00:00 3.41285 C 5.7 g/m*3 1.37 C 7.65486 km/h
930 07-12-2019 00:00:00 8.70903 C 7.68 g/m*3 7.94 C 6.1684 km/h
931 08-12-2019 00:00:00 10.05903 C 8.11 g/m*3 7.98 C 15.03993 km/h
932 09-12-2019 00:00:00 7.72222 C 6.87 g/m*3 5.33 C 13.44757 km/h
933 10-12-2019 00:00:00 3.24757 C 5.5 g/m*3 3.25 C 3.26111 km/h
934 11-12-2019 00:00:00 3.97292 C 6.01 g/m*3 3.97 C 1.18958 km/h
935 12-12-2019 00:00:00 3.52361 C 5.79 g/m*3 3.52 C 2.6559 km/h
936 13-12-2019 00:00:00 4.09722 C 5.89 g/m*3 2.1 C 7.89479 km/h
937 14-12-2019 00:00:00 6.8934 C 6.59 g/m*3 4.55 C 12.00035 km/h
938 15-12-2019 00:00:00 7.90069 C 7.25 g/m*3 6.51 C 8.15799 km/h
939 16-12-2019 00:00:00 8.12951 C 8.07 g/m*3 8.13 C 1.30764 km/h
940 17-12-2019 00:00:00 10.43056 C 8.68 g/m*3 10.43 C 3.06632 km/h
941 18-12-2019 00:00:00 7.77014 C 7.62 g/m*3 7.77 C 2.52222 km/h
942 19-12-2019 00:00:00 5.57986 C 6.77 g/m*3 5.58 C 1.93472 km/h
943 20-12-2019 00:00:00 7.73264 C 7.5 g/m*3 7.01 C 5.51528 km/h
944 21-12-2019 00:00:00 7.24826 C 7.1 g/m*3 7.25 C 2.32604 km/h
945 22-12-2019 00:00:00 8.18368 C 7.45 g/m*3 6.88 C 7.96806 km/h
946 23-12-2019 00:00:00 7.83021 C 7.24 g/m*3 6.73 C 6.89375 km/h
947 24-12-2019 00:00:00 7.67986 C 7.22 g/m*3 6.56 C 6.89132 km/h
948 25-12-2019 00:00:00 7.66389 C 7.34 g/m*3 6.81 C 5.92118 km/h
949 26-12-2019 00:00:00 4.9934 C 6.53 g/m*3 4.99 C 0.22778 km/h
950 27-12-2019 00:00:00 5.12153 C 6.48 g/m*3 5.12 C 0.62813 km/h
Sensor: Nr:Datum:Temp:Abs-Feuchte:Windchill:Wind:
Aussen-T/F 951 28-12-2019 00:00:00 -0.27465 C 4.56 g/m*3 -0.27 C 0.24444 km/h
952 29-12-2019 00:00:00 -1.04618 C 4.3 g/m*3 -1.05 C 0.16111 km/h
953 30-12-2019 00:00:00 -0.88507 C 4.31 g/m*3 -0.89 C 0.57778 km/h
954 31-12-2019 00:00:00 0.52326 C 4.68 g/m*3 0.52 C 0.38889 km/h
955 01-01-2020 00:00:00 0.89583 C 4.89 g/m*3 0.9 C 0.65035 km/h
956 02-01-2020 00:00:00 1.68611 C 5.16 g/m*3 1.69 C 1.07083 km/h
957 03-01-2020 00:00:00 7.56111 C 7.32 g/m*3 5.66 C 10.31771 km/h
958 04-01-2020 00:00:00 5.45936 C 6.25 g/m*3 4.14 C 6.36466 km/h
959 05-01-2020 00:00:00 5.96021 C 6.74 g/m*3 5.96 C 1.99155 km/h
960 06-01-2020 00:00:00 2.98542 C 5.54 g/m*3 2.99 C 0.62257 km/h
961 07-01-2020 00:00:00 5.07812 C 6.3 g/m*3 3.55 C 6.84618 km/h
962 08-01-2020 00:00:00 8.28333 C 7.79 g/m*3 8.28 C 4.43403 km/h
963 09-01-2020 00:00:00 10.92535 C 9.24 g/m*3 10.93 C 4.57049 km/h
964 10-01-2020 00:00:00 8.91667 C 7.74 g/m*3 8.13 C 6.34097 km/h
965 11-01-2020 00:00:00 4.34236 C 5.77 g/m*3 4.34 C 2.90972 km/h
966 12-01-2020 00:00:00 5.14718 C 6.03 g/m*3 2.77 C 10.27923 km/h
967 13-01-2020 00:00:00 6.54201 C 6.9 g/m*3 6.54 C 2.32361 km/h
968 14-01-2020 00:00:00 9.77153 C 7.21 g/m*3 8.94 C 7.10104 km/h
969 15-01-2020 00:00:00 10.89063 C 7.62 g/m*3 10.7 C 5.23785 km/h
970 16-01-2020 00:00:00 7.81181 C 7.8 g/m*3 7.81 C 1.39618 km/h
971 17-01-2020 00:00:00 6.03854 C 6.82 g/m*3 6.04 C 2.70069 km/h
972 18-01-2020 00:00:00 4.44062 C 5.78 g/m*3 3.14 C 5.81389 km/h
973 19-01-2020 00:00:00 3.78507 C 5.9 g/m*3 3.79 C 1.80972 km/h
974 20-01-2020 00:00:00 2.42431 C 5.25 g/m*3 2.42 C 1.02049 km/h
975 21-01-2020 00:00:00 -1.80243 C 4.12 g/m*3 -1.8 C 0.56111 km/h
Sensor: Nr:Datum:Temp:Abs-Feuchte:Windchill:Wind:
Aussen-T/F 976 22-01-2020 00:00:00 -1.19236 C 4.33 g/m*3 -1.19 C 0.77292 km/h
977 23-01-2020 00:00:00 1.30764 C 5.15 g/m*3 1.31 C 0.44514 km/h
978 24-01-2020 00:00:00 1.43415 C 4.89 g/m*3 1.43 C 1.77561 km/h
979 25-01-2020 00:00:00 2.65128 C 5.46 g/m*3 2.65 C 0.67985 km/h
980 26-01-2020 00:00:00 2.81007 C 5.57 g/m*3 2.81 C 0.63333 km/h
981 27-01-2020 00:00:00 6.29028 C 6.96 g/m*3 6.29 C 2.65521 km/h
982 28-01-2020 00:00:00 5.69583 C 6.12 g/m*3 2.94 C 12.92153 km/h
983 29-01-2020 00:00:00 4.80035 C 5.55 g/m*3 2.43 C 9.95972 km/h
984 30-01-2020 00:00:00 7.99861 C 7 g/m*3 6.37 C 9.33646 km/h
985 31-01-2020 00:00:00 13.03785 C 9.57 g/m*3 13.04 C 14.62535 km/h
986 01-02-2020 00:00:00 11.64167 C 9.15 g/m*3 11.64 C 10.45174 km/h
987 02-02-2020 00:00:00 10.18611 C 8.05 g/m*3 8.85 C 10.01215 km/h
988 03-02-2020 00:00:00 10.60417 C 8.03 g/m*3 9.19 C 11.04201 km/h
989 04-02-2020 00:00:00 5.02986 C 6.11 g/m*3 2.89 C 9.12292 km/h
990 05-02-2020 00:00:00 3.76389 C 5.51 g/m*3 3.76 C 4.16632 km/h
991 06-02-2020 00:00:00 0.78437 C 4.78 g/m*3 0.78 C 0.89479 km/h
992 07-02-2020 00:00:00 0.2559 C 4.69 g/m*3 0.26 C 1.79514 km/h
993 08-02-2020 00:00:00 1.77708 C 5.16 g/m*3 1.78 C 0.1 km/h
994 09-02-2020 00:00:00 8.82708 C 7.2 g/m*3 6.77 C 12.83472 km/h
995 10-02-2020 00:00:00 8.29444 C 6.95 g/m*3 5.04 C 21.87882 km/h
996 11-02-2020 00:00:00 5.77535 C 5.23 g/m*3 2.04 C 20.07639 km/h
997 12-02-2020 00:00:00 4.81875 C 5.45 g/m*3 2.16 C 11.35347 km/h
998 13-02-2020 00:00:00 4.01076 C 5.91 g/m*3 4.01 C 2.95278 km/h
999 14-02-2020 00:00:00 6.17951 C 6.69 g/m*3 6.18 C 4.11667 km/h
1000 15-02-2020 00:00:00 6.23438 C 6.6 g/m*3 6.23 C 2.06493 km/h
Sensor: Nr:Datum:Temp:Abs-Feuchte:Windchill:Wind:
Aussen-T/F 1001 16-02-2020 00:00:00 14.59028 C 8.12 g/m*3 14.59 C 14.33264 km/h
1002 17-02-2020 00:00:00 8.54375 C 7.08 g/m*3 6.63 C 11.47951 km/h
1003 18-02-2020 00:00:00 7.24965 C 6.32 g/m*3 5.01 C 11.85417 km/h
1004 19-02-2020 00:00:00 6.24514 C 5.75 g/m*3 3.85 C 11.5309 km/h
1005 20-02-2020 00:00:00 8.16562 C 6.89 g/m*3 6.24 C 11.08403 km/h
1006 21-02-2020 00:00:00 5.17604 C 5.66 g/m*3 3.26 C 8.30069 km/h
1007 22-02-2020 00:00:00 8.05035 C 6.48 g/m*3 5.62 C 14.2309 km/h
1008 23-02-2020 00:00:00 10.5066 C 8.42 g/m*3 8.31 C 17.00868 km/h
1009 24-02-2020 00:00:00 8.10972 C 7.26 g/m*3 6.57 C 8.98854 km/h
1010 25-02-2020 00:00:00 9.07813 C 7.21 g/m*3 7.21 C 11.89722 km/h
1011 26-02-2020 00:00:00 4.86319 C 5.43 g/m*3 1.69 C 14.28889 km/h
1012 27-02-2020 00:00:00 2.97813 C 5.36 g/m*3 1.55 C 5.58229 km/h
1013 28-02-2020 00:00:00 3.97257 C 5.53 g/m*3 2.34 C 6.60451 km/h
1014 29-02-2020 00:00:00 8.92083 C 7.3 g/m*3 7.53 C 9.02882 km/h
1015 01-03-2020 00:00:00 7.55313 C 6.69 g/m*3 5.79 C 9.58958 km/h
1016 02-03-2020 00:00:00 6.27882 C 6.58 g/m*3 6.28 C 4.65521 km/h
1017 03-03-2020 00:00:00 4.69236 C 5.9 g/m*3 3.05 C 7.02118 km/h
1018 04-03-2020 00:00:00 5.49583 C 6.03 g/m*3 3.43 C 9.175 km/h
1019 05-03-2020 00:00:00 6.08229 C 6.79 g/m*3 6.08 C 3.4184 km/h
1020 06-03-2020 00:00:00 6.29896 C 6.69 g/m*3 4.66 C 7.99722 km/h
1021 07-03-2020 00:00:00 6.57396 C 5.95 g/m*3 5.6 C 5.78715 km/h
1022 08-03-2020 00:00:00 9.63993 C 7.07 g/m*3 8.43 C 8.76528 km/h
1023 09-03-2020 00:00:00 7.99514 C 6.74 g/m*3 6.85 C 7.1875 km/h
1024 10-03-2020 00:00:00 9.51076 C 8.25 g/m*3 7.22 C 15.70625 km/h
1025 11-03-2020 00:00:00 14.09028 C 10.44 g/m*3 14.09 C 18.09792 km/h
Sensor: Nr:Datum:Temp:Abs-Feuchte:Windchill:Wind:
Aussen-T/F 1026 12-03-2020 00:00:00 11.24514 C 7.38 g/m*3 11.25 C 14.52049 km/h
1027 13-03-2020 00:00:00 7.37569 C 6.06 g/m*3 5.27 C 11.20972 km/h
1028 14-03-2020 00:00:00 6.05799 C 6.07 g/m*3 6.06 C 2.24028 km/h
1029 15-03-2020 00:00:00 8.92639 C 6.51 g/m*3 8.93 C 4.61528 km/h
1030 16-03-2020 00:00:00 9.3 C 7.21 g/m*3 9.3 C 2.61528 km/h
1031 17-03-2020 00:00:00 11.38021 C 8.2 g/m*3 11.38 C 2.01007 km/h
1032 18-03-2020 00:00:00 9.96493 C 7.74 g/m*3 9.96 C 2.87535 km/h
1033 19-03-2020 00:00:00 12.13646 C 8.18 g/m*3 12.14 C 1.76944 km/h
1034 20-03-2020 00:00:00 10.33299 C 8.07 g/m*3 9.69 C 6.66424 km/h
1035 21-03-2020 00:00:00 6.16667 C 5.61 g/m*3 4.33 C 8.72188 km/h
1036 22-03-2020 00:00:00 4.50243 C 3.8 g/m*3 2.15 C 9.60833 km/h
1037 23-03-2020 00:00:00 2.99688 C 3.29 g/m*3 1.04 C 7.14792 km/h
1038 24-03-2020 00:00:00 2.86181 C 3.32 g/m*3 1.43 C 5.55451 km/h
1039 25-03-2020 00:00:00 3.75208 C 3.3 g/m*3 2.26 C 6.0691 km/h
1040 26-03-2020 00:00:00 5.07118 C 3.92 g/m*3 3.35 C 7.52292 km/h
1041 27-03-2020 00:00:00 7.93715 C 5.5 g/m*3 7.94 C 4.7875 km/h
1042 28-03-2020 00:00:00 9.59861 C 6.11 g/m*3 9.23 C 5.23438 km/h
1043 29-03-2020 00:00:00 5.44891 C 4.87 g/m*3 2.38 C 14.50109 km/h
1044 30-03-2020 00:00:00 2.775 C 3.76 g/m*3 1.41 C 5.34861 km/h
1045 31-03-2020 00:00:00 5.47118 C 4.64 g/m*3 4.25 C 6.03681 km/h
1046 01-04-2020 00:00:00 3.8184 C 3.91 g/m*3 3.82 C 2.97292 km/h
1047 02-04-2020 00:00:00 5.06042 C 4.64 g/m*3 5.06 C 4.05799 km/h
1048 03-04-2020 00:00:00 8.20382 C 5.62 g/m*3 7.03 C 7.44306 km/h
1049 04-04-2020 00:00:00 6.78958 C 5.27 g/m*3 6.79 C 4.17049 km/h
1050 05-04-2020 00:00:00 9.49479 C 5.92 g/m*3 9.49 C 4.43299 km/h
Sensor: Nr:Datum:Temp:Abs-Feuchte:Windchill:Wind:
Aussen-T/F 1051 06-04-2020 00:00:00 12.0434 C 6.45 g/m*3 12.04 C 4.85382 km/h
1052 07-04-2020 00:00:00 13.80521 C 7.99 g/m*3 13.81 C 3.16285 km/h
1053 08-04-2020 00:00:00 14.48472 C 8.09 g/m*3 14.48 C 2.53403 km/h
1054 09-04-2020 00:00:00 15.29167 C 8.18 g/m*3 15.29 C 3.63889 km/h
1055 10-04-2020 00:00:00 14.13646 C 8.07 g/m*3 14.14 C 3.47292 km/h
1056 11-04-2020 00:00:00 14.06563 C 6.91 g/m*3 14.07 C 3.86285 km/h
1057 12-04-2020 00:00:00 15.15174 C 7.8 g/m*3 15.15 C 3.30764 km/h
1058 13-04-2020 00:00:00 9.40139 C 6.26 g/m*3 8.22 C 8.425 km/h
1059 14-04-2020 00:00:00 6.11181 C 4.69 g/m*3 5.29 C 5.16042 km/h
1060 15-04-2020 00:00:00 8.67361 C 5.61 g/m*3 8.67 C 3.12465 km/h
1061 16-04-2020 00:00:00 12.83299 C 7.18 g/m*3 12.83 C 4.85938 km/h
1062 17-04-2020 00:00:00 15.23854 C 9.05 g/m*3 15.24 C 2.55313 km/h
1063 18-04-2020 00:00:00 14.52083 C 9.82 g/m*3 14.52 C 2.63993 km/h
1064 19-04-2020 00:00:00 13.06597 C 8.91 g/m*3 13.07 C 4.55833 km/h
1065 20-04-2020 00:00:00 12.5066 C 5.55 g/m*3 12.51 C 9.3809 km/h
1066 21-04-2020 00:00:00 13.59583 C 5.65 g/m*3 13.6 C 10.06701 km/h
1067 22-04-2020 00:00:00 14.35 C 6.22 g/m*3 14.35 C 7.5316 km/h
1068 23-04-2020 00:00:00 14.16042 C 7.04 g/m*3 14.16 C 4.06528 km/h
1069 24-04-2020 00:00:00 13.96285 C 7.44 g/m*3 13.96 C 4.66563 km/h
1070 25-04-2020 00:00:00 12.06389 C 6.69 g/m*3 12.06 C 6.73785 km/h
1071 26-04-2020 00:00:00 11.44375 C 6.84 g/m*3 11.44 C 2.65521 km/h
1072 27-04-2020 00:00:00 12.89201 C 7.5 g/m*3 12.89 C 3.69201 km/h
1073 28-04-2020 00:00:00 12.69306 C 9.65 g/m*3 12.69 C 4.55451 km/h
1074 29-04-2020 00:00:00 14.31979 C 9.44 g/m*3 14.32 C 7.80625 km/h
1075 30-04-2020 00:00:00 12.21632 C 9 g/m*3 12.22 C 7.24097 km/h
Sensor: Nr:Datum:Temp:Abs-Feuchte:Windchill:Wind:
Aussen-T/F 1076 01-05-2020 00:00:00 10.57674 C 8.42 g/m*3 9.69 C 7.9691 km/h
1077 02-05-2020 00:00:00 9.93542 C 7.85 g/m*3 8.71 C 9.12813 km/h
1078 03-05-2020 00:00:00 10.39028 C 7.44 g/m*3 10.39 C 4.16701 km/h
1079 04-05-2020 00:00:00 11.82361 C 8.83 g/m*3 11.82 C 3.89167 km/h
1080 05-05-2020 00:00:00 10.30833 C 6.6 g/m*3 10.31 C 4.70208 km/h
1081 06-05-2020 00:00:00 10.34687 C 6.05 g/m*3 10.35 C 4.38403 km/h
1082 07-05-2020 00:00:00 12.36771 C 7.31 g/m*3 12.37 C 2.86944 km/h
1083 08-05-2020 00:00:00 15.11146 C 8.36 g/m*3 15.11 C 2.19965 km/h
1084 09-05-2020 00:00:00 15.97396 C 9.77 g/m*3 15.97 C 2.71493 km/h
1085 10-05-2020 00:00:00 15.5441 C 11.54 g/m*3 15.54 C 2.07882 km/h
1086 11-05-2020 00:00:00 9.41007 C 6.58 g/m*3 7.22 C 14.7434 km/h
1087 12-05-2020 00:00:00 7.67674 C 5.27 g/m*3 7.12 C 5.00139 km/h
1088 13-05-2020 00:00:00 8.92604 C 5.92 g/m*3 8.43 C 5.34167 km/h
1089 14-05-2020 00:00:00 9.71389 C 6.11 g/m*3 8.97 C 6.69549 km/h
1090 15-05-2020 00:00:00 10.43264 C 5.89 g/m*3 9.94 C 6.10278 km/h
1091 16-05-2020 00:00:00 11.17396 C 6.49 g/m*3 11.17 C 3.70278 km/h
1092 17-05-2020 00:00:00 13.11528 C 7.24 g/m*3 13.12 C 5.45208 km/h
1093 18-05-2020 00:00:00 15.67292 C 8.67 g/m*3 15.67 C 4.54201 km/h
1094 19-05-2020 00:00:00 16.60729 C 9.31 g/m*3 16.61 C 4.70694 km/h
1095 20-05-2020 00:00:00 17.77917 C 10.91 g/m*3 17.78 C 5.79792 km/h
1096 21-05-2020 00:00:00 19.01562 C 11.3 g/m*3 19.02 C 4.26215 km/h
1097 22-05-2020 00:00:00 19.97639 C 12.99 g/m*3 19.98 C 4.51806 km/h
1098 23-05-2020 00:00:00 13.69236 C 10.37 g/m*3 13.69 C 7.32083 km/h
1099 24-05-2020 00:00:00 13.58542 C 8.77 g/m*3 13.59 C 8.86458 km/h
1100 25-05-2020 00:00:00 15.93854 C 10.17 g/m*3 15.94 C 6.43507 km/h
Sensor: Nr:Datum:Temp:Abs-Feuchte:Windchill:Wind:
Aussen-T/F 1101 26-05-2020 00:00:00 14.58437 C 8.98 g/m*3 14.58 C 4.27986 km/h
1102 27-05-2020 00:00:00 16.48611 C 9.1 g/m*3 16.49 C 3.63056 km/h
1103 28-05-2020 00:00:00 17.49132 C 8.08 g/m*3 17.49 C 7.57882 km/h
1104 29-05-2020 00:00:00 15.20764 C 7.52 g/m*3 15.21 C 5.83229 km/h
1105 30-05-2020 00:00:00 15.6941 C 7.43 g/m*3 15.69 C 7.54688 km/h
1106 31-05-2020 00:00:00 15.11597 C 7.85 g/m*3 15.12 C 6.56979 km/h
1107 01-06-2020 00:00:00 17.87257 C 9.2 g/m*3 17.87 C 5.67674 km/h
1108 02-06-2020 00:00:00 19.76701 C 9.86 g/m*3 19.77 C 4.21389 km/h
1109 03-06-2020 00:00:00 19.96667 C 10.41 g/m*3 19.97 C 3.58403 km/h
1110 04-06-2020 00:00:00 14.67257 C 11.5 g/m*3 14.67 C 3.93715 km/h
1111 05-06-2020 00:00:00 11.51111 C 8.89 g/m*3 11.51 C 8.28194 km/h
1112 06-06-2020 00:00:00 12.4684 C 8.91 g/m*3 12.47 C 7.64097 km/h
1113 07-06-2020 00:00:00 13.39861 C 8.64 g/m*3 13.4 C 6.02326 km/h
1114 08-06-2020 00:00:00 14.75035 C 9.21 g/m*3 14.75 C 4.38229 km/h
1115 09-06-2020 00:00:00 13.99236 C 10.65 g/m*3 13.99 C 4.11076 km/h
1116 10-06-2020 00:00:00 15.4 C 11.26 g/m*3 15.4 C 2.45972 km/h
1117 11-06-2020 00:00:00 15.74271 C 11.48 g/m*3 15.74 C 2.00035 km/h
1118 12-06-2020 00:00:00 19.42083 C 12.29 g/m*3 19.42 C 5.55 km/h
1119 13-06-2020 00:00:00 20.95799 C 12.96 g/m*3 20.96 C 4.51701 km/h
1120 14-06-2020 00:00:00 18.87917 C 13.01 g/m*3 18.88 C 3.71146 km/h
1121 15-06-2020 00:00:00 18.60291 C 12.82 g/m*3 18.6 C 2.99891 km/h
1122 16-06-2020 00:00:00 18.0434 C 13.69 g/m*3 18.04 C 1.73021 km/h
1123 17-06-2020 00:00:00 17.45903 C 13.34 g/m*3 17.46 C 2.12708 km/h
1124 18-06-2020 00:00:00 18.51528 C 12.26 g/m*3 18.52 C 7.04444 km/h
1125 19-06-2020 00:00:00 16.72674 C 12.02 g/m*3 16.73 C 5.28472 km/h
Sensor: Nr:Datum:Temp:Abs-Feuchte:Windchill:Wind:
Aussen-T/F 1126 20-06-2020 00:00:00 16.94271 C 12.22 g/m*3 16.94 C 2.92049 km/h
1127 21-06-2020 00:00:00 19.05278 C 12.22 g/m*3 19.05 C 4.57847 km/h
1128 22-06-2020 00:00:00 18.83785 C 11.69 g/m*3 18.84 C 5.54479 km/h
1129 23-06-2020 00:00:00 19.59583 C 11.59 g/m*3 19.6 C 4.04375 km/h
1130 24-06-2020 00:00:00 21.22153 C 11.17 g/m*3 21.22 C 6.9809 km/h
1131 25-06-2020 00:00:00 21.70278 C 12.93 g/m*3 21.7 C 6.25174 km/h
1132 26-06-2020 00:00:00 21.67743 C 13.49 g/m*3 21.68 C 4.66563 km/h
1133 27-06-2020 00:00:00 22.68785 C 14.63 g/m*3 22.69 C 7.36736 km/h
1134 28-06-2020 00:00:00 19.86979 C 12.42 g/m*3 19.87 C 6.54306 km/h
1135 29-06-2020 00:00:00 17.69792 C 10.81 g/m*3 17.7 C 7.67604 km/h
1136 30-06-2020 00:00:00 16.88194 C 10.24 g/m*3 16.88 C 6.7059 km/h
1137 01-07-2020 00:00:00 21.29896 C 13.31 g/m*3 21.3 C 10.40972 km/h
1138 02-07-2020 00:00:00 18.73125 C 13.11 g/m*3 18.73 C 5.31354 km/h
1139 03-07-2020 00:00:00 17.73958 C 10.91 g/m*3 17.74 C 5.90243 km/h
1140 04-07-2020 00:00:00 19.09826 C 11.22 g/m*3 19.1 C 9.03576 km/h
1141 05-07-2020 00:00:00 22.80243 C 14.45 g/m*3 22.8 C 14.43472 km/h
1142 06-07-2020 00:00:00 16.79653 C 9.41 g/m*3 16.8 C 9.54965 km/h
1143 07-07-2020 00:00:00 16.09792 C 9.28 g/m*3 16.1 C 4.51979 km/h
1144 08-07-2020 00:00:00 15.87639 C 11.63 g/m*3 15.88 C 2.19965 km/h
1145 09-07-2020 00:00:00 21.61424 C 14.17 g/m*3 21.61 C 7.27465 km/h
1146 10-07-2020 00:00:00 18.63368 C 12.54 g/m*3 18.63 C 7.30625 km/h
1147 11-07-2020 00:00:00 16.57431 C 9.5 g/m*3 16.57 C 5.36806 km/h
1148 12-07-2020 00:00:00 16.85382 C 9.47 g/m*3 16.85 C 4.99965 km/h
1149 13-07-2020 00:00:00 19.08542 C 9.77 g/m*3 19.09 C 3.90694 km/h
1150 14-07-2020 00:00:00 18.66215 C 10.73 g/m*3 18.66 C 4.1316 km/h
Sensor: Nr:Datum:Temp:Abs-Feuchte:Windchill:Wind:
Aussen-T/F 1151 15-07-2020 00:00:00 17.55208 C 10.88 g/m*3 17.55 C 7.17049 km/h
1152 16-07-2020 00:00:00 16.0875 C 12.17 g/m*3 16.09 C 3.15556 km/h
1153 17-07-2020 00:00:00 18.58611 C 12.76 g/m*3 18.59 C 4.21146 km/h
1154 18-07-2020 00:00:00 19.51944 C 12.49 g/m*3 19.52 C 2.44375 km/h
1155 19-07-2020 00:00:00 22.30451 C 12.45 g/m*3 22.3 C 4.27847 km/h
1156 20-07-2020 00:00:00 19.42708 C 11.97 g/m*3 19.43 C 5.98542 km/h
1157 21-07-2020 00:00:00 17.64722 C 9.36 g/m*3 17.65 C 6.82917 km/h
1158 22-07-2020 00:00:00 17.13264 C 9.19 g/m*3 17.13 C 4.72708 km/h
1159 23-07-2020 00:00:00 18.84618 C 9.69 g/m*3 18.85 C 3.73542 km/h
1160 24-07-2020 00:00:00 21.21007 C 10.98 g/m*3 21.21 C 5.5434 km/h
1161 25-07-2020 00:00:00 21.01562 C 12.46 g/m*3 21.02 C 5.85486 km/h
1162 26-07-2020 00:00:00 20.87674 C 12.83 g/m*3 20.88 C 8.55556 km/h
1163 27-07-2020 00:00:00 21.66215 C 12.17 g/m*3 21.66 C 4.14063 km/h
1164 28-07-2020 00:00:00 22.91424 C 11.11 g/m*3 22.91 C 8.9559 km/h
1165 29-07-2020 00:00:00 18.94583 C 10.01 g/m*3 18.95 C 5.47014 km/h
1166 30-07-2020 00:00:00 20.4309 C 10.48 g/m*3 20.43 C 3.57708 km/h
1167 31-07-2020 00:00:00 24.16007 C 11.62 g/m*3 24.16 C 4.00486 km/h
1168 01-08-2020 00:00:00 21.98437 C 15.22 g/m*3 21.98 C 4.02361 km/h
1169 02-08-2020 00:00:00 21.28472 C 13.76 g/m*3 21.28 C 6.21458 km/h
1170 03-08-2020 00:00:00 18.1684 C 11.28 g/m*3 18.17 C 2.92361 km/h
1171 04-08-2020 00:00:00 19.15486 C 10.65 g/m*3 19.15 C 6.45208 km/h
1172 05-08-2020 00:00:00 19.44549 C 10.24 g/m*3 19.45 C 3.93229 km/h
1173 06-08-2020 00:00:00 21.8184 C 11.42 g/m*3 21.82 C 3.88889 km/h
1174 07-08-2020 00:00:00 23.97535 C 12.92 g/m*3 23.98 C 3.60313 km/h
1175 08-08-2020 00:00:00 26.13125 C 14.27 g/m*3 26.13 C 2.67743 km/h
Sensor: Nr:Datum:Temp:Abs-Feuchte:Windchill:Wind:
Aussen-T/F 1176 09-08-2020 00:00:00 24.35937 C 14.79 g/m*3 24.36 C 2.33125 km/h
1177 10-08-2020 00:00:00 25.68472 C 16.31 g/m*3 25.68 C 5.31979 km/h
1178 11-08-2020 00:00:00 25.77396 C 16.38 g/m*3 25.77 C 4.50417 km/h
1179 12-08-2020 00:00:00 23.65799 C 17.61 g/m*3 23.66 C 4.37049 km/h
1180 13-08-2020 00:00:00 23.34201 C 17.36 g/m*3 23.34 C 4.0875 km/h
1181 14-08-2020 00:00:00 23.16285 C 16 g/m*3 23.16 C 4.93507 km/h
1182 15-08-2020 00:00:00 21.83368 C 16.27 g/m*3 21.83 C 1.87465 km/h
1183 16-08-2020 00:00:00 22.52535 C 15.98 g/m*3 22.53 C 4.53715 km/h
1184 17-08-2020 00:00:00 21.08056 C 15.08 g/m*3 21.08 C 5.46771 km/h
1185 18-08-2020 00:00:00 19.08924 C 13.44 g/m*3 19.09 C 5.45035 km/h
1186 19-08-2020 00:00:00 19.13125 C 13.6 g/m*3 19.13 C 2.6 km/h
1187 20-08-2020 00:00:00 23.86042 C 16.77 g/m*3 23.86 C 3.63333 km/h
1188 21-08-2020 00:00:00 25.27743 C 16.68 g/m*3 25.28 C 3.1684 km/h
1189 22-08-2020 00:00:00 22.45625 C 13.37 g/m*3 22.46 C 8.48924 km/h
1190 23-08-2020 00:00:00 19.15764 C 11.48 g/m*3 19.16 C 8.00417 km/h
1191 24-08-2020 00:00:00 18.23437 C 11.11 g/m*3 18.23 C 7.39236 km/h
1192 25-08-2020 00:00:00 19.07917 C 11.78 g/m*3 19.08 C 2.38854 km/h
1193 26-08-2020 00:00:00 20.74132 C 10.59 g/m*3 20.74 C 17.51354 km/h
1194 27-08-2020 00:00:00 18.39271 C 10.85 g/m*3 18.39 C 4.98194 km/h
1195 28-08-2020 00:00:00 17.86667 C 11.89 g/m*3 17.87 C 5.87326 km/h
1196 29-08-2020 00:00:00 16.24479 C 10.69 g/m*3 16.24 C 6.83125 km/h
1197 30-08-2020 00:00:00 15.77153 C 10.79 g/m*3 15.77 C 3.10139 km/h
1198 31-08-2020 00:00:00 15.63437 C 11.83 g/m*3 15.63 C 1.73993 km/h
1199 01-09-2020 00:00:00 15.08889 C 11.37 g/m*3 15.09 C 2.16007 km/h
1200 02-09-2020 00:00:00 15.65833 C 10.57 g/m*3 15.66 C 1.79826 km/h
Sensor: Nr:Datum:Temp:Abs-Feuchte:Windchill:Wind:
Aussen-T/F 1201 03-09-2020 00:00:00 14.23542 C 10.76 g/m*3 14.24 C 2.02188 km/h
1202 04-09-2020 00:00:00 20.30278 C 14.14 g/m*3 20.3 C 2.91528 km/h
1203 05-09-2020 00:00:00 16.89688 C 11.32 g/m*3 16.9 C 5.12153 km/h
1204 06-09-2020 00:00:00 13.28021 C 8.89 g/m*3 13.28 C 1.89306 km/h
1205 07-09-2020 00:00:00 14.01493 C 9.14 g/m*3 14.01 C 1.69861 km/h
1206 08-09-2020 00:00:00 16.29826 C 10.22 g/m*3 16.3 C 3.6691 km/h
1207 09-09-2020 00:00:00 18.26667 C 12.68 g/m*3 18.27 C 2.00243 km/h
1208 10-09-2020 00:00:00 17.81319 C 11.11 g/m*3 17.81 C 4.58264 km/h
1209 11-09-2020 00:00:00 15.1066 C 9.78 g/m*3 15.11 C 1.90382 km/h
1210 12-09-2020 00:00:00 17.20625 C 11.1 g/m*3 17.21 C 2.67917 km/h
1211 13-09-2020 00:00:00 17.20486 C 10.98 g/m*3 17.2 C 1.15799 km/h
1212 14-09-2020 00:00:00 18.81806 C 11.85 g/m*3 18.82 C 1.44514 km/h
1213 15-09-2020 00:00:00 20.38194 C 12.5 g/m*3 20.38 C 1.33438 km/h
1214 16-09-2020 00:00:00 20.67049 C 13.3 g/m*3 20.67 C 2.85139 km/h
1215 17-09-2020 00:00:00 17.93958 C 9.81 g/m*3 17.94 C 7.81493 km/h
1216 18-09-2020 00:00:00 15.74687 C 8.85 g/m*3 15.75 C 5.23993 km/h
1217 19-09-2020 00:00:00 15.73333 C 8.37 g/m*3 15.73 C 3.23229 km/h
1218 20-09-2020 00:00:00 14.83056 C 8.79 g/m*3 14.83 C 0.98333 km/h
1219 21-09-2020 00:00:00 14.75174 C 8.82 g/m*3 14.75 C 1.3875 km/h
1220 22-09-2020 00:00:00 16.10521 C 9.55 g/m*3 16.11 C 2.65486 km/h
1221 23-09-2020 00:00:00 17.57639 C 10.33 g/m*3 17.58 C 4.72743 km/h
1222 24-09-2020 00:00:00 16.23021 C 10.63 g/m*3 16.23 C 6.51458 km/h
1223 25-09-2020 00:00:00 12.16979 C 8.92 g/m*3 12.17 C 6.2375 km/h
1224 26-09-2020 00:00:00 10.52674 C 8.57 g/m*3 9.23 C 10.16528 km/h
1225 27-09-2020 00:00:00 11.00694 C 9.2 g/m*3 11.01 C 3.05417 km/h
Sensor: Nr:Datum:Temp:Abs-Feuchte:Windchill:Wind:
Aussen-T/F 1226 28-09-2020 00:00:00 11.72882 C 9.12 g/m*3 11.73 C 2.08542 km/h
1227 29-09-2020 00:00:00 12.13333 C 10.11 g/m*3 12.13 C 2.01181 km/h
1228 30-09-2020 00:00:00 14.10799 C 11.27 g/m*3 14.11 C 1.49028 km/h
1229 01-10-2020 00:00:00 12.57465 C 10.28 g/m*3 12.57 C 1.79167 km/h
1230 02-10-2020 00:00:00 13.41493 C 10.32 g/m*3 13.41 C 3.99028 km/h
1231 03-10-2020 00:00:00 13.37049 C 10.26 g/m*3 13.37 C 4.70139 km/h
1232 04-10-2020 00:00:00 11.79861 C 9.09 g/m*3 11.8 C 5.03785 km/h
1233 05-10-2020 00:00:00 11.07257 C 9.18 g/m*3 11.07 C 4.18125 km/h
1234 06-10-2020 00:00:00 13.11389 C 10.11 g/m*3 13.11 C 9.72361 km/h
1235 07-10-2020 00:00:00 13.19444 C 9.43 g/m*3 13.19 C 10.52674 km/h
1236 08-10-2020 00:00:00 13.25243 C 10.22 g/m*3 13.25 C 9.92882 km/h
1237 09-10-2020 00:00:00 12.99063 C 10.74 g/m*3 12.99 C 3.04167 km/h
1238 10-10-2020 00:00:00 9.91979 C 8.09 g/m*3 9.53 C 5.46806 km/h
1239 11-10-2020 00:00:00 10.06944 C 7.91 g/m*3 10.07 C 3.7941 km/h
1240 12-10-2020 00:00:00 9.40799 C 8.28 g/m*3 9.41 C 2.21146 km/h
1241 13-10-2020 00:00:00 7.37361 C 7.35 g/m*3 7.37 C 1.675 km/h
1242 14-10-2020 00:00:00 7.7559 C 7.3 g/m*3 7.76 C 3.28819 km/h
1243 15-10-2020 00:00:00 9.09444 C 8.18 g/m*3 9.09 C 2.88958 km/h
1244 16-10-2020 00:00:00 9.26007 C 8.27 g/m*3 9.26 C 1.825 km/h
1245 17-10-2020 00:00:00 6.19618 C 6.87 g/m*3 6.2 C 0.83403 km/h
1246 18-10-2020 00:00:00 8.18958 C 7.58 g/m*3 8.19 C 3.07847 km/h
1247 19-10-2020 00:00:00 8.62604 C 7.89 g/m*3 8.63 C 1.77847 km/h
1248 20-10-2020 00:00:00 8.95714 C 8.23 g/m*3 8.96 C 1.27108 km/h
1249 21-10-2020 00:00:00 15.08611 C 10.6 g/m*3 15.09 C 3.43924 km/h
1250 22-10-2020 00:00:00 16.18681 C 11.86 g/m*3 16.19 C 3.23125 km/h
Sensor: Nr:Datum:Temp:Abs-Feuchte:Windchill:Wind:
Aussen-T/F 1251 23-10-2020 00:00:00 15.0691 C 11.94 g/m*3 15.07 C 1.57049 km/h
1252 24-10-2020 00:00:00 13.40799 C 10.12 g/m*3 13.41 C 5.98194 km/h
1253 25-10-2020 00:00:00 13.16458 C 9.89 g/m*3 13.16 C 2.75104 km/h
1254 26-10-2020 00:00:00 10.20313 C 8.43 g/m*3 10.2 C 3.64583 km/h
1255 27-10-2020 00:00:00 10.44514 C 8.03 g/m*3 10.45 C 4.82604 km/h
1256 28-10-2020 00:00:00 12.59861 C 9.23 g/m*3 12.6 C 6.52049 km/h
1257 29-10-2020 00:00:00 10.65347 C 9 g/m*3 10.04 C 6.76285 km/h
1258 30-10-2020 00:00:00 13.81667 C 10.81 g/m*3 13.82 C 7.83611 km/h
1259 31-10-2020 00:00:00 13.1434 C 9.98 g/m*3 13.14 C 3.45035 km/h
1260 01-11-2020 00:00:00 15.18715 C 11.89 g/m*3 15.19 C 6.08715 km/h
1261 02-11-2020 00:00:00 18.53125 C 12.8 g/m*3 18.53 C 13.2875 km/h
1262 03-11-2020 00:00:00 10.3559 C 8.24 g/m*3 10.11 C 5.15382 km/h
1263 04-11-2020 00:00:00 4.54444 C 6.28 g/m*3 4.54 C 0.86667 km/h
1264 05-11-2020 00:00:00 3.1178 C 5.8 g/m*3 3.12 C 0.73898 km/h
1265 06-11-2020 00:00:00 3.23681 C 5.88 g/m*3 3.24 C 1.18333 km/h
1266 07-11-2020 00:00:00 4.20285 C 6.18 g/m*3 4.2 C 1.19573 km/h
1267 08-11-2020 00:00:00 7.08472 C 7.39 g/m*3 7.08 C 0 km/h
1268 09-11-2020 00:00:00 9.85972 C 8.93 g/m*3 9.86 C 0.26701 km/h
1269 10-11-2020 00:00:00 7.08333 C 7.56 g/m*3 7.08 C 0.01667 km/h
1270 11-11-2020 00:00:00 9.01875 C 8.34 g/m*3 9.02 C 2.23264 km/h
1271 12-11-2020 00:00:00 9.26458 C 8.1 g/m*3 9.26 C 3.0566 km/h
1272 13-11-2020 00:00:00 6.6191 C 7.24 g/m*3 6.62 C 0.48889 km/h
1273 14-11-2020 00:00:00 10.4625 C 9 g/m*3 10.46 C 1.51354 km/h
1274 15-11-2020 00:00:00 13.18819 C 9.92 g/m*3 13.19 C 4.00243 km/h
1275 16-11-2020 00:00:00 10.81736 C 8.52 g/m*3 9.48 C 10.79271 km/h
Sensor: Nr:Datum:Temp:Abs-Feuchte:Windchill:Wind:
Aussen-T/F 1276 17-11-2020 00:00:00 11.47778 C 8.76 g/m*3 11.48 C 8.51979 km/h
1277 18-11-2020 00:00:00 9.90625 C 8.37 g/m*3 9.91 C 1.85 km/h
1278 19-11-2020 00:00:00 8.99688 C 7.8 g/m*3 7.89 C 7.74306 km/h
1279 20-11-2020 00:00:00 4.04167 C 5.9 g/m*3 4.04 C 2.40313 km/h
1280 21-11-2020 00:00:00 3.39688 C 5.47 g/m*3 3.4 C 3.25903 km/h
1281 22-11-2020 00:00:00 7.66701 C 6.84 g/m*3 5.58 C 11.4559 km/h
1282 23-11-2020 00:00:00 7.74201 C 7.38 g/m*3 7.74 C 3.77917 km/h
1283 24-11-2020 00:00:00 6.32917 C 6.81 g/m*3 6.33 C 1.77986 km/h
1284 25-11-2020 00:00:00 4.53125 C 6.15 g/m*3 4.53 C 0.70139 km/h
1285 26-11-2020 00:00:00 3.39653 C 5.79 g/m*3 3.4 C 1.24549 km/h
1286 27-11-2020 00:00:00 3.65278 C 5.83 g/m*3 3.65 C 1.20035 km/h
1287 28-11-2020 00:00:00 3.30521 C 5.6 g/m*3 3.31 C 2.09618 km/h
1288 29-11-2020 00:00:00 0.89479 C 4.42 g/m*3 0.89 C 3.54375 km/h
1289 30-11-2020 00:00:00 -1.56215 C 4.02 g/m*3 -1.56 C 4.05417 km/h
1290 01-12-2020 00:00:00 2.81111 C 5.62 g/m*3 2.81 C 3.11563 km/h
1291 02-12-2020 00:00:00 2.83889 C 5.63 g/m*3 2.84 C 0.50069 km/h
1292 03-12-2020 00:00:00 3.59132 C 5.69 g/m*3 3.59 C 3.66944 km/h
1293 04-12-2020 00:00:00 4.57361 C 6.21 g/m*3 4.57 C 4.0434 km/h
1294 05-12-2020 00:00:00 4.12778 C 6.14 g/m*3 4.13 C 0.80104 km/h
1295 06-12-2020 00:00:00 3.92917 C 6.1 g/m*3 3.93 C 0.6 km/h
1296 07-12-2020 00:00:00 4.18854 C 6.12 g/m*3 4.19 C 2.85451 km/h
1297 08-12-2020 00:00:00 3.36667 C 5.64 g/m*3 3.37 C 1.2316 km/h
1298 09-12-2020 00:00:00 2.17326 C 5.2 g/m*3 2.17 C 2.31875 km/h
1299 10-12-2020 00:00:00 0.38125 C 4.65 g/m*3 0.38 C 0.52222 km/h
1300 11-12-2020 00:00:00 2.71597 C 5.29 g/m*3 2.72 C 3.92118 km/h
Sensor: Nr:Datum:Temp:Abs-Feuchte:Windchill:Wind:
Aussen-T/F 1301 12-12-2020 00:00:00 6.01111 C 6.89 g/m*3 6.01 C 0.17222 km/h
1302 13-12-2020 00:00:00 5.90799 C 6.84 g/m*3 5.91 C 2.30521 km/h
1303 14-12-2020 00:00:00 6.08576 C 6.6 g/m*3 6.09 C 1.23472 km/h
1304 15-12-2020 00:00:00 7.82014 C 7.84 g/m*3 7.82 C 0.87257 km/h
1305 16-12-2020 00:00:00 7.48125 C 7.77 g/m*3 7.48 C 1.33438 km/h
1306 17-12-2020 00:00:00 7.2309 C 7.48 g/m*3 7.23 C 3.21736 km/h
1307 18-12-2020 00:00:00 4.31771 C 6.31 g/m*3 4.32 C 0.91875 km/h
1308 19-12-2020 00:00:00 6.22292 C 6.99 g/m*3 6.22 C 2.33125 km/h
1309 20-12-2020 00:00:00 7.98889 C 7.77 g/m*3 7.99 C 1.88681 km/h
1310 21-12-2020 00:00:00 7.12639 C 7.44 g/m*3 7.13 C 1.81632 km/h
1311 22-12-2020 00:00:00 13.11875 C 10.58 g/m*3 13.12 C 11.07153 km/h
1312 23-12-2020 00:00:00 11.78889 C 10.17 g/m*3 11.79 C 3.35243 km/h
1313 24-12-2020 00:00:00 6.83681 C 6.92 g/m*3 5.18 C 8.46944 km/h
1314 25-12-2020 00:00:00 3.34653 C 5.57 g/m*3 3.35 C 4.76597 km/h
1315 26-12-2020 00:00:00 2.93368 C 5.31 g/m*3 1.57 C 5.40313 km/h
1316 27-12-2020 00:00:00 3.76528 C 5.54 g/m*3 1.83 C 7.48889 km/h
1317 28-12-2020 00:00:00 3.67431 C 5.96 g/m*3 3.67 C 1.42951 km/h
1318 29-12-2020 00:00:00 2.99375 C 5.59 g/m*3 2.99 C 4.11563 km/h
1319 30-12-2020 00:00:00 3.90938 C 5.81 g/m*3 3.91 C 3.58611 km/h
1320 31-12-2020 00:00:00 2.97986 C 5.53 g/m*3 2.98 C 0.83403 km/h
1321 01-01-2021 00:00:00 2.09757 C 5.39 g/m*3 2.1 C 0.48889 km/h
1322 02-01-2021 00:00:00 1.36771 C 5.11 g/m*3 1.37 C 1.04444 km/h
1323 03-01-2021 00:00:00 2.60903 C 5.25 g/m*3 2.61 C 1.92639 km/h
1324 04-01-2021 00:00:00 1.67326 C 5.23 g/m*3 1.67 C 0.16111 km/h
1325 05-01-2021 00:00:00 2.52431 C 5.48 g/m*3 2.52 C 0.38368 km/h
Sensor: Nr:Datum:Temp:Abs-Feuchte:Windchill:Wind:
Aussen-T/F 1326 06-01-2021 00:00:00 2.73333 C 5.49 g/m*3 2.73 C 2.58472 km/h
1327 07-01-2021 00:00:00 2.03368 C 5.13 g/m*3 0.45 C 5.63299 km/h
1328 08-01-2021 00:00:00 1.95556 C 5.27 g/m*3 1.96 C 3.92118 km/h
1329 09-01-2021 00:00:00 1.34271 C 5 g/m*3 1.34 C 0.99063 km/h
1330 10-01-2021 00:00:00 0.68472 C 4.71 g/m*3 0.68 C 0.51667 km/h
1331 11-01-2021 00:00:00 -0.44062 C 4.24 g/m*3 -0.44 C 3.43576 km/h
1332 12-01-2021 00:00:00 3.87847 C 5.74 g/m*3 0.48 C 14.31424 km/h
1333 13-01-2021 00:00:00 2.46875 C 5.1 g/m*3 0.17 C 7.98368 km/h
1334 14-01-2021 00:00:00 2.00556 C 4.78 g/m*3 2.01 C 3.29306 km/h
1335 15-01-2021 00:00:00 0.32431 C 4.31 g/m*3 0.32 C 2.99722 km/h
1336 16-01-2021 00:00:00 0.42812 C 4.13 g/m*3 0.43 C 2.00035 km/h
1337 17-01-2021 00:00:00 0.51181 C 4.78 g/m*3 0.51 C 0.83889 km/h
1338 18-01-2021 00:00:00 3.81701 C 5.75 g/m*3 1.14 C 10.44931 km/h
1339 19-01-2021 00:00:00 5.13611 C 5.81 g/m*3 1.48 C 18.11319 km/h
1340 20-01-2021 00:00:00 6.33056 C 6.06 g/m*3 6.33 C 2.75417 km/h
1341 21-01-2021 00:00:00 8.93368 C 7.12 g/m*3 7.66 C 8.425 km/h
1342 22-01-2021 00:00:00 5.72396 C 6.54 g/m*3 5.72 C 4.93958 km/h
1343 23-01-2021 00:00:00 4.06493 C 5.91 g/m*3 4.06 C 2.17917 km/h
1344 24-01-2021 00:00:00 2.12708 C 5.13 g/m*3 -0.06 C 7.40764 km/h
1345 25-01-2021 00:00:00 1.33611 C 4.95 g/m*3 1.34 C 3.10799 km/h
1346 26-01-2021 00:00:00 3.28854 C 5.12 g/m*3 0.08 C 12.50764 km/h
1347 27-01-2021 00:00:00 2.29201 C 5.26 g/m*3 0.33 C 6.80069 km/h
1348 28-01-2021 00:00:00 7.12014 C 7.32 g/m*3 5.58 C 8.17292 km/h
1349 29-01-2021 00:00:00 8.84861 C 7.84 g/m*3 7.37 C 9.37882 km/h
1350 30-01-2021 00:00:00 4.08715 C 5.94 g/m*3 2.71 C 5.89028 km/h
Sensor: Nr:Datum:Temp:Abs-Feuchte:Windchill:Wind:
Aussen-T/F 1351 31-01-2021 00:00:00 1.01563 C 4.75 g/m*3 1.02 C 3.0691 km/h
1352 01-02-2021 00:00:00 3.89132 C 6.09 g/m*3 3.89 C 0.50556 km/h
1353 02-02-2021 00:00:00 7.66319 C 7.66 g/m*3 7.66 C 4.7059 km/h
1354 03-02-2021 00:00:00 9.71944 C 8.69 g/m*3 8.81 C 7.37257 km/h
1355 04-02-2021 00:00:00 6.63229 C 6.74 g/m*3 5.49 C 6.36007 km/h
1356 05-02-2021 00:00:00 6.42708 C 7.17 g/m*3 6.43 C 0.39444 km/h
1357 06-02-2021 00:00:00 5.10799 C 6.57 g/m*3 5.11 C 4.53368 km/h
1358 07-02-2021 00:00:00 1.10556 C 4.97 g/m*3 -1.05 C 6.80382 km/h
1359 08-02-2021 00:00:00 -3.50382 C 3.33 g/m*3 -6.19 C 6.30174 km/h
1360 09-02-2021 00:00:00 -4.71007 C 2.78 g/m*3 -4.71 C 4.2184 km/h
1361 10-02-2021 00:00:00 -5.63507 C 2.57 g/m*3 -8.41 C 5.80521 km/h
1362 11-02-2021 00:00:00 -3.28646 C 3.22 g/m*3 -3.29 C 2.92708 km/h
1363 12-02-2021 00:00:00 -4.72708 C 2.76 g/m*3 -7.18 C 5.43333 km/h
1364 13-02-2021 00:00:00 -5.43715 C 2.6 g/m*3 -5.44 C 4.15972 km/h
1365 14-02-2021 00:00:00 -3.78299 C 2.97 g/m*3 -3.78 C 3.77639 km/h
1366 15-02-2021 00:00:00 0.83194 C 4.03 g/m*3 0.83 C 3.01076 km/h
1367 16-02-2021 00:00:00 5.64757 C 6.68 g/m*3 5.65 C 2.22083 km/h
1368 17-02-2021 00:00:00 7.15451 C 7.09 g/m*3 6.09 C 6.37882 km/h
1369 18-02-2021 00:00:00 4.16806 C 5.98 g/m*3 4.17 C 1.98299 km/h
1370 19-02-2021 00:00:00 6.25486 C 6.54 g/m*3 6.25 C 3.35313 km/h
1371 20-02-2021 00:00:00 6.97083 C 6.8 g/m*3 6.97 C 2.57396 km/h
1372 21-02-2021 00:00:00 7.73056 C 6.69 g/m*3 7.73 C 2.58576 km/h
1373 22-02-2021 00:00:00 6.65069 C 6.65 g/m*3 6.65 C 0.62222 km/h
1374 23-02-2021 00:00:00 11.51076 C 8.49 g/m*3 11.51 C 2.42118 km/h
1375 24-02-2021 00:00:00 10.01771 C 8.19 g/m*3 10.02 C 0.61875 km/h
Sensor: Nr:Datum:Temp:Abs-Feuchte:Windchill:Wind:
Aussen-T/F 1376 25-02-2021 00:00:00 9.55417 C 7.4 g/m*3 9.55 C 1.55729 km/h
1377 26-02-2021 00:00:00 7.00972 C 6.81 g/m*3 7.01 C 3.14549 km/h
1378 27-02-2021 00:00:00 4.3559 C 5.65 g/m*3 4.36 C 2.49097 km/h
1379 28-02-2021 00:00:00 5.84236 C 5.47 g/m*3 5.84 C 3.60833 km/h
1380 01-03-2021 00:00:00 4.21632 C 5.4 g/m*3 4.22 C 2.37847 km/h
1381 02-03-2021 00:00:00 5.65937 C 5.96 g/m*3 5.66 C 1.23507 km/h
1382 03-03-2021 00:00:00 6.83889 C 6.33 g/m*3 6.84 C 0.12257 km/h
1383 04-03-2021 00:00:00 6.55764 C 6.74 g/m*3 6.56 C 3.55313 km/h
1384 05-03-2021 00:00:00 3.77535 C 4.98 g/m*3 2.49 C 5.53229 km/h
1385 06-03-2021 00:00:00 0.57465 C 3.84 g/m*3 0.57 C 2.44063 km/h
1386 07-03-2021 00:00:00 0.7691 C 3.86 g/m*3 0.77 C 2.72396 km/h
1387 08-03-2021 00:00:00 1.04618 C 4.49 g/m*3 1.05 C 1.37882 km/h
1388 09-03-2021 00:00:00 3.11875 C 5.52 g/m*3 3.12 C 3.20972 km/h
1389 10-03-2021 00:00:00 6.84306 C 6.46 g/m*3 6.84 C 4.01632 km/h
1390 11-03-2021 00:00:00 9.20314 C 7.48 g/m*3 6.86 C 15.55366 km/h
1391 12-03-2021 00:00:00 7.43993 C 6.26 g/m*3 4.47 C 17.16042 km/h
1392 13-03-2021 00:00:00 7.28785 C 6.56 g/m*3 4.45 C 15.90972 km/h
1393 14-03-2021 00:00:00 5.28681 C 6.04 g/m*3 3.05 C 9.75208 km/h
1394 15-03-2021 00:00:00 5.93368 C 6.34 g/m*3 3.58 C 10.97049 km/h
1395 16-03-2021 00:00:00 5.88194 C 6.21 g/m*3 4.47 C 6.89375 km/h
1396 17-03-2021 00:00:00 4.87465 C 5.76 g/m*3 3.68 C 5.70139 km/h
1397 18-03-2021 00:00:00 3.22188 C 5.22 g/m*3 3.22 C 2.85868 km/h
1398 19-03-2021 00:00:00 3.84687 C 4.87 g/m*3 1.93 C 7.48194 km/h
1399 20-03-2021 00:00:00 3.32257 C 4.42 g/m*3 3.32 C 3.30972 km/h
1400 21-03-2021 00:00:00 6.1125 C 5.79 g/m*3 4.38 C 8.22882 km/h
Sensor: Nr:Datum:Temp:Abs-Feuchte:Windchill:Wind:
Aussen-T/F 1401 22-03-2021 00:00:00 5.83993 C 5.87 g/m*3 4.54 C 6.48854 km/h
1402 23-03-2021 00:00:00 6.76528 C 5.9 g/m*3 6.77 C 3.50764 km/h
1403 24-03-2021 00:00:00 7.14167 C 5.95 g/m*3 7.14 C 4.22708 km/h
1404 25-03-2021 00:00:00 8.49722 C 6.82 g/m*3 8.5 C 3.22431 km/h
1405 26-03-2021 00:00:00 9.88403 C 7.14 g/m*3 9.88 C 4.49097 km/h
1406 27-03-2021 00:00:00 7.20521 C 6.21 g/m*3 4.85 C 12.49097 km/h
1407 28-03-2021 00:00:00 9.55036 C 6.58 g/m*3 8.36 C 8.58261 km/h
1408 29-03-2021 00:00:00 11.67292 C 6.87 g/m*3 11.67 C 4.90069 km/h
1409 30-03-2021 00:00:00 11.68646 C 6.84 g/m*3 11.69 C 2.11215 km/h
1410 31-03-2021 00:00:00 13.42674 C 7.38 g/m*3 13.43 C 2.87361 km/h
1411 01-04-2021 00:00:00 13.89479 C 8 g/m*3 13.89 C 5.97882 km/h
1412 02-04-2021 00:00:00 7.69549 C 5.85 g/m*3 6.16 C 8.63021 km/h
1413 03-04-2021 00:00:00 8.11632 C 5.29 g/m*3 6.65 C 8.66354 km/h
1414 04-04-2021 00:00:00 5.18472 C 5.34 g/m*3 5.18 C 4.87118 km/h
1415 05-04-2021 00:00:00 3.5066 C 5.08 g/m*3 0.64 C 11.04618 km/h
1416 06-04-2021 00:00:00 3.10833 C 4.54 g/m*3 -0.12 C 12.41181 km/h
1417 07-04-2021 00:00:00 2.56146 C 4.68 g/m*3 -0.72 C 12.11146 km/h
1418 08-04-2021 00:00:00 5.13542 C 4.48 g/m*3 3.33 C 7.87361 km/h
1419 09-04-2021 00:00:00 7.67569 C 5.32 g/m*3 7.02 C 5.28299 km/h
1420 10-04-2021 00:00:00 9.22222 C 8.4 g/m*3 9.22 C 1.18403 km/h
1421 11-04-2021 00:00:00 6.60278 C 7.19 g/m*3 6.6 C 4.95972 km/h
1422 12-04-2021 00:00:00 4.1684 C 5.57 g/m*3 4.17 C 4.32639 km/h
1423 13-04-2021 00:00:00 3.34167 C 4.98 g/m*3 3.34 C 3.61632 km/h
1424 14-04-2021 00:00:00 3.12951 C 4.75 g/m*3 3.13 C 3.88542 km/h
1425 15-04-2021 00:00:00 3.68819 C 5.09 g/m*3 3.69 C 3.12118 km/h
Sensor: Nr:Datum:Temp:Abs-Feuchte:Windchill:Wind:
Aussen-T/F 1426 16-04-2021 00:00:00 5.33542 C 5.22 g/m*3 5.34 C 3.51285 km/h
1427 17-04-2021 00:00:00 7.09653 C 5.49 g/m*3 6.17 C 5.88438 km/h
1428 18-04-2021 00:00:00 8.96424 C 6.75 g/m*3 8.96 C 2.73646 km/h
1429 19-04-2021 00:00:00 10.27361 C 7.94 g/m*3 10.27 C 2.30833 km/h
1430 20-04-2021 00:00:00 9.49931 C 7 g/m*3 9.5 C 1.27014 km/h
1431 21-04-2021 00:00:00 10.74375 C 7.19 g/m*3 10.74 C 4.1559 km/h
1432 22-04-2021 00:00:00 8.7816 C 5.49 g/m*3 7.62 C 7.78299 km/h
1433 23-04-2021 00:00:00 8.16632 C 5.66 g/m*3 8.17 C 3.86354 km/h
1434 24-04-2021 00:00:00 9.06042 C 5.94 g/m*3 9.06 C 4.74271 km/h
1435 25-04-2021 00:00:00 8.31076 C 5.47 g/m*3 7.66 C 5.55833 km/h
1436 26-04-2021 00:00:00 8.13646 C 4.8 g/m*3 7.29 C 6.14479 km/h
1437 27-04-2021 00:00:00 10.01632 C 4.89 g/m*3 9.49 C 6.01563 km/h
1438 28-04-2021 00:00:00 11.48438 C 6.33 g/m*3 11.48 C 4.43889 km/h
1439 29-04-2021 00:00:00 11.84201 C 7.06 g/m*3 11.84 C 12.02014 km/h
1440 30-04-2021 00:00:00 8.08681 C 6.14 g/m*3 8.09 C 3.95208 km/h
1441 01-05-2021 00:00:00 10.12083 C 6.33 g/m*3 9.78 C 5.36493 km/h
1442 02-05-2021 00:00:00 8.56319 C 5.79 g/m*3 7.66 C 6.59236 km/h
1443 03-05-2021 00:00:00 8.08958 C 5.62 g/m*3 7.18 C 6.33889 km/h
1444 04-05-2021 00:00:00 11.0875 C 7.2 g/m*3 11.09 C 14.54444 km/h
1445 05-05-2021 00:00:00 7.64479 C 6.14 g/m*3 5.69 C 10.66319 km/h
1446 06-05-2021 00:00:00 7.87813 C 6.69 g/m*3 7.06 C 5.91215 km/h
1447 07-05-2021 00:00:00 7.66736 C 6.41 g/m*3 6.56 C 6.81389 km/h
1448 08-05-2021 00:00:00 9.96632 C 6.83 g/m*3 9.97 C 3.73576 km/h
1449 09-05-2021 00:00:00 18.04653 C 10.08 g/m*3 18.05 C 6.30035 km/h
1450 10-05-2021 00:00:00 17.83646 C 10.87 g/m*3 17.84 C 6.72951 km/h
Sensor: Nr:Datum:Temp:Abs-Feuchte:Windchill:Wind:
Aussen-T/F 1451 11-05-2021 00:00:00 13.64132 C 11.16 g/m*3 13.64 C 1.67361 km/h
1452 12-05-2021 00:00:00 14.16042 C 9.77 g/m*3 14.16 C 4.97743 km/h
1453 13-05-2021 00:00:00 12.7441 C 8.61 g/m*3 12.74 C 3.80833 km/h
1454 14-05-2021 00:00:00 13.14375 C 8.5 g/m*3 13.14 C 5.64861 km/h
1455 15-05-2021 00:00:00 11.39861 C 8.97 g/m*3 11.4 C 4.22743 km/h
1456 16-05-2021 00:00:00 11.40799 C 9.1 g/m*3 11.41 C 5.60833 km/h
1457 17-05-2021 00:00:00 12.12326 C 9.24 g/m*3 12.12 C 8.30243 km/h
1458 18-05-2021 00:00:00 10.75243 C 8.92 g/m*3 10.32 C 6.07847 km/h
1459 19-05-2021 00:00:00 10.85243 C 8.61 g/m*3 10.32 C 6.54931 km/h
1460 20-05-2021 00:00:00 12.43264 C 8.89 g/m*3 12.43 C 4.62257 km/h
1461 21-05-2021 00:00:00 14.13958 C 8.32 g/m*3 14.14 C 10.73333 km/h
1462 22-05-2021 00:00:00 11.75903 C 8.3 g/m*3 11.76 C 13.07014 km/h
1463 23-05-2021 00:00:00 11.90069 C 8.03 g/m*3 11.9 C 9.21458 km/h
1464 24-05-2021 00:00:00 11.46944 C 8.48 g/m*3 11.47 C 5.73194 km/h
1465 25-05-2021 00:00:00 10.36424 C 8.17 g/m*3 8.79 C 11.73924 km/h
1466 26-05-2021 00:00:00 10.95312 C 8.88 g/m*3 10.33 C 7.02257 km/h
1467 27-05-2021 00:00:00 11.44896 C 8.99 g/m*3 11.45 C 7.41076 km/h
1468 28-05-2021 00:00:00 13.48993 C 8.99 g/m*3 13.49 C 3.70486 km/h
1469 29-05-2021 00:00:00 13.71181 C 8.47 g/m*3 13.71 C 5.0309 km/h
1470 30-05-2021 00:00:00 14.68611 C 8.45 g/m*3 14.69 C 6.49792 km/h
1471 31-05-2021 00:00:00 16.09722 C 9.03 g/m*3 16.1 C 5.125 km/h
1472 01-06-2021 00:00:00 16.74132 C 9.13 g/m*3 16.74 C 5.05243 km/h
1473 02-06-2021 00:00:00 18.31146 C 10.09 g/m*3 18.31 C 4.86701 km/h
1474 03-06-2021 00:00:00 19.31597 C 14.06 g/m*3 19.32 C 2.38819 km/h
1475 04-06-2021 00:00:00 19.49097 C 15.22 g/m*3 19.49 C 2.20417 km/h
Sensor: Nr:Datum:Temp:Abs-Feuchte:Windchill:Wind:
Aussen-T/F 1476 05-06-2021 00:00:00 17.62465 C 13.72 g/m*3 17.62 C 3.38785 km/h
1477 06-06-2021 00:00:00 15.63021 C 12.13 g/m*3 15.63 C 5.57743 km/h
1478 07-06-2021 00:00:00 17.37188 C 13.22 g/m*3 17.37 C 2.78576 km/h
1479 08-06-2021 00:00:00 18.99167 C 13.34 g/m*3 18.99 C 2.50938 km/h
1480 09-06-2021 00:00:00 19.75347 C 13.08 g/m*3 19.75 C 3.59861 km/h
1481 10-06-2021 00:00:00 20.5309 C 12.66 g/m*3 20.53 C 3.97743 km/h
1482 11-06-2021 00:00:00 20.7809 C 13.27 g/m*3 20.78 C 3.30625 km/h
1483 12-06-2021 00:00:00 19.39167 C 12.75 g/m*3 19.39 C 6.87049 km/h
1484 13-06-2021 00:00:00 17.70799 C 9.99 g/m*3 17.71 C 4.7559 km/h
1485 14-06-2021 00:00:00 19.1125 C 11.29 g/m*3 19.11 C 2.72743 km/h
1486 15-06-2021 00:00:00 21.18333 C 13.27 g/m*3 21.18 C 3.97917 km/h
1487 16-06-2021 00:00:00 23.67361 C 14.87 g/m*3 23.67 C 4.09479 km/h
1488 17-06-2021 00:00:00 24.79931 C 16.38 g/m*3 24.8 C 3.51771 km/h
1489 18-06-2021 00:00:00 25.62431 C 17.6 g/m*3 25.62 C 2.94653 km/h
1490 19-06-2021 00:00:00 24.69757 C 16.26 g/m*3 24.7 C 3.33819 km/h
1491 20-06-2021 00:00:00 22.50486 C 16.31 g/m*3 22.5 C 6.64653 km/h
1492 21-06-2021 00:00:00 20.09757 C 14.31 g/m*3 20.1 C 9.32604 km/h
1493 22-06-2021 00:00:00 15.5941 C 12.34 g/m*3 15.59 C 1.92292 km/h
1494 23-06-2021 00:00:00 17.93021 C 13.31 g/m*3 17.93 C 4.35833 km/h
1495 24-06-2021 00:00:00 17.02604 C 13.28 g/m*3 17.03 C 1.94688 km/h
1496 25-06-2021 00:00:00 18.32326 C 12.63 g/m*3 18.32 C 4.44063 km/h
1497 26-06-2021 00:00:00 18.14583 C 12.05 g/m*3 18.15 C 2.1684 km/h
1498 27-06-2021 00:00:00 20.21875 C 14.32 g/m*3 20.22 C 2.91389 km/h
1499 28-06-2021 00:00:00 20.21285 C 15.5 g/m*3 20.21 C 2.91215 km/h
1500 29-06-2021 00:00:00 18.4441 C 14.44 g/m*3 18.44 C 4.45243 km/h
Sensor: Nr:Datum:Temp:Abs-Feuchte:Windchill:Wind:
Aussen-T/F 1501 30-06-2021 00:00:00 16.35764 C 12.76 g/m*3 16.36 C 4.95208 km/h
1502 01-07-2021 00:00:00 15.16146 C 11.47 g/m*3 15.16 C 4.44306 km/h
1503 02-07-2021 00:00:00 17.66597 C 12.06 g/m*3 17.67 C 3.21389 km/h
1504 03-07-2021 00:00:00 18.65035 C 13.3 g/m*3 18.65 C 1.77847 km/h
1505 04-07-2021 00:00:00 18.04479 C 14.21 g/m*3 18.04 C 2.08889 km/h
1506 05-07-2021 00:00:00 17.35104 C 13.64 g/m*3 17.35 C 2.06736 km/h
1507 06-07-2021 00:00:00 17.76562 C 13.99 g/m*3 17.77 C 3.45174 km/h
1508 07-07-2021 00:00:00 18.26319 C 13.29 g/m*3 18.26 C 2.64236 km/h
1509 08-07-2021 00:00:00 16.6816 C 13.14 g/m*3 16.68 C 1.46389 km/h
1510 09-07-2021 00:00:00 17.82292 C 13.68 g/m*3 17.82 C 3.13333 km/h
1511 10-07-2021 00:00:00 18.66944 C 13.82 g/m*3 18.67 C 2.32604 km/h
1512 11-07-2021 00:00:00 18.2066 C 13.98 g/m*3 18.21 C 1.57083 km/h
1513 12-07-2021 00:00:00 18.59028 C 14.16 g/m*3 18.59 C 1.65833 km/h
1514 13-07-2021 00:00:00 18.75347 C 15.08 g/m*3 18.75 C 1.39097 km/h
1515 14-07-2021 00:00:00 16.93438 C 13.81 g/m*3 16.93 C 2.84722 km/h
1516 15-07-2021 00:00:00 19.04028 C 14.41 g/m*3 19.04 C 2.32882 km/h
1517 16-07-2021 00:00:00 18.48299 C 14.12 g/m*3 18.48 C 5.37014 km/h
1518 17-07-2021 00:00:00 19.88681 C 14.39 g/m*3 19.89 C 5.26458 km/h
1519 18-07-2021 00:00:00 20.82257 C 14.23 g/m*3 20.82 C 6.69063 km/h
1520 19-07-2021 00:00:00 18.94792 C 13.09 g/m*3 18.95 C 5.35521 km/h
1521 20-07-2021 00:00:00 17.74097 C 11.78 g/m*3 17.74 C 3.68924 km/h
1522 21-07-2021 00:00:00 18.1066 C 11.55 g/m*3 18.11 C 3.13924 km/h
1523 22-07-2021 00:00:00 18.83368 C 12.67 g/m*3 18.83 C 1.57083 km/h
1524 23-07-2021 00:00:00 20.0434 C 13.41 g/m*3 20.04 C 2.2809 km/h
1525 24-07-2021 00:00:00 18.05556 C 14.22 g/m*3 18.06 C 1.81597 km/h
Sensor: Nr:Datum:Temp:Abs-Feuchte:Windchill:Wind:
Aussen-T/F 1526 25-07-2021 00:00:00 19.12254 C 14.63 g/m*3 19.12 C 3.21373 km/h
1527 26-07-2021 00:00:00 19.75139 C 14.08 g/m*3 19.75 C 5.21181 km/h
1528 27-07-2021 00:00:00 18.37014 C 13.79 g/m*3 18.37 C 3.20313 km/h
1529 28-07-2021 00:00:00 18.33924 C 13.37 g/m*3 18.34 C 6.67326 km/h
1530 29-07-2021 00:00:00 18.12465 C 11.91 g/m*3 18.12 C 7.2559 km/h
1531 30-07-2021 00:00:00 18.71042 C 12.1 g/m*3 18.71 C 6.20035 km/h
1532 31-07-2021 00:00:00 18.27676 C 11.33 g/m*3 18.28 C 9.38556 km/h
1533 01-08-2021 00:00:00 17.03264 C 11.96 g/m*3 17.03 C 5.34028 km/h
1534 02-08-2021 00:00:00 15.90278 C 12.39 g/m*3 15.9 C 3.55347 km/h
1535 03-08-2021 00:00:00 16.08889 C 12.52 g/m*3 16.09 C 2.00139 km/h
1536 04-08-2021 00:00:00 16.26181 C 12.55 g/m*3 16.26 C 1.64618 km/h
1537 05-08-2021 00:00:00 17.575 C 13.18 g/m*3 17.58 C 1.77361 km/h
1538 06-08-2021 00:00:00 18.07951 C 13.14 g/m*3 18.08 C 6.92743 km/h
1539 07-08-2021 00:00:00 17.24306 C 12.51 g/m*3 17.24 C 2.12986 km/h
1540 08-08-2021 00:00:00 16.03063 C 11.87 g/m*3 16.03 C 6.99373 km/h
1541 09-08-2021 00:00:00 15.70461 C 11.41 g/m*3 15.7 C 3.17834 km/h
1542 10-08-2021 00:00:00 17.57666 C 12.63 g/m*3 17.58 C 4.76272 km/h
1543 11-08-2021 00:00:00 18.75245 C 13.7 g/m*3 18.75 C 0.79545 km/h
1544 12-08-2021 00:00:00 20.1691 C 14.6 g/m*3 20.17 C 1.32153 km/h
1545 13-08-2021 00:00:00 20.75729 C 15.18 g/m*3 20.76 C 2.97083 km/h
1546 14-08-2021 00:00:00 19.68056 C 14.17 g/m*3 19.68 C 2.80625 km/h
1547 15-08-2021 00:00:00 18.95486 C 13.82 g/m*3 18.95 C 1.39826 km/h
1548 16-08-2021 00:00:00 16.7316 C 11.99 g/m*3 16.73 C 8.29201 km/h
1549 17-08-2021 00:00:00 13.51285 C 10.47 g/m*3 13.51 C 7.6434 km/h
1550 18-08-2021 00:00:00 16.68368 C 12.84 g/m*3 16.68 C 5.44896 km/h
Sensor: Nr:Datum:Temp:Abs-Feuchte:Windchill:Wind:
Aussen-T/F 1551 19-08-2021 00:00:00 18.23472 C 13.36 g/m*3 18.23 C 6.95833 km/h
1552 20-08-2021 00:00:00 17.56042 C 13.02 g/m*3 17.56 C 2.08472 km/h
1553 21-08-2021 00:00:00 18.3684 C 13.73 g/m*3 18.37 C 1.52847 km/h
1554 22-08-2021 00:00:00 18.26146 C 14.09 g/m*3 18.26 C 4.12014 km/h
1555 23-08-2021 00:00:00 17.50521 C 13.23 g/m*3 17.51 C 2.96111 km/h
1556 24-08-2021 00:00:00 15.66146 C 11.14 g/m*3 15.66 C 3.90313 km/h
1557 25-08-2021 00:00:00 15.02708 C 10.55 g/m*3 15.03 C 1.83333 km/h
1558 26-08-2021 00:00:00 16.40174 C 11.39 g/m*3 16.4 C 6.78056 km/h
1559 27-08-2021 00:00:00 14.92917 C 11.24 g/m*3 14.93 C 5.78715 km/h
1560 28-08-2021 00:00:00 15.44653 C 12.35 g/m*3 15.45 C 1.7809 km/h
1561 29-08-2021 00:00:00 15.32778 C 12.24 g/m*3 15.33 C 5.13889 km/h
1562 30-08-2021 00:00:00 17.17202 C 12.79 g/m*3 17.17 C 4.32294 km/h
1563 31-08-2021 00:00:00 15.90451 C 11.81 g/m*3 15.9 C 4.22708 km/h
1564 01-09-2021 00:00:00 15.32292 C 11.29 g/m*3 15.32 C 2.77882 km/h
1565 02-09-2021 00:00:00 15.57326 C 11.45 g/m*3 15.57 C 2.15972 km/h
1566 03-09-2021 00:00:00 15.62043 C 11.47 g/m*3 15.62 C 1.29574 km/h
1567 04-09-2021 00:00:00 16.59444 C 12.1 g/m*3 16.59 C 1.47535 km/h
1568 05-09-2021 00:00:00 16.91007 C 12.65 g/m*3 16.91 C 0.80069 km/h
1569 06-09-2021 00:00:00 17.19123 C 12.79 g/m*3 17.19 C 1.01754 km/h
1570 07-09-2021 00:00:00 17.42293 C 12.77 g/m*3 17.42 C 0.62556 km/h
1571 08-09-2021 00:00:00 17.4852 C 12.38 g/m*3 17.49 C 1.72347 km/h
1572 09-09-2021 00:00:00 18.16224 C 13.65 g/m*3 18.16 C 2.72517 km/h
1573 10-09-2021 00:00:00 20.31875 C 15.55 g/m*3 20.32 C 3.35139 km/h
1574 11-09-2021 00:00:00 18.95243 C 14.07 g/m*3 18.95 C 1.82674 km/h
1575 12-09-2021 00:00:00 16.74271 C 11.85 g/m*3 16.74 C 2.36979 km/h
Sensor: Nr:Datum:Temp:Abs-Feuchte:Windchill:Wind:
Aussen-T/F 1576 13-09-2021 00:00:00 14.9375 C 11.26 g/m*3 14.94 C 0.90069 km/h
1577 14-09-2021 00:00:00 16.50764 C 13.03 g/m*3 16.51 C 0.66111 km/h
1578 15-09-2021 00:00:00 19.16389 C 15.39 g/m*3 19.16 C 2.25938 km/h
1579 16-09-2021 00:00:00 16.22812 C 12.2 g/m*3 16.23 C 3.74896 km/h
1580 17-09-2021 00:00:00 14.5809 C 11.23 g/m*3 14.58 C 0.69549 km/h
1581 18-09-2021 00:00:00 14.56979 C 11.26 g/m*3 14.57 C 0.18889 km/h
1582 19-09-2021 00:00:00 13.99062 C 10.48 g/m*3 13.99 C 2.46319 km/h
1583 20-09-2021 00:00:00 13.42153 C 9.74 g/m*3 13.42 C 2.05347 km/h
1584 21-09-2021 00:00:00 12.21701 C 8.63 g/m*3 12.22 C 1.90556 km/h
1585 22-09-2021 00:00:00 11.0684 C 9 g/m*3 11.07 C 0.24444 km/h
1586 23-09-2021 00:00:00 13.46458 C 9.81 g/m*3 13.46 C 3.08611 km/h
1587 24-09-2021 00:00:00 15.75139 C 11.46 g/m*3 15.75 C 5.2 km/h
1588 25-09-2021 00:00:00 14.55035 C 11.21 g/m*3 14.55 C 0.02778 km/h
1589 26-09-2021 00:00:00 16.16667 C 12.73 g/m*3 16.17 C 1.00764 km/h
1590 27-09-2021 00:00:00 16.01493 C 12.56 g/m*3 16.01 C 1.86146 km/h
1591 28-09-2021 00:00:00 12.70486 C 10.13 g/m*3 12.7 C 2.32951 km/h
1592 29-09-2021 00:00:00 11.46528 C 9.04 g/m*3 11.47 C 5.54514 km/h
1593 30-09-2021 00:00:00 10.65104 C 8.33 g/m*3 10.24 C 5.93819 km/h
1594 01-10-2021 00:00:00 11.02917 C 8.66 g/m*3 11.03 C 2.28993 km/h
1595 02-10-2021 00:00:00 15.01458 C 11.2 g/m*3 15.01 C 2.77188 km/h
1596 03-10-2021 00:00:00 18.50799 C 12.03 g/m*3 18.51 C 7.05417 km/h
1597 04-10-2021 00:00:00 13.61597 C 9.94 g/m*3 13.62 C 2.47778 km/h
1598 05-10-2021 00:00:00 12.23056 C 9.63 g/m*3 12.23 C 2.73542 km/h
1599 06-10-2021 00:00:00 11.90382 C 9.14 g/m*3 11.9 C 9.46736 km/h
1600 07-10-2021 00:00:00 12.24826 C 9.75 g/m*3 12.25 C 2.25278 km/h
Sensor: Nr:Datum:Temp:Abs-Feuchte:Windchill:Wind:
Aussen-T/F 1601 08-10-2021 00:00:00 10.55104 C 8.99 g/m*3 10.55 C 1.36563 km/h
1602 09-10-2021 00:00:00 9.57049 C 8.41 g/m*3 9.57 C 1.41181 km/h
1603 10-10-2021 00:00:00 7.3184 C 7.33 g/m*3 7.32 C 1.06736 km/h
1604 11-10-2021 00:00:00 8.84479 C 7.95 g/m*3 8.84 C 2.35417 km/h
1605 12-10-2021 00:00:00 10.04271 C 9 g/m*3 10.04 C 2.00382 km/h
1606 13-10-2021 00:00:00 8.32569 C 7.99 g/m*3 8.33 C 2.06319 km/h
1607 14-10-2021 00:00:00 10.88194 C 9.12 g/m*3 10.88 C 4.49896 km/h
1608 15-10-2021 00:00:00 9.27708 C 8.37 g/m*3 9.28 C 4.56597 km/h
1609 16-10-2021 00:00:00 7.72118 C 7.86 g/m*3 7.72 C 1.28368 km/h
1610 17-10-2021 00:00:00 9.33681 C 8.28 g/m*3 9.34 C 0.84132 km/h
1611 18-10-2021 00:00:00 7.59896 C 7.52 g/m*3 7.6 C 1.41563 km/h
1612 19-10-2021 00:00:00 11.75903 C 10.07 g/m*3 11.76 C 2.4184 km/h
1613 20-10-2021 00:00:00 13.41528 C 10.99 g/m*3 13.42 C 3.45556 km/h
1614 21-10-2021 00:00:00 11.72882 C 8.86 g/m*3 11.73 C 15.61458 km/h
1615 22-10-2021 00:00:00 7.64946 C 6.94 g/m*3 5.92 C 9.49713 km/h
1616 23-10-2021 00:00:00 8.12431 C 7.68 g/m*3 8.12 C 0.82778 km/h
1617 24-10-2021 00:00:00 5.46007 C 6.56 g/m*3 5.46 C 1.0684 km/h
1618 25-10-2021 00:00:00 6.09063 C 7.01 g/m*3 6.09 C 1.26597 km/h
1619 26-10-2021 00:00:00 11.92049 C 9.22 g/m*3 11.92 C 8.95313 km/h
1620 27-10-2021 00:00:00 12.22986 C 9.65 g/m*3 12.23 C 6.11736 km/h
1621 28-10-2021 00:00:00 8.55139 C 8.09 g/m*3 8.55 C 2.53611 km/h
1622 29-10-2021 00:00:00 8.21389 C 7.83 g/m*3 8.21 C 1.06354 km/h
1623 30-10-2021 00:00:00 9.46285 C 8.52 g/m*3 9.46 C 1.775 km/h
1624 31-10-2021 00:00:00 13.42361 C 10.8 g/m*3 13.42 C 2.30347 km/h
1625 01-11-2021 00:00:00 9.80764 C 8.42 g/m*3 9.81 C 4.00313 km/h
Sensor: Nr:Datum:Temp:Abs-Feuchte:Windchill:Wind:
Aussen-T/F 1626 02-11-2021 00:00:00 7.40556 C 7.56 g/m*3 7.41 C 1.99201 km/h
1627 03-11-2021 00:00:00 7.15833 C 7.57 g/m*3 7.16 C 0.95382 km/h
1628 04-11-2021 00:00:00 7.47153 C 7.58 g/m*3 7.47 C 4.87188 km/h
1629 05-11-2021 00:00:00 7.72639 C 7.69 g/m*3 7.73 C 1.42222 km/h
1630 06-11-2021 00:00:00 7.21007 C 7.23 g/m*3 6.25 C 6.05069 km/h
1631 07-11-2021 00:00:00 8.28576 C 7.31 g/m*3 6.01 C 13.46563 km/h
1632 08-11-2021 00:00:00 7.43125 C 7.36 g/m*3 7.43 C 1.85625 km/h
1633 09-11-2021 00:00:00 4.94965 C 6.45 g/m*3 4.95 C 0.69444 km/h
1634 10-11-2021 00:00:00 1.52188 C 5.19 g/m*3 1.52 C 0.42778 km/h
1635 11-11-2021 00:00:00 2.06285 C 5.42 g/m*3 2.06 C 1.17222 km/h
1636 12-11-2021 00:00:00 2.05104 C 5.4 g/m*3 2.05 C 1.7066 km/h
1637 13-11-2021 00:00:00 6.30139 C 7.18 g/m*3 6.3 C 0.48958 km/h
1638 14-11-2021 00:00:00 8.13194 C 8.01 g/m*3 8.13 C 1.26007 km/h
1639 15-11-2021 00:00:00 7.29306 C 7.32 g/m*3 7.29 C 2.57569 km/h
1640 16-11-2021 00:00:00 5.99063 C 6.95 g/m*3 5.99 C 0.04444 km/h
1641 17-11-2021 00:00:00 6.40104 C 7.01 g/m*3 5.59 C 5.21736 km/h
1642 18-11-2021 00:00:00 5.99167 C 6.87 g/m*3 5.99 C 3.74965 km/h
1643 19-11-2021 00:00:00 9.17708 C 8.26 g/m*3 8.12 C 7.61806 km/h
1644 20-11-2021 00:00:00 8.13021 C 7.62 g/m*3 8.13 C 1.53924 km/h
1645 21-11-2021 00:00:00 6.92187 C 7.32 g/m*3 6.92 C 3.75486 km/h
1646 22-11-2021 00:00:00 4.30625 C 5.99 g/m*3 4.31 C 2.13403 km/h
1647 23-11-2021 00:00:00 0.85625 C 4.92 g/m*3 0.86 C 0 km/h
1648 24-11-2021 00:00:00 3.7691 C 5.8 g/m*3 3.77 C 0.45069 km/h
1649 25-11-2021 00:00:00 3.23958 C 5.56 g/m*3 3.24 C 0.13889 km/h
1650 26-11-2021 00:00:00 3.97083 C 5.7 g/m*3 2.84 C 5.17951 km/h
Sensor: Nr:Datum:Temp:Abs-Feuchte:Windchill:Wind:
Aussen-T/F 1651 27-11-2021 00:00:00 2.5934 C 5.29 g/m*3 2.59 C 3.8125 km/h
1652 28-11-2021 00:00:00 2.37083 C 5.45 g/m*3 2.37 C 0.7066 km/h
1653 29-11-2021 00:00:00 2.425 C 5.39 g/m*3 0.88 C 5.68056 km/h
1654 30-11-2021 00:00:00 5.43368 C 6.4 g/m*3 1.45 C 21.45313 km/h
1655 01-12-2021 00:00:00 7.85486 C 7.37 g/m*3 5 C 17.09271 km/h
1656 02-12-2021 00:00:00 3.98472 C 5.79 g/m*3 2.12 C 7.36354 km/h
1657 03-12-2021 00:00:00 2.66597 C 5.11 g/m*3 0.43 C 7.88056 km/h
1658 04-12-2021 00:00:00 4.26979 C 6.02 g/m*3 4.27 C 4.35104 km/h
1659 05-12-2021 00:00:00 3.56597 C 5.72 g/m*3 3.57 C 1.59306 km/h
1660 06-12-2021 00:00:00 2.27778 C 5.39 g/m*3 2.28 C 2.75729 km/h
1661 07-12-2021 00:00:00 3.60989 C 5.67 g/m*3 1.43 C 8.25936 km/h
1662 08-12-2021 00:00:00 3.88854 C 5.83 g/m*3 3.89 C 3.59618 km/h
1663 09-12-2021 00:00:00 2.99028 C 5.47 g/m*3 1.53 C 5.67951 km/h
1664 10-12-2021 00:00:00 2.62882 C 5.22 g/m*3 2.63 C 2.95035 km/h
1665 11-12-2021 00:00:00 3.46007 C 5.74 g/m*3 2 C 5.85694 km/h
1666 12-12-2021 00:00:00 5.02674 C 6.38 g/m*3 3.18 C 7.95833 km/h
1667 13-12-2021 00:00:00 7.93368 C 7.69 g/m*3 7.93 C 2.89271 km/h
1668 14-12-2021 00:00:00 7.64792 C 7.55 g/m*3 7.65 C 1.625 km/h
1669 15-12-2021 00:00:00 8.35312 C 7.77 g/m*3 8.35 C 2.27813 km/h
1670 16-12-2021 00:00:00 8.60035 C 7.97 g/m*3 8.6 C 0.71806 km/h
1671 17-12-2021 00:00:00 7.56667 C 7.54 g/m*3 7.57 C 0.50035 km/h
1672 18-12-2021 00:00:00 4.44514 C 6.29 g/m*3 4.45 C 1.85174 km/h
1673 19-12-2021 00:00:00 5.97917 C 6.79 g/m*3 4.98 C 5.59479 km/h
1674 20-12-2021 00:00:00 2.84965 C 5.44 g/m*3 2.85 C 1.12813 km/h
1675 21-12-2021 00:00:00 -3.77569 C 3.55 g/m*3 -3.78 C 0.16111 km/h
Sensor: Nr:Datum:Temp:Abs-Feuchte:Windchill:Wind:
Aussen-T/F 1676 22-12-2021 00:00:00 -4.11632 C 3.46 g/m*3 -4.12 C 0.02778 km/h
1677 23-12-2021 00:00:00 0.27813 C 4.67 g/m*3 -1.7 C 5.98611 km/h
1678 24-12-2021 00:00:00 8.38854 C 7.57 g/m*3 6.51 C 11.09375 km/h
1679 25-12-2021 00:00:00 3.19514 C 5.69 g/m*3 3.2 C 3.71181 km/h
1680 26-12-2021 00:00:00 0.79167 C 4.78 g/m*3 0.79 C 2.03021 km/h
1681 27-12-2021 00:00:00 4.78819 C 6.47 g/m*3 4.79 C 0.96875 km/h
1682 28-12-2021 00:00:00 8.62396 C 8.11 g/m*3 7.42 C 7.85556 km/h
1683 29-12-2021 00:00:00 9.86042 C 8.52 g/m*3 8.79 C 8.27049 km/h
1684 30-12-2021 00:00:00 13.13437 C 10.63 g/m*3 13.13 C 11.45833 km/h
1685 31-12-2021 00:00:00 12.33194 C 9.78 g/m*3 12.33 C 9.79271 km/h
1686 01-01-2022 00:00:00 10.80382 C 9.09 g/m*3 10.8 C 3.21632 km/h
1687 02-01-2022 00:00:00 9.48403 C 8.29 g/m*3 8.42 C 7.90382 km/h
1688 03-01-2022 00:00:00 9.86563 C 8.29 g/m*3 8.02 C 12.93333 km/h
1689 04-01-2022 00:00:00 7.22049 C 7.44 g/m*3 6.29 C 5.94931 km/h
1690 05-01-2022 00:00:00 4.0559 C 5.52 g/m*3 1.02 C 12.50694 km/h
1691 06-01-2022 00:00:00 3.13194 C 5.49 g/m*3 3.13 C 3.49861 km/h
1692 07-01-2022 00:00:00 2.98056 C 5.35 g/m*3 0.27 C 9.89236 km/h
1693 08-01-2022 00:00:00 1.76354 C 5.19 g/m*3 1.76 C 3.82153 km/h
1694 09-01-2022 00:00:00 4.20139 C 5.92 g/m*3 1.94 C 8.98958 km/h
1695 10-01-2022 00:00:00 1.95312 C 5.24 g/m*3 1.95 C 2.48125 km/h
1696 11-01-2022 00:00:00 -0.04375 C 4.62 g/m*3 -0.04 C 1.95556 km/h
1697 12-01-2022 00:00:00 0.49792 C 4.76 g/m*3 0.5 C 0.88958 km/h
1698 13-01-2022 00:00:00 1.37743 C 5.01 g/m*3 1.38 C 0.53333 km/h
1699 14-01-2022 00:00:00 0.13819 C 4.74 g/m*3 0.14 C 0.96667 km/h
1700 15-01-2022 00:00:00 2.04792 C 5.34 g/m*3 2.05 C 1.81181 km/h
Sensor: Nr:Datum:Temp:Abs-Feuchte:Windchill:Wind:
Aussen-T/F 1701 16-01-2022 00:00:00 2.73264 C 5.41 g/m*3 -0.56 C 12.32604 km/h
1702 17-01-2022 00:00:00 5.46493 C 6.39 g/m*3 3.09 C 10.58229 km/h
1703 18-01-2022 00:00:00 6.39375 C 6.9 g/m*3 6.39 C 0.77361 km/h
1704 19-01-2022 00:00:00 3.79792 C 5.7 g/m*3 1.72 C 8.00729 km/h
1705 20-01-2022 00:00:00 3.75868 C 5.51 g/m*3 1.25 C 9.67396 km/h
1706 21-01-2022 00:00:00 3.49826 C 5.52 g/m*3 1.66 C 7.00625 km/h
1707 22-01-2022 00:00:00 5.33785 C 6.36 g/m*3 5.34 C 3.48056 km/h
1708 23-01-2022 00:00:00 4.91806 C 6.29 g/m*3 4.92 C 0.25556 km/h
1709 24-01-2022 00:00:00 3.16979 C 5.45 g/m*3 3.17 C 1.35868 km/h
1710 25-01-2022 00:00:00 2.26424 C 5.29 g/m*3 2.26 C 2.67986 km/h
1711 26-01-2022 00:00:00 2.02674 C 5.12 g/m*3 2.03 C 4.36354 km/h
1712 27-01-2022 00:00:00 3.49583 C 5.5 g/m*3 0.16 C 13.44236 km/h
1713 28-01-2022 00:00:00 5.50104 C 5.94 g/m*3 3.25 C 10.01424 km/h
1714 29-01-2022 00:00:00 6.97188 C 6.91 g/m*3 4 C 16.3309 km/h
1715 30-01-2022 00:00:00 6.09653 C 5.5 g/m*3 3.65 C 11.62743 km/h
1716 31-01-2022 00:00:00 4.35 C 5.81 g/m*3 0.65 C 16.96007 km/h
1717 01-02-2022 00:00:00 5.41736 C 6.07 g/m*3 2.08 C 16.23472 km/h
1718 02-02-2022 00:00:00 8.17535 C 6.98 g/m*3 6.44 C 10.06042 km/h
1719 03-02-2022 00:00:00 7.63611 C 7.3 g/m*3 6.31 C 7.65278 km/h
1720 04-02-2022 00:00:00 6.72535 C 6.68 g/m*3 4.53 C 11.00556 km/h
1721 05-02-2022 00:00:00 3.79861 C 5.39 g/m*3 0.76 C 12.21632 km/h
1722 06-02-2022 00:00:00 6.18611 C 6.49 g/m*3 2.5 C 20.51458 km/h
1723 07-02-2022 00:00:00 4.77812 C 5.52 g/m*3 1.98 C 12.05625 km/h
1724 08-02-2022 00:00:00 7.06389 C 6.8 g/m*3 4.67 C 12.49479 km/h
1725 09-02-2022 00:00:00 8.18229 C 7.33 g/m*3 8.18 C 3.99826 km/h
Sensor: Nr:Datum:Temp:Abs-Feuchte:Windchill:Wind:
Aussen-T/F 1726 10-02-2022 00:00:00 4.81597 C 6.16 g/m*3 2.97 C 7.81181 km/h
1727 11-02-2022 00:00:00 3.00208 C 5.29 g/m*3 1.1 C 6.96944 km/h
1728 12-02-2022 00:00:00 -0.3434 C 4.33 g/m*3 -0.34 C 1.51944 km/h
1729 13-02-2022 00:00:00 1.22569 C 4.83 g/m*3 1.23 C 1.80278 km/h
1730 14-02-2022 00:00:00 7.63299 C 6.82 g/m*3 6.79 C 5.86701 km/h
1731 15-02-2022 00:00:00 6.89271 C 6.47 g/m*3 5.15 C 8.8816 km/h
1732 16-02-2022 00:00:00 11.03819 C 8.56 g/m*3 11.04 C 20.79583 km/h
1733 17-02-2022 00:00:00 11.06701 C 6.93 g/m*3 11.07 C 22.90243 km/h
1734 18-02-2022 00:00:00 9.87188 C 7.13 g/m*3 7.37 C 18.48125 km/h
1735 19-02-2022 00:00:00 6.35868 C 5.23 g/m*3 2.99 C 18.2441 km/h
1736 20-02-2022 00:00:00 9.10937 C 7.46 g/m*3 5.97 C 23.03507 km/h
1737 21-02-2022 00:00:00 6.44722 C 6.14 g/m*3 2.68 C 21.97188 km/h
1738 22-02-2022 00:00:00 7.36042 C 6.55 g/m*3 4.6 C 15.46528 km/h
1739 23-02-2022 00:00:00 6.47326 C 6.22 g/m*3 6.47 C 4.78819 km/h
1740 24-02-2022 00:00:00 6.62569 C 6.43 g/m*3 4.89 C 8.65208 km/h
1741 25-02-2022 00:00:00 3.67917 C 5.38 g/m*3 0.86 C 10.98646 km/h
1742 26-02-2022 00:00:00 3.14792 C 5.32 g/m*3 3.15 C 1.76875 km/h
1743 27-02-2022 00:00:00 1.75104 C 4.49 g/m*3 1.75 C 3.87118 km/h
1744 28-02-2022 00:00:00 1.89201 C 4.4 g/m*3 1.89 C 2.27986 km/h
1745 01-03-2022 00:00:00 2.02812 C 4.31 g/m*3 2.03 C 1.53264 km/h
1746 02-03-2022 00:00:00 3.03229 C 4.38 g/m*3 3.03 C 2.08403 km/h
1747 03-03-2022 00:00:00 2.25069 C 4.2 g/m*3 2.25 C 2.58194 km/h
1748 04-03-2022 00:00:00 1.86701 C 4.18 g/m*3 1.87 C 2.96875 km/h
1749 05-03-2022 00:00:00 0.95903 C 4 g/m*3 0.96 C 2.30972 km/h
1750 06-03-2022 00:00:00 0.51076 C 3.71 g/m*3 0.51 C 3.02847 km/h
Sensor: Nr:Datum:Temp:Abs-Feuchte:Windchill:Wind:
Aussen-T/F 1751 07-03-2022 00:00:00 0.4684 C 3.53 g/m*3 -1.12 C 5.14132 km/h
1752 08-03-2022 00:00:00 1.5316 C 3.83 g/m*3 1.53 C 3.74514 km/h
1753 09-03-2022 00:00:00 2.68715 C 4.06 g/m*3 2.69 C 2.30174 km/h
1754 10-03-2022 00:00:00 4.09792 C 4.38 g/m*3 4.1 C 2.88924 km/h
1755 11-03-2022 00:00:00 5.45104 C 4.52 g/m*3 5.45 C 4.65347 km/h
1756 12-03-2022 00:00:00 8.48785 C 5.19 g/m*3 8.49 C 4.89861 km/h
1757 13-03-2022 00:00:00 7.91111 C 5.34 g/m*3 7.91 C 3.34097 km/h
1758 14-03-2022 00:00:00 8.85417 C 7.27 g/m*3 7.78 C 7.49132 km/h
1759 15-03-2022 00:00:00 4.95556 C 6.4 g/m*3 4.96 C 0 km/h
1760 16-03-2022 00:00:00 7.40347 C 7.1 g/m*3 7.4 C 1.68438 km/h
1761 17-03-2022 00:00:00 7.78056 C 7.1 g/m*3 7.23 C 5.01042 km/h
1762 18-03-2022 00:00:00 6.60938 C 5.34 g/m*3 6.61 C 4.90243 km/h
1763 19-03-2022 00:00:00 6.96528 C 5.16 g/m*3 5.28 C 8.71701 km/h
1764 20-03-2022 00:00:00 7.34583 C 5.71 g/m*3 7.35 C 4.65035 km/h
1765 21-03-2022 00:00:00 10.51563 C 6.79 g/m*3 10.52 C 2.27951 km/h
1766 22-03-2022 00:00:00 8.42396 C 5.53 g/m*3 8.42 C 3.02951 km/h
1767 23-03-2022 00:00:00 8.30972 C 5.71 g/m*3 8.31 C 1.58438 km/h
1768 24-03-2022 00:00:00 8.64132 C 5.81 g/m*3 8.64 C 2.23125 km/h
1769 25-03-2022 00:00:00 8.58819 C 5.77 g/m*3 8.59 C 2.63646 km/h
1770 26-03-2022 00:00:00 8.94306 C 5.98 g/m*3 8.94 C 3.09653 km/h
1771 27-03-2022 00:00:00 10.76812 C 7.52 g/m*3 10.77 C 2.78659 km/h
1772 28-03-2022 00:00:00 11.85278 C 7.62 g/m*3 11.85 C 3.41597 km/h
1773 29-03-2022 00:00:00 11.51736 C 7.68 g/m*3 11.52 C 2.62049 km/h
1774 30-03-2022 00:00:00 9.57847 C 7.43 g/m*3 9.58 C 3.11979 km/h
1775 31-03-2022 00:00:00 6.48993 C 6.35 g/m*3 6.49 C 4.38194 km/h
Sensor: Nr:Datum:Temp:Abs-Feuchte:Windchill:Wind:
Aussen-T/F 1776 01-04-2022 00:00:00 2.86597 C 5.18 g/m*3 0.62 C 8.01771 km/h
1777 02-04-2022 00:00:00 1.97292 C 4.72 g/m*3 -0.22 C 7.33576 km/h
1778 03-04-2022 00:00:00 3.15556 C 4.36 g/m*3 3.16 C 4.47882 km/h
1779 04-04-2022 00:00:00 4.52083 C 5.05 g/m*3 0.93 C 16.48958 km/h
1780 05-04-2022 00:00:00 9.24201 C 7.81 g/m*3 6.39 C 20.32396 km/h
1781 06-04-2022 00:00:00 11.1066 C 7.41 g/m*3 11.11 C 15.60486 km/h
1782 07-04-2022 00:00:00 11.55417 C 7.31 g/m*3 11.55 C 22.16736 km/h
1783 08-04-2022 00:00:00 5.59201 C 6.12 g/m*3 4.03 C 7.24688 km/h
1784 09-04-2022 00:00:00 5.77604 C 5.79 g/m*3 3.56 C 10.11528 km/h
1785 10-04-2022 00:00:00 5.64028 C 5.39 g/m*3 4.74 C 5.19097 km/h
1786 11-04-2022 00:00:00 7.66979 C 5.75 g/m*3 7.67 C 4.47569 km/h
1787 12-04-2022 00:00:00 13.44479 C 7.7 g/m*3 13.44 C 3.97396 km/h
1788 13-04-2022 00:00:00 14.96667 C 9.44 g/m*3 14.97 C 2.76528 km/h
1789 14-04-2022 00:00:00 15.05833 C 9.84 g/m*3 15.06 C 4.85278 km/h
1790 15-04-2022 00:00:00 12.1691 C 8.29 g/m*3 12.17 C 5.75556 km/h
1791 16-04-2022 00:00:00 9.51632 C 6.07 g/m*3 8.73 C 6.73229 km/h
1792 17-04-2022 00:00:00 9.21562 C 5.45 g/m*3 8.8 C 5.19931 km/h
1793 18-04-2022 00:00:00 9.82465 C 5.83 g/m*3 9.82 C 3.48021 km/h
1794 19-04-2022 00:00:00 10.70521 C 6.39 g/m*3 10.71 C 4.03542 km/h
1795 20-04-2022 00:00:00 10.37118 C 5.92 g/m*3 9.58 C 7.33368 km/h
1796 21-04-2022 00:00:00 10.92639 C 7.07 g/m*3 10.49 C 6.19097 km/h
1797 22-04-2022 00:00:00 12.31181 C 7.75 g/m*3 12.31 C 8.20938 km/h
1798 23-04-2022 00:00:00 12.48681 C 8.02 g/m*3 12.49 C 7.11979 km/h
1799 24-04-2022 00:00:00 12.53715 C 7.72 g/m*3 12.54 C 4.33194 km/h
1800 25-04-2022 00:00:00 9.85069 C 8.45 g/m*3 9.85 C 3.41632 km/h
Sensor: Nr:Datum:Temp:Abs-Feuchte:Windchill:Wind:
Aussen-T/F 1801 26-04-2022 00:00:00 9.15243 C 8.27 g/m*3 9.15 C 1.27708 km/h
1802 27-04-2022 00:00:00 11.40382 C 8.54 g/m*3 11.4 C 3.30104 km/h
1803 28-04-2022 00:00:00 12.06493 C 8.04 g/m*3 12.06 C 2.92014 km/h
1804 29-04-2022 00:00:00 12.12986 C 8.18 g/m*3 12.13 C 3.83229 km/h
1805 30-04-2022 00:00:00 10.83993 C 7.74 g/m*3 10.29 C 6.62465 km/h
1806 01-05-2022 00:00:00 11.55382 C 7.83 g/m*3 11.55 C 3.12118 km/h
1807 02-05-2022 00:00:00 13.33785 C 8.8 g/m*3 13.34 C 3.34826 km/h
1808 03-05-2022 00:00:00 15.40799 C 8.89 g/m*3 15.41 C 5.46181 km/h
1809 04-05-2022 00:00:00 14.25313 C 8.97 g/m*3 14.25 C 3.61493 km/h
1810 05-05-2022 00:00:00 14.23993 C 8.59 g/m*3 14.24 C 1.90521 km/h
1811 06-05-2022 00:00:00 14.14757 C 8.5 g/m*3 14.15 C 3.575 km/h
1812 07-05-2022 00:00:00 15.16319 C 9.29 g/m*3 15.16 C 2.92708 km/h
1813 08-05-2022 00:00:00 15.17986 C 10.74 g/m*3 15.18 C 3.04236 km/h
1814 09-05-2022 00:00:00 16.04861 C 9.94 g/m*3 16.05 C 3.06771 km/h
1815 10-05-2022 00:00:00 17.88646 C 10.65 g/m*3 17.89 C 3.96632 km/h
1816 11-05-2022 00:00:00 21.06458 C 11.04 g/m*3 21.06 C 8.89479 km/h
1817 12-05-2022 00:00:00 18.76944 C 9.72 g/m*3 18.77 C 6.82778 km/h
1818 13-05-2022 00:00:00 15.74306 C 8.92 g/m*3 15.74 C 6.05486 km/h
1819 14-05-2022 00:00:00 16.19757 C 9.3 g/m*3 16.2 C 3.67292 km/h
1820 15-05-2022 00:00:00 17.37917 C 10.16 g/m*3 17.38 C 3.96736 km/h
1821 16-05-2022 00:00:00 17.70278 C 12.11 g/m*3 17.7 C 3.91146 km/h
1822 17-05-2022 00:00:00 19.03125 C 12.51 g/m*3 19.03 C 2.67639 km/h
1823 18-05-2022 00:00:00 21.24306 C 12.76 g/m*3 21.24 C 3.05243 km/h
1824 19-05-2022 00:00:00 20.54167 C 13.69 g/m*3 20.54 C 3.32639 km/h
1825 20-05-2022 00:00:00 18.98763 C 14.91 g/m*3 18.99 C 3.32862 km/h
Sensor: Nr:Datum:Temp:Abs-Feuchte:Windchill:Wind:
Aussen-T/F 1826 21-05-2022 00:00:00 15.69132 C 10.12 g/m*3 15.69 C 7.88472 km/h

Maximal/Minimal-Werte vom 22.05.2017 - 21.05.2022

Sensor Min Max Avg
Temp
(Aussen-T/F)
-10.4 °C
27-02-2018  07:25:00
40.4 °C
25-07-2019  16:20:00
11.33 °C
Abs-Feuchte
(Aussen-T/F)
1.98 g/m*3
28-02-2018  00:00:00
17.61 g/m*3
12-08-2020  00:00:00
8.8 g/m*3
Windchill
(Aussen-T/F)
-10.3 C
28-02-2018  00:00:00
28.69 C
25-07-2019  00:00:00
10.97 C

Die Daten stammen von einer Davis Vantage Pro 2 Wetter-Station und werden unter Linux mit der Software wview2wettercgi und aufbereitet. Alle Angaben erfolgen ohne Gewähr für ihre Vollständigkeit oder Richtigkeit.
Kontakt: Rainer Krienke krienke@uni-koblenz.de . Meine Webseiten an der Uni Koblenz oder privat.
Version: $Revision: 0.78 $